<?xml version="1.0" encoding="UTF-8" standalone="no" ?>
<gpx xmlns="http://www.topografix.com/GPX/1/1" xmlns:xsi="http://www.w3.org/2001/XMLSchema-instance" xsi:schemaLocation="http://www.topografix.com/GPX/1/1 http://www.topografix.com/GPX/1/1/gpx.xsd" version="1.1" creator="VisuGPX - https://www.visugpx.com">
  <metadata>
    <name>Sainte Agathe</name>
    <desc><![CDATA[Sainte Agathe en Donzy]]></desc>
  </metadata>
  <trk>
    <name><![CDATA[Sainte Agathe_1]]></name>
    <trkseg>
      <trkpt lat="45.83755" lon="4.30835">
        <ele>731.883</ele>
        <time>2019-10-21T12:17:03Z</time>
      </trkpt>
      <trkpt lat="45.83755" lon="4.30836">
        <ele>731.679</ele>
        <time>2019-10-21T12:17:09Z</time>
      </trkpt>
      <trkpt lat="45.83755" lon="4.30836">
        <ele>732.324</ele>
        <time>2019-10-21T12:17:14Z</time>
      </trkpt>
      <trkpt lat="45.83755" lon="4.30836">
        <ele>733.11</ele>
        <time>2019-10-21T12:17:20Z</time>
      </trkpt>
      <trkpt lat="45.83757" lon="4.30838">
        <ele>734.208</ele>
        <time>2019-10-21T12:17:26Z</time>
      </trkpt>
      <trkpt lat="45.8376" lon="4.30843">
        <ele>733.849</ele>
        <time>2019-10-21T12:17:32Z</time>
      </trkpt>
      <trkpt lat="45.83763" lon="4.30847">
        <ele>733.521</ele>
        <time>2019-10-21T12:17:37Z</time>
      </trkpt>
      <trkpt lat="45.83769" lon="4.3085">
        <ele>732.595</ele>
        <time>2019-10-21T12:17:43Z</time>
      </trkpt>
      <trkpt lat="45.83776" lon="4.30848">
        <ele>732.727</ele>
        <time>2019-10-21T12:17:49Z</time>
      </trkpt>
      <trkpt lat="45.83779" lon="4.30844">
        <ele>733.954</ele>
        <time>2019-10-21T12:17:54Z</time>
      </trkpt>
      <trkpt lat="45.83783" lon="4.30838">
        <ele>733.436</ele>
        <time>2019-10-21T12:18:00Z</time>
      </trkpt>
      <trkpt lat="45.83786" lon="4.30833">
        <ele>733.539</ele>
        <time>2019-10-21T12:18:05Z</time>
      </trkpt>
      <trkpt lat="45.83789" lon="4.30828">
        <ele>733.233</ele>
        <time>2019-10-21T12:18:10Z</time>
      </trkpt>
      <trkpt lat="45.83792" lon="4.30821">
        <ele>733.272</ele>
        <time>2019-10-21T12:18:16Z</time>
      </trkpt>
      <trkpt lat="45.83795" lon="4.30816">
        <ele>733.673</ele>
        <time>2019-10-21T12:18:22Z</time>
      </trkpt>
      <trkpt lat="45.83796" lon="4.30817">
        <ele>734.041</ele>
        <time>2019-10-21T12:18:28Z</time>
      </trkpt>
      <trkpt lat="45.83799" lon="4.30823">
        <ele>735.055</ele>
        <time>2019-10-21T12:18:33Z</time>
      </trkpt>
      <trkpt lat="45.83802" lon="4.3083">
        <ele>735.008</ele>
        <time>2019-10-21T12:18:39Z</time>
      </trkpt>
      <trkpt lat="45.83804" lon="4.30837">
        <ele>735.593</ele>
        <time>2019-10-21T12:18:44Z</time>
      </trkpt>
      <trkpt lat="45.83807" lon="4.30846">
        <ele>735.361</ele>
        <time>2019-10-21T12:18:50Z</time>
      </trkpt>
      <trkpt lat="45.8381" lon="4.30855">
        <ele>735.274</ele>
        <time>2019-10-21T12:18:56Z</time>
      </trkpt>
      <trkpt lat="45.83811" lon="4.30861">
        <ele>734.983</ele>
        <time>2019-10-21T12:19:01Z</time>
      </trkpt>
      <trkpt lat="45.83814" lon="4.30868">
        <ele>734.446</ele>
        <time>2019-10-21T12:19:07Z</time>
      </trkpt>
      <trkpt lat="45.83816" lon="4.30876">
        <ele>734.325</ele>
        <time>2019-10-21T12:19:13Z</time>
      </trkpt>
      <trkpt lat="45.8382" lon="4.30882">
        <ele>733.829</ele>
        <time>2019-10-21T12:19:18Z</time>
      </trkpt>
      <trkpt lat="45.83823" lon="4.30891">
        <ele>733.084</ele>
        <time>2019-10-21T12:19:24Z</time>
      </trkpt>
      <trkpt lat="45.83826" lon="4.30898">
        <ele>731.462</ele>
        <time>2019-10-21T12:19:29Z</time>
      </trkpt>
      <trkpt lat="45.83827" lon="4.30904">
        <ele>731.233</ele>
        <time>2019-10-21T12:19:35Z</time>
      </trkpt>
      <trkpt lat="45.83828" lon="4.30911">
        <ele>730.578</ele>
        <time>2019-10-21T12:19:41Z</time>
      </trkpt>
      <trkpt lat="45.83831" lon="4.30917">
        <ele>730.094</ele>
        <time>2019-10-21T12:19:47Z</time>
      </trkpt>
      <trkpt lat="45.83831" lon="4.30922">
        <ele>730.227</ele>
        <time>2019-10-21T12:19:52Z</time>
      </trkpt>
      <trkpt lat="45.83832" lon="4.30928">
        <ele>730.328</ele>
        <time>2019-10-21T12:19:57Z</time>
      </trkpt>
      <trkpt lat="45.83833" lon="4.30934">
        <ele>729.835</ele>
        <time>2019-10-21T12:20:03Z</time>
      </trkpt>
      <trkpt lat="45.83837" lon="4.30938">
        <ele>729.422</ele>
        <time>2019-10-21T12:20:09Z</time>
      </trkpt>
      <trkpt lat="45.83838" lon="4.30939">
        <ele>728.874</ele>
        <time>2019-10-21T12:20:15Z</time>
      </trkpt>
      <trkpt lat="45.83841" lon="4.30941">
        <ele>731.14</ele>
        <time>2019-10-21T12:20:20Z</time>
      </trkpt>
      <trkpt lat="45.83843" lon="4.30943">
        <ele>731.348</ele>
        <time>2019-10-21T12:20:25Z</time>
      </trkpt>
      <trkpt lat="45.83844" lon="4.30944">
        <ele>731.347</ele>
        <time>2019-10-21T12:20:30Z</time>
      </trkpt>
      <trkpt lat="45.83848" lon="4.30949">
        <ele>730.18</ele>
        <time>2019-10-21T12:20:36Z</time>
      </trkpt>
      <trkpt lat="45.83851" lon="4.30953">
        <ele>730.101</ele>
        <time>2019-10-21T12:20:41Z</time>
      </trkpt>
      <trkpt lat="45.83855" lon="4.30956">
        <ele>729.646</ele>
        <time>2019-10-21T12:20:47Z</time>
      </trkpt>
      <trkpt lat="45.83859" lon="4.30962">
        <ele>726.446</ele>
        <time>2019-10-21T12:20:53Z</time>
      </trkpt>
      <trkpt lat="45.83864" lon="4.30965">
        <ele>725.466</ele>
        <time>2019-10-21T12:20:58Z</time>
      </trkpt>
      <trkpt lat="45.83874" lon="4.30967">
        <ele>724.746</ele>
        <time>2019-10-21T12:21:04Z</time>
      </trkpt>
      <trkpt lat="45.83879" lon="4.3097">
        <ele>723.495</ele>
        <time>2019-10-21T12:21:10Z</time>
      </trkpt>
      <trkpt lat="45.83884" lon="4.30972">
        <ele>723.321</ele>
        <time>2019-10-21T12:21:16Z</time>
      </trkpt>
      <trkpt lat="45.83889" lon="4.30974">
        <ele>722</ele>
        <time>2019-10-21T12:21:22Z</time>
      </trkpt>
      <trkpt lat="45.83894" lon="4.3098">
        <ele>720.02</ele>
        <time>2019-10-21T12:21:28Z</time>
      </trkpt>
      <trkpt lat="45.83897" lon="4.30984">
        <ele>717.665</ele>
        <time>2019-10-21T12:21:34Z</time>
      </trkpt>
      <trkpt lat="45.83902" lon="4.30984">
        <ele>724.66</ele>
        <time>2019-10-21T12:21:40Z</time>
      </trkpt>
      <trkpt lat="45.83907" lon="4.30987">
        <ele>715.796</ele>
        <time>2019-10-21T12:21:45Z</time>
      </trkpt>
      <trkpt lat="45.83908" lon="4.30991">
        <ele>715.516</ele>
        <time>2019-10-21T12:21:50Z</time>
      </trkpt>
      <trkpt lat="45.83914" lon="4.30993">
        <ele>717.93</ele>
        <time>2019-10-21T12:21:56Z</time>
      </trkpt>
      <trkpt lat="45.83914" lon="4.30995">
        <ele>717.89</ele>
        <time>2019-10-21T12:22:02Z</time>
      </trkpt>
      <trkpt lat="45.83916" lon="4.30995">
        <ele>717.834</ele>
        <time>2019-10-21T12:22:07Z</time>
      </trkpt>
      <trkpt lat="45.83921" lon="4.30996">
        <ele>723.034</ele>
        <time>2019-10-21T12:22:13Z</time>
      </trkpt>
      <trkpt lat="45.83923" lon="4.30997">
        <ele>722.379</ele>
        <time>2019-10-21T12:22:18Z</time>
      </trkpt>
      <trkpt lat="45.83926" lon="4.30999">
        <ele>709.821</ele>
        <time>2019-10-21T12:22:23Z</time>
      </trkpt>
      <trkpt lat="45.83928" lon="4.31005">
        <ele>703.861</ele>
        <time>2019-10-21T12:22:29Z</time>
      </trkpt>
      <trkpt lat="45.8393" lon="4.3101">
        <ele>707.976</ele>
        <time>2019-10-21T12:22:35Z</time>
      </trkpt>
      <trkpt lat="45.8393" lon="4.31016">
        <ele>704.07</ele>
        <time>2019-10-21T12:22:40Z</time>
      </trkpt>
      <trkpt lat="45.83932" lon="4.3102">
        <ele>703.494</ele>
        <time>2019-10-21T12:22:46Z</time>
      </trkpt>
      <trkpt lat="45.83933" lon="4.31027">
        <ele>700.638</ele>
        <time>2019-10-21T12:22:52Z</time>
      </trkpt>
      <trkpt lat="45.83936" lon="4.31031">
        <ele>697.86</ele>
        <time>2019-10-21T12:22:58Z</time>
      </trkpt>
      <trkpt lat="45.83941" lon="4.31034">
        <ele>695.353</ele>
        <time>2019-10-21T12:23:04Z</time>
      </trkpt>
      <trkpt lat="45.83942" lon="4.31031">
        <ele>690.001</ele>
        <time>2019-10-21T12:23:10Z</time>
      </trkpt>
      <trkpt lat="45.83943" lon="4.31032">
        <ele>688.559</ele>
        <time>2019-10-21T12:23:15Z</time>
      </trkpt>
      <trkpt lat="45.83946" lon="4.31041">
        <ele>685.414</ele>
        <time>2019-10-21T12:23:21Z</time>
      </trkpt>
      <trkpt lat="45.83953" lon="4.31055">
        <ele>686.229</ele>
        <time>2019-10-21T12:23:27Z</time>
      </trkpt>
      <trkpt lat="45.83958" lon="4.31063">
        <ele>685.111</ele>
        <time>2019-10-21T12:23:32Z</time>
      </trkpt>
      <trkpt lat="45.83959" lon="4.31071">
        <ele>684.942</ele>
        <time>2019-10-21T12:23:38Z</time>
      </trkpt>
      <trkpt lat="45.83961" lon="4.31076">
        <ele>682.998</ele>
        <time>2019-10-21T12:23:43Z</time>
      </trkpt>
      <trkpt lat="45.83957" lon="4.31087">
        <ele>681.925</ele>
        <time>2019-10-21T12:23:49Z</time>
      </trkpt>
      <trkpt lat="45.83959" lon="4.3109">
        <ele>682.295</ele>
        <time>2019-10-21T12:23:54Z</time>
      </trkpt>
      <trkpt lat="45.83959" lon="4.3109">
        <ele>681.418</ele>
        <time>2019-10-21T12:24:00Z</time>
      </trkpt>
      <trkpt lat="45.83959" lon="4.3109">
        <ele>681.26</ele>
        <time>2019-10-21T12:24:06Z</time>
      </trkpt>
      <trkpt lat="45.83961" lon="4.31095">
        <ele>679.736</ele>
        <time>2019-10-21T12:24:12Z</time>
      </trkpt>
      <trkpt lat="45.83962" lon="4.31099">
        <ele>679.748</ele>
        <time>2019-10-21T12:24:17Z</time>
      </trkpt>
      <trkpt lat="45.83963" lon="4.31105">
        <ele>679.042</ele>
        <time>2019-10-21T12:24:22Z</time>
      </trkpt>
      <trkpt lat="45.83965" lon="4.31115">
        <ele>677.239</ele>
        <time>2019-10-21T12:24:28Z</time>
      </trkpt>
      <trkpt lat="45.83968" lon="4.31123">
        <ele>679.847</ele>
        <time>2019-10-21T12:24:33Z</time>
      </trkpt>
      <trkpt lat="45.83971" lon="4.31135">
        <ele>682.627</ele>
        <time>2019-10-21T12:24:39Z</time>
      </trkpt>
      <trkpt lat="45.83973" lon="4.31142">
        <ele>684.722</ele>
        <time>2019-10-21T12:24:44Z</time>
      </trkpt>
      <trkpt lat="45.8397" lon="4.31149">
        <ele>682.424</ele>
        <time>2019-10-21T12:24:50Z</time>
      </trkpt>
      <trkpt lat="45.83971" lon="4.31157">
        <ele>685.156</ele>
        <time>2019-10-21T12:24:55Z</time>
      </trkpt>
      <trkpt lat="45.8397" lon="4.31164">
        <ele>682.837</ele>
        <time>2019-10-21T12:25:01Z</time>
      </trkpt>
      <trkpt lat="45.83969" lon="4.31168">
        <ele>683.261</ele>
        <time>2019-10-21T12:25:06Z</time>
      </trkpt>
      <trkpt lat="45.8397" lon="4.31175">
        <ele>679.281</ele>
        <time>2019-10-21T12:25:12Z</time>
      </trkpt>
      <trkpt lat="45.83969" lon="4.31182">
        <ele>676.227</ele>
        <time>2019-10-21T12:25:18Z</time>
      </trkpt>
      <trkpt lat="45.83965" lon="4.3119">
        <ele>671.603</ele>
        <time>2019-10-21T12:25:23Z</time>
      </trkpt>
      <trkpt lat="45.83963" lon="4.31198">
        <ele>666.567</ele>
        <time>2019-10-21T12:25:28Z</time>
      </trkpt>
      <trkpt lat="45.83964" lon="4.31204">
        <ele>664.889</ele>
        <time>2019-10-21T12:25:33Z</time>
      </trkpt>
      <trkpt lat="45.83971" lon="4.31206">
        <ele>662.857</ele>
        <time>2019-10-21T12:25:39Z</time>
      </trkpt>
      <trkpt lat="45.83978" lon="4.31212">
        <ele>663.458</ele>
        <time>2019-10-21T12:25:45Z</time>
      </trkpt>
      <trkpt lat="45.83984" lon="4.31214">
        <ele>664.37</ele>
        <time>2019-10-21T12:25:50Z</time>
      </trkpt>
      <trkpt lat="45.83991" lon="4.31215">
        <ele>665.909</ele>
        <time>2019-10-21T12:25:56Z</time>
      </trkpt>
      <trkpt lat="45.83995" lon="4.31218">
        <ele>668.36</ele>
        <time>2019-10-21T12:26:02Z</time>
      </trkpt>
      <trkpt lat="45.83996" lon="4.31219">
        <ele>669.285</ele>
        <time>2019-10-21T12:26:08Z</time>
      </trkpt>
      <trkpt lat="45.83994" lon="4.3122">
        <ele>671.274</ele>
        <time>2019-10-21T12:26:14Z</time>
      </trkpt>
      <trkpt lat="45.83994" lon="4.3122">
        <ele>671.087</ele>
        <time>2019-10-21T12:26:19Z</time>
      </trkpt>
      <trkpt lat="45.83994" lon="4.31221">
        <ele>670.984</ele>
        <time>2019-10-21T12:26:25Z</time>
      </trkpt>
      <trkpt lat="45.83993" lon="4.31221">
        <ele>670.726</ele>
        <time>2019-10-21T12:26:30Z</time>
      </trkpt>
      <trkpt lat="45.83993" lon="4.3122">
        <ele>670.585</ele>
        <time>2019-10-21T12:26:36Z</time>
      </trkpt>
      <trkpt lat="45.83993" lon="4.31221">
        <ele>670.807</ele>
        <time>2019-10-21T12:26:42Z</time>
      </trkpt>
      <trkpt lat="45.83993" lon="4.31221">
        <ele>670.766</ele>
        <time>2019-10-21T12:26:47Z</time>
      </trkpt>
      <trkpt lat="45.83993" lon="4.31221">
        <ele>670.801</ele>
        <time>2019-10-21T12:26:52Z</time>
      </trkpt>
      <trkpt lat="45.83993" lon="4.31221">
        <ele>670.782</ele>
        <time>2019-10-21T12:26:58Z</time>
      </trkpt>
      <trkpt lat="45.83993" lon="4.3122">
        <ele>673.163</ele>
        <time>2019-10-21T12:27:04Z</time>
      </trkpt>
      <trkpt lat="45.83993" lon="4.3122">
        <ele>672.556</ele>
        <time>2019-10-21T12:27:10Z</time>
      </trkpt>
      <trkpt lat="45.83993" lon="4.3122">
        <ele>672.429</ele>
        <time>2019-10-21T12:27:16Z</time>
      </trkpt>
      <trkpt lat="45.83993" lon="4.3122">
        <ele>671.573</ele>
        <time>2019-10-21T12:27:21Z</time>
      </trkpt>
      <trkpt lat="45.83993" lon="4.3122">
        <ele>671.046</ele>
        <time>2019-10-21T12:27:27Z</time>
      </trkpt>
      <trkpt lat="45.83993" lon="4.3122">
        <ele>670.951</ele>
        <time>2019-10-21T12:27:32Z</time>
      </trkpt>
      <trkpt lat="45.83993" lon="4.3122">
        <ele>670.762</ele>
        <time>2019-10-21T12:27:38Z</time>
      </trkpt>
      <trkpt lat="45.83993" lon="4.3122">
        <ele>670.739</ele>
        <time>2019-10-21T12:27:44Z</time>
      </trkpt>
      <trkpt lat="45.83993" lon="4.3122">
        <ele>670.59</ele>
        <time>2019-10-21T12:27:49Z</time>
      </trkpt>
      <trkpt lat="45.83993" lon="4.3122">
        <ele>670.618</ele>
        <time>2019-10-21T12:27:55Z</time>
      </trkpt>
      <trkpt lat="45.83993" lon="4.3122">
        <ele>670.454</ele>
        <time>2019-10-21T12:28:01Z</time>
      </trkpt>
      <trkpt lat="45.83993" lon="4.3122">
        <ele>670.46</ele>
        <time>2019-10-21T12:28:06Z</time>
      </trkpt>
      <trkpt lat="45.83993" lon="4.3122">
        <ele>670.461</ele>
        <time>2019-10-21T12:28:12Z</time>
      </trkpt>
      <trkpt lat="45.83993" lon="4.3122">
        <ele>670.45</ele>
        <time>2019-10-21T12:28:18Z</time>
      </trkpt>
      <trkpt lat="45.83993" lon="4.3122">
        <ele>670.438</ele>
        <time>2019-10-21T12:28:24Z</time>
      </trkpt>
      <trkpt lat="45.83993" lon="4.3122">
        <ele>670.412</ele>
        <time>2019-10-21T12:28:29Z</time>
      </trkpt>
      <trkpt lat="45.83993" lon="4.3122">
        <ele>670.417</ele>
        <time>2019-10-21T12:28:34Z</time>
      </trkpt>
      <trkpt lat="45.83993" lon="4.3122">
        <ele>670.407</ele>
        <time>2019-10-21T12:28:39Z</time>
      </trkpt>
      <trkpt lat="45.83993" lon="4.3122">
        <ele>670.422</ele>
        <time>2019-10-21T12:28:44Z</time>
      </trkpt>
      <trkpt lat="45.83993" lon="4.3122">
        <ele>670.441</ele>
        <time>2019-10-21T12:28:50Z</time>
      </trkpt>
      <trkpt lat="45.83993" lon="4.3122">
        <ele>670.437</ele>
        <time>2019-10-21T12:28:56Z</time>
      </trkpt>
      <trkpt lat="45.83993" lon="4.3122">
        <ele>671.704</ele>
        <time>2019-10-21T12:29:02Z</time>
      </trkpt>
      <trkpt lat="45.83993" lon="4.3122">
        <ele>670.893</ele>
        <time>2019-10-21T12:29:07Z</time>
      </trkpt>
      <trkpt lat="45.83993" lon="4.31223">
        <ele>667.942</ele>
        <time>2019-10-21T12:29:13Z</time>
      </trkpt>
      <trkpt lat="45.83993" lon="4.31235">
        <ele>667.307</ele>
        <time>2019-10-21T12:29:18Z</time>
      </trkpt>
      <trkpt lat="45.83994" lon="4.31247">
        <ele>669.381</ele>
        <time>2019-10-21T12:29:23Z</time>
      </trkpt>
      <trkpt lat="45.83993" lon="4.31256">
        <ele>671.333</ele>
        <time>2019-10-21T12:29:29Z</time>
      </trkpt>
      <trkpt lat="45.83992" lon="4.31267">
        <ele>671.205</ele>
        <time>2019-10-21T12:29:35Z</time>
      </trkpt>
      <trkpt lat="45.83992" lon="4.31278">
        <ele>668.223</ele>
        <time>2019-10-21T12:29:41Z</time>
      </trkpt>
      <trkpt lat="45.83997" lon="4.31287">
        <ele>661.967</ele>
        <time>2019-10-21T12:29:47Z</time>
      </trkpt>
      <trkpt lat="45.84" lon="4.31292">
        <ele>659.935</ele>
        <time>2019-10-21T12:29:52Z</time>
      </trkpt>
      <trkpt lat="45.84003" lon="4.31298">
        <ele>661.744</ele>
        <time>2019-10-21T12:29:57Z</time>
      </trkpt>
      <trkpt lat="45.84009" lon="4.31304">
        <ele>662.783</ele>
        <time>2019-10-21T12:30:03Z</time>
      </trkpt>
      <trkpt lat="45.8401" lon="4.31312">
        <ele>662.588</ele>
        <time>2019-10-21T12:30:09Z</time>
      </trkpt>
      <trkpt lat="45.84014" lon="4.31324">
        <ele>660.744</ele>
        <time>2019-10-21T12:30:15Z</time>
      </trkpt>
      <trkpt lat="45.84017" lon="4.31336">
        <ele>660.525</ele>
        <time>2019-10-21T12:30:21Z</time>
      </trkpt>
      <trkpt lat="45.84017" lon="4.31349">
        <ele>662.761</ele>
        <time>2019-10-21T12:30:27Z</time>
      </trkpt>
      <trkpt lat="45.84015" lon="4.31358">
        <ele>661.94</ele>
        <time>2019-10-21T12:30:33Z</time>
      </trkpt>
      <trkpt lat="45.84013" lon="4.31367">
        <ele>666.588</ele>
        <time>2019-10-21T12:30:39Z</time>
      </trkpt>
      <trkpt lat="45.84011" lon="4.31373">
        <ele>686.235</ele>
        <time>2019-10-21T12:30:44Z</time>
      </trkpt>
      <trkpt lat="45.84009" lon="4.3138">
        <ele>684.872</ele>
        <time>2019-10-21T12:30:49Z</time>
      </trkpt>
      <trkpt lat="45.84006" lon="4.31385">
        <ele>686.246</ele>
        <time>2019-10-21T12:30:54Z</time>
      </trkpt>
      <trkpt lat="45.84003" lon="4.31389">
        <ele>667.014</ele>
        <time>2019-10-21T12:30:59Z</time>
      </trkpt>
      <trkpt lat="45.83998" lon="4.31395">
        <ele>666.569</ele>
        <time>2019-10-21T12:31:05Z</time>
      </trkpt>
      <trkpt lat="45.83994" lon="4.31401">
        <ele>669.054</ele>
        <time>2019-10-21T12:31:10Z</time>
      </trkpt>
      <trkpt lat="45.83989" lon="4.31405">
        <ele>670.596</ele>
        <time>2019-10-21T12:31:15Z</time>
      </trkpt>
      <trkpt lat="45.83986" lon="4.31409">
        <ele>670.849</ele>
        <time>2019-10-21T12:31:20Z</time>
      </trkpt>
      <trkpt lat="45.83983" lon="4.31414">
        <ele>671.763</ele>
        <time>2019-10-21T12:31:26Z</time>
      </trkpt>
      <trkpt lat="45.83981" lon="4.31417">
        <ele>670.507</ele>
        <time>2019-10-21T12:31:31Z</time>
      </trkpt>
      <trkpt lat="45.83977" lon="4.31421">
        <ele>670.507</ele>
        <time>2019-10-21T12:31:37Z</time>
      </trkpt>
      <trkpt lat="45.83974" lon="4.31425">
        <ele>672.818</ele>
        <time>2019-10-21T12:31:42Z</time>
      </trkpt>
      <trkpt lat="45.83971" lon="4.31429">
        <ele>672.752</ele>
        <time>2019-10-21T12:31:47Z</time>
      </trkpt>
      <trkpt lat="45.83966" lon="4.31435">
        <ele>675.519</ele>
        <time>2019-10-21T12:31:53Z</time>
      </trkpt>
      <trkpt lat="45.83962" lon="4.3144">
        <ele>676.224</ele>
        <time>2019-10-21T12:31:59Z</time>
      </trkpt>
      <trkpt lat="45.83959" lon="4.31445">
        <ele>675.986</ele>
        <time>2019-10-21T12:32:05Z</time>
      </trkpt>
      <trkpt lat="45.83954" lon="4.31453">
        <ele>678.966</ele>
        <time>2019-10-21T12:32:11Z</time>
      </trkpt>
      <trkpt lat="45.83952" lon="4.31459">
        <ele>680.256</ele>
        <time>2019-10-21T12:32:17Z</time>
      </trkpt>
      <trkpt lat="45.83949" lon="4.31464">
        <ele>679.102</ele>
        <time>2019-10-21T12:32:23Z</time>
      </trkpt>
      <trkpt lat="45.83947" lon="4.31468">
        <ele>678.155</ele>
        <time>2019-10-21T12:32:29Z</time>
      </trkpt>
      <trkpt lat="45.83944" lon="4.31473">
        <ele>678.993</ele>
        <time>2019-10-21T12:32:35Z</time>
      </trkpt>
      <trkpt lat="45.83941" lon="4.31477">
        <ele>679.426</ele>
        <time>2019-10-21T12:32:41Z</time>
      </trkpt>
      <trkpt lat="45.83938" lon="4.31482">
        <ele>679.367</ele>
        <time>2019-10-21T12:32:46Z</time>
      </trkpt>
      <trkpt lat="45.83935" lon="4.31487">
        <ele>678.32</ele>
        <time>2019-10-21T12:32:52Z</time>
      </trkpt>
      <trkpt lat="45.83931" lon="4.31492">
        <ele>678.329</ele>
        <time>2019-10-21T12:32:58Z</time>
      </trkpt>
      <trkpt lat="45.83927" lon="4.31496">
        <ele>678.938</ele>
        <time>2019-10-21T12:33:04Z</time>
      </trkpt>
      <trkpt lat="45.83925" lon="4.31501">
        <ele>678.846</ele>
        <time>2019-10-21T12:33:10Z</time>
      </trkpt>
      <trkpt lat="45.83924" lon="4.31505">
        <ele>678.142</ele>
        <time>2019-10-21T12:33:15Z</time>
      </trkpt>
      <trkpt lat="45.83923" lon="4.3151">
        <ele>678.501</ele>
        <time>2019-10-21T12:33:20Z</time>
      </trkpt>
      <trkpt lat="45.8392" lon="4.31514">
        <ele>680.159</ele>
        <time>2019-10-21T12:33:26Z</time>
      </trkpt>
      <trkpt lat="45.83916" lon="4.31518">
        <ele>681.566</ele>
        <time>2019-10-21T12:33:32Z</time>
      </trkpt>
      <trkpt lat="45.83912" lon="4.31524">
        <ele>682.91</ele>
        <time>2019-10-21T12:33:38Z</time>
      </trkpt>
      <trkpt lat="45.83909" lon="4.3153">
        <ele>683.437</ele>
        <time>2019-10-21T12:33:44Z</time>
      </trkpt>
      <trkpt lat="45.83906" lon="4.31535">
        <ele>682.332</ele>
        <time>2019-10-21T12:33:50Z</time>
      </trkpt>
      <trkpt lat="45.83904" lon="4.3154">
        <ele>682.99</ele>
        <time>2019-10-21T12:33:55Z</time>
      </trkpt>
      <trkpt lat="45.83901" lon="4.31546">
        <ele>684.563</ele>
        <time>2019-10-21T12:34:00Z</time>
      </trkpt>
      <trkpt lat="45.83898" lon="4.3155">
        <ele>685.144</ele>
        <time>2019-10-21T12:34:06Z</time>
      </trkpt>
      <trkpt lat="45.83897" lon="4.31554">
        <ele>684.142</ele>
        <time>2019-10-21T12:34:11Z</time>
      </trkpt>
      <trkpt lat="45.83895" lon="4.31561">
        <ele>685.444</ele>
        <time>2019-10-21T12:34:17Z</time>
      </trkpt>
      <trkpt lat="45.83893" lon="4.31566">
        <ele>686.339</ele>
        <time>2019-10-21T12:34:22Z</time>
      </trkpt>
      <trkpt lat="45.8389" lon="4.31573">
        <ele>686.884</ele>
        <time>2019-10-21T12:34:28Z</time>
      </trkpt>
      <trkpt lat="45.83887" lon="4.31579">
        <ele>689.876</ele>
        <time>2019-10-21T12:34:34Z</time>
      </trkpt>
      <trkpt lat="45.83884" lon="4.31584">
        <ele>691.776</ele>
        <time>2019-10-21T12:34:40Z</time>
      </trkpt>
      <trkpt lat="45.83882" lon="4.31589">
        <ele>692.056</ele>
        <time>2019-10-21T12:34:46Z</time>
      </trkpt>
      <trkpt lat="45.8388" lon="4.31596">
        <ele>693.437</ele>
        <time>2019-10-21T12:34:52Z</time>
      </trkpt>
      <trkpt lat="45.83876" lon="4.31603">
        <ele>695.1</ele>
        <time>2019-10-21T12:34:58Z</time>
      </trkpt>
      <trkpt lat="45.83873" lon="4.31609">
        <ele>696.771</ele>
        <time>2019-10-21T12:35:04Z</time>
      </trkpt>
      <trkpt lat="45.8387" lon="4.31614">
        <ele>696.88</ele>
        <time>2019-10-21T12:35:09Z</time>
      </trkpt>
      <trkpt lat="45.83866" lon="4.3162">
        <ele>697.922</ele>
        <time>2019-10-21T12:35:15Z</time>
      </trkpt>
      <trkpt lat="45.83862" lon="4.31626">
        <ele>698.462</ele>
        <time>2019-10-21T12:35:21Z</time>
      </trkpt>
      <trkpt lat="45.83859" lon="4.3163">
        <ele>698.868</ele>
        <time>2019-10-21T12:35:26Z</time>
      </trkpt>
      <trkpt lat="45.83857" lon="4.31635">
        <ele>700.623</ele>
        <time>2019-10-21T12:35:31Z</time>
      </trkpt>
      <trkpt lat="45.83851" lon="4.31641">
        <ele>703.556</ele>
        <time>2019-10-21T12:35:37Z</time>
      </trkpt>
      <trkpt lat="45.8385" lon="4.31648">
        <ele>705.429</ele>
        <time>2019-10-21T12:35:42Z</time>
      </trkpt>
      <trkpt lat="45.83846" lon="4.31658">
        <ele>705.136</ele>
        <time>2019-10-21T12:35:48Z</time>
      </trkpt>
      <trkpt lat="45.83843" lon="4.31663">
        <ele>708.12</ele>
        <time>2019-10-21T12:35:53Z</time>
      </trkpt>
      <trkpt lat="45.83843" lon="4.31667">
        <ele>709.358</ele>
        <time>2019-10-21T12:35:58Z</time>
      </trkpt>
      <trkpt lat="45.83844" lon="4.31673">
        <ele>706.007</ele>
        <time>2019-10-21T12:36:04Z</time>
      </trkpt>
      <trkpt lat="45.83842" lon="4.3168">
        <ele>706.289</ele>
        <time>2019-10-21T12:36:10Z</time>
      </trkpt>
      <trkpt lat="45.83839" lon="4.31686">
        <ele>706.215</ele>
        <time>2019-10-21T12:36:16Z</time>
      </trkpt>
      <trkpt lat="45.83838" lon="4.31691">
        <ele>705.035</ele>
        <time>2019-10-21T12:36:22Z</time>
      </trkpt>
      <trkpt lat="45.83839" lon="4.31691">
        <ele>705.626</ele>
        <time>2019-10-21T12:36:28Z</time>
      </trkpt>
      <trkpt lat="45.83841" lon="4.31692">
        <ele>704.588</ele>
        <time>2019-10-21T12:36:34Z</time>
      </trkpt>
      <trkpt lat="45.83845" lon="4.31692">
        <ele>705.057</ele>
        <time>2019-10-21T12:36:40Z</time>
      </trkpt>
      <trkpt lat="45.83851" lon="4.3169">
        <ele>706.195</ele>
        <time>2019-10-21T12:36:46Z</time>
      </trkpt>
      <trkpt lat="45.83855" lon="4.31685">
        <ele>705.675</ele>
        <time>2019-10-21T12:36:52Z</time>
      </trkpt>
      <trkpt lat="45.83859" lon="4.31681">
        <ele>706.66</ele>
        <time>2019-10-21T12:36:58Z</time>
      </trkpt>
      <trkpt lat="45.83862" lon="4.31678">
        <ele>707.175</ele>
        <time>2019-10-21T12:37:03Z</time>
      </trkpt>
      <trkpt lat="45.83867" lon="4.31674">
        <ele>706.979</ele>
        <time>2019-10-21T12:37:09Z</time>
      </trkpt>
      <trkpt lat="45.83871" lon="4.31671">
        <ele>706.113</ele>
        <time>2019-10-21T12:37:15Z</time>
      </trkpt>
      <trkpt lat="45.83874" lon="4.31671">
        <ele>708.291</ele>
        <time>2019-10-21T12:37:20Z</time>
      </trkpt>
      <trkpt lat="45.83879" lon="4.31668">
        <ele>707.126</ele>
        <time>2019-10-21T12:37:26Z</time>
      </trkpt>
      <trkpt lat="45.83883" lon="4.31667">
        <ele>708.107</ele>
        <time>2019-10-21T12:37:31Z</time>
      </trkpt>
      <trkpt lat="45.83888" lon="4.31665">
        <ele>707.483</ele>
        <time>2019-10-21T12:37:37Z</time>
      </trkpt>
      <trkpt lat="45.83891" lon="4.31665">
        <ele>709.013</ele>
        <time>2019-10-21T12:37:42Z</time>
      </trkpt>
      <trkpt lat="45.83897" lon="4.31664">
        <ele>710.004</ele>
        <time>2019-10-21T12:37:48Z</time>
      </trkpt>
      <trkpt lat="45.839" lon="4.31662">
        <ele>708.651</ele>
        <time>2019-10-21T12:37:54Z</time>
      </trkpt>
      <trkpt lat="45.83903" lon="4.31662">
        <ele>712.101</ele>
        <time>2019-10-21T12:37:59Z</time>
      </trkpt>
      <trkpt lat="45.83907" lon="4.31661">
        <ele>711.012</ele>
        <time>2019-10-21T12:38:04Z</time>
      </trkpt>
      <trkpt lat="45.83912" lon="4.31661">
        <ele>710.911</ele>
        <time>2019-10-21T12:38:10Z</time>
      </trkpt>
      <trkpt lat="45.83916" lon="4.31662">
        <ele>710.05</ele>
        <time>2019-10-21T12:38:15Z</time>
      </trkpt>
      <trkpt lat="45.83921" lon="4.31665">
        <ele>715.749</ele>
        <time>2019-10-21T12:38:21Z</time>
      </trkpt>
      <trkpt lat="45.83926" lon="4.31666">
        <ele>716.41</ele>
        <time>2019-10-21T12:38:26Z</time>
      </trkpt>
      <trkpt lat="45.83927" lon="4.31668">
        <ele>717.619</ele>
        <time>2019-10-21T12:38:31Z</time>
      </trkpt>
      <trkpt lat="45.83933" lon="4.3167">
        <ele>719.464</ele>
        <time>2019-10-21T12:38:37Z</time>
      </trkpt>
      <trkpt lat="45.83936" lon="4.31673">
        <ele>722.896</ele>
        <time>2019-10-21T12:38:42Z</time>
      </trkpt>
      <trkpt lat="45.83941" lon="4.31677">
        <ele>716.624</ele>
        <time>2019-10-21T12:38:48Z</time>
      </trkpt>
      <trkpt lat="45.83943" lon="4.31682">
        <ele>715.027</ele>
        <time>2019-10-21T12:38:53Z</time>
      </trkpt>
      <trkpt lat="45.83941" lon="4.31687">
        <ele>718.497</ele>
        <time>2019-10-21T12:38:58Z</time>
      </trkpt>
      <trkpt lat="45.83939" lon="4.31695">
        <ele>724.061</ele>
        <time>2019-10-21T12:39:04Z</time>
      </trkpt>
      <trkpt lat="45.83937" lon="4.31701">
        <ele>725.331</ele>
        <time>2019-10-21T12:39:09Z</time>
      </trkpt>
      <trkpt lat="45.83934" lon="4.31708">
        <ele>725.782</ele>
        <time>2019-10-21T12:39:15Z</time>
      </trkpt>
      <trkpt lat="45.8393" lon="4.31714">
        <ele>726.085</ele>
        <time>2019-10-21T12:39:20Z</time>
      </trkpt>
      <trkpt lat="45.83928" lon="4.3172">
        <ele>722.535</ele>
        <time>2019-10-21T12:39:25Z</time>
      </trkpt>
      <trkpt lat="45.83927" lon="4.31726">
        <ele>724.002</ele>
        <time>2019-10-21T12:39:31Z</time>
      </trkpt>
      <trkpt lat="45.83925" lon="4.31732">
        <ele>724.054</ele>
        <time>2019-10-21T12:39:36Z</time>
      </trkpt>
      <trkpt lat="45.83923" lon="4.31738">
        <ele>720.724</ele>
        <time>2019-10-21T12:39:42Z</time>
      </trkpt>
      <trkpt lat="45.83922" lon="4.31744">
        <ele>727.131</ele>
        <time>2019-10-21T12:39:48Z</time>
      </trkpt>
      <trkpt lat="45.83922" lon="4.31751">
        <ele>727.322</ele>
        <time>2019-10-21T12:39:54Z</time>
      </trkpt>
      <trkpt lat="45.83921" lon="4.31756">
        <ele>728.646</ele>
        <time>2019-10-21T12:39:59Z</time>
      </trkpt>
      <trkpt lat="45.8392" lon="4.31762">
        <ele>728.861</ele>
        <time>2019-10-21T12:40:04Z</time>
      </trkpt>
      <trkpt lat="45.83918" lon="4.31769">
        <ele>728.526</ele>
        <time>2019-10-21T12:40:10Z</time>
      </trkpt>
      <trkpt lat="45.83918" lon="4.31777">
        <ele>729.348</ele>
        <time>2019-10-21T12:40:16Z</time>
      </trkpt>
      <trkpt lat="45.83916" lon="4.31783">
        <ele>729.522</ele>
        <time>2019-10-21T12:40:21Z</time>
      </trkpt>
      <trkpt lat="45.83914" lon="4.31788">
        <ele>729.941</ele>
        <time>2019-10-21T12:40:27Z</time>
      </trkpt>
      <trkpt lat="45.83913" lon="4.31794">
        <ele>731.071</ele>
        <time>2019-10-21T12:40:32Z</time>
      </trkpt>
      <trkpt lat="45.83912" lon="4.31801">
        <ele>732.87</ele>
        <time>2019-10-21T12:40:38Z</time>
      </trkpt>
      <trkpt lat="45.83913" lon="4.31806">
        <ele>735.404</ele>
        <time>2019-10-21T12:40:44Z</time>
      </trkpt>
      <trkpt lat="45.83913" lon="4.31811">
        <ele>737.406</ele>
        <time>2019-10-21T12:40:50Z</time>
      </trkpt>
      <trkpt lat="45.83912" lon="4.31818">
        <ele>737.547</ele>
        <time>2019-10-21T12:40:55Z</time>
      </trkpt>
      <trkpt lat="45.83911" lon="4.31824">
        <ele>733.355</ele>
        <time>2019-10-21T12:41:01Z</time>
      </trkpt>
      <trkpt lat="45.8391" lon="4.31832">
        <ele>741.595</ele>
        <time>2019-10-21T12:41:07Z</time>
      </trkpt>
      <trkpt lat="45.83911" lon="4.31838">
        <ele>742.859</ele>
        <time>2019-10-21T12:41:12Z</time>
      </trkpt>
      <trkpt lat="45.83909" lon="4.31845">
        <ele>742.344</ele>
        <time>2019-10-21T12:41:18Z</time>
      </trkpt>
      <trkpt lat="45.83908" lon="4.31852">
        <ele>742.912</ele>
        <time>2019-10-21T12:41:24Z</time>
      </trkpt>
      <trkpt lat="45.83906" lon="4.31856">
        <ele>744.411</ele>
        <time>2019-10-21T12:41:29Z</time>
      </trkpt>
      <trkpt lat="45.83906" lon="4.3186">
        <ele>743.184</ele>
        <time>2019-10-21T12:41:34Z</time>
      </trkpt>
      <trkpt lat="45.83905" lon="4.31867">
        <ele>742.42</ele>
        <time>2019-10-21T12:41:40Z</time>
      </trkpt>
      <trkpt lat="45.83907" lon="4.31868">
        <ele>741.71</ele>
        <time>2019-10-21T12:41:46Z</time>
      </trkpt>
      <trkpt lat="45.83907" lon="4.31868">
        <ele>741.732</ele>
        <time>2019-10-21T12:41:51Z</time>
      </trkpt>
      <trkpt lat="45.83907" lon="4.31869">
        <ele>741.639</ele>
        <time>2019-10-21T12:41:57Z</time>
      </trkpt>
      <trkpt lat="45.83907" lon="4.31869">
        <ele>741.487</ele>
        <time>2019-10-21T12:42:02Z</time>
      </trkpt>
      <trkpt lat="45.83906" lon="4.31876">
        <ele>742.276</ele>
        <time>2019-10-21T12:42:08Z</time>
      </trkpt>
      <trkpt lat="45.83904" lon="4.31883">
        <ele>742.852</ele>
        <time>2019-10-21T12:42:13Z</time>
      </trkpt>
      <trkpt lat="45.83903" lon="4.31894">
        <ele>742.045</ele>
        <time>2019-10-21T12:42:19Z</time>
      </trkpt>
      <trkpt lat="45.83903" lon="4.31899">
        <ele>741.31</ele>
        <time>2019-10-21T12:42:24Z</time>
      </trkpt>
      <trkpt lat="45.83903" lon="4.31905">
        <ele>740.979</ele>
        <time>2019-10-21T12:42:29Z</time>
      </trkpt>
      <trkpt lat="45.839" lon="4.31913">
        <ele>744.052</ele>
        <time>2019-10-21T12:42:35Z</time>
      </trkpt>
      <trkpt lat="45.83897" lon="4.3192">
        <ele>743.63</ele>
        <time>2019-10-21T12:42:40Z</time>
      </trkpt>
      <trkpt lat="45.83894" lon="4.31926">
        <ele>742.223</ele>
        <time>2019-10-21T12:42:46Z</time>
      </trkpt>
      <trkpt lat="45.83892" lon="4.31935">
        <ele>744.959</ele>
        <time>2019-10-21T12:42:52Z</time>
      </trkpt>
      <trkpt lat="45.83892" lon="4.31941">
        <ele>746.748</ele>
        <time>2019-10-21T12:42:57Z</time>
      </trkpt>
      <trkpt lat="45.83891" lon="4.31952">
        <ele>745.883</ele>
        <time>2019-10-21T12:43:02Z</time>
      </trkpt>
      <trkpt lat="45.83892" lon="4.31956">
        <ele>743.015</ele>
        <time>2019-10-21T12:43:07Z</time>
      </trkpt>
      <trkpt lat="45.83894" lon="4.31962">
        <ele>743.633</ele>
        <time>2019-10-21T12:43:13Z</time>
      </trkpt>
      <trkpt lat="45.83893" lon="4.31966">
        <ele>747.456</ele>
        <time>2019-10-21T12:43:19Z</time>
      </trkpt>
      <trkpt lat="45.83892" lon="4.3197">
        <ele>744.753</ele>
        <time>2019-10-21T12:43:24Z</time>
      </trkpt>
      <trkpt lat="45.83889" lon="4.31978">
        <ele>744.287</ele>
        <time>2019-10-21T12:43:30Z</time>
      </trkpt>
      <trkpt lat="45.83889" lon="4.31988">
        <ele>747.169</ele>
        <time>2019-10-21T12:43:36Z</time>
      </trkpt>
      <trkpt lat="45.83885" lon="4.31993">
        <ele>746.245</ele>
        <time>2019-10-21T12:43:41Z</time>
      </trkpt>
      <trkpt lat="45.83881" lon="4.31998">
        <ele>743.916</ele>
        <time>2019-10-21T12:43:47Z</time>
      </trkpt>
      <trkpt lat="45.83878" lon="4.32003">
        <ele>749.276</ele>
        <time>2019-10-21T12:43:53Z</time>
      </trkpt>
      <trkpt lat="45.83878" lon="4.32009">
        <ele>748.576</ele>
        <time>2019-10-21T12:43:58Z</time>
      </trkpt>
      <trkpt lat="45.83874" lon="4.32017">
        <ele>743.941</ele>
        <time>2019-10-21T12:44:04Z</time>
      </trkpt>
      <trkpt lat="45.83871" lon="4.32022">
        <ele>744.253</ele>
        <time>2019-10-21T12:44:10Z</time>
      </trkpt>
      <trkpt lat="45.83869" lon="4.32027">
        <ele>743.926</ele>
        <time>2019-10-21T12:44:16Z</time>
      </trkpt>
      <trkpt lat="45.83866" lon="4.32033">
        <ele>746.329</ele>
        <time>2019-10-21T12:44:22Z</time>
      </trkpt>
      <trkpt lat="45.83859" lon="4.3204">
        <ele>745.546</ele>
        <time>2019-10-21T12:44:28Z</time>
      </trkpt>
      <trkpt lat="45.83855" lon="4.32044">
        <ele>750.618</ele>
        <time>2019-10-21T12:44:34Z</time>
      </trkpt>
      <trkpt lat="45.83851" lon="4.32049">
        <ele>749.087</ele>
        <time>2019-10-21T12:44:39Z</time>
      </trkpt>
      <trkpt lat="45.83848" lon="4.32055">
        <ele>749.208</ele>
        <time>2019-10-21T12:44:45Z</time>
      </trkpt>
      <trkpt lat="45.83847" lon="4.32057">
        <ele>750.917</ele>
        <time>2019-10-21T12:44:50Z</time>
      </trkpt>
      <trkpt lat="45.83844" lon="4.32058">
        <ele>762.351</ele>
        <time>2019-10-21T12:44:56Z</time>
      </trkpt>
      <trkpt lat="45.8384" lon="4.32066">
        <ele>764.786</ele>
        <time>2019-10-21T12:45:02Z</time>
      </trkpt>
      <trkpt lat="45.83836" lon="4.32071">
        <ele>745.672</ele>
        <time>2019-10-21T12:45:08Z</time>
      </trkpt>
      <trkpt lat="45.83832" lon="4.32075">
        <ele>751.279</ele>
        <time>2019-10-21T12:45:13Z</time>
      </trkpt>
      <trkpt lat="45.83827" lon="4.32083">
        <ele>750.128</ele>
        <time>2019-10-21T12:45:19Z</time>
      </trkpt>
      <trkpt lat="45.83827" lon="4.32086">
        <ele>755.267</ele>
        <time>2019-10-21T12:45:24Z</time>
      </trkpt>
      <trkpt lat="45.83824" lon="4.32093">
        <ele>768.065</ele>
        <time>2019-10-21T12:45:30Z</time>
      </trkpt>
      <trkpt lat="45.83821" lon="4.32095">
        <ele>752.482</ele>
        <time>2019-10-21T12:45:35Z</time>
      </trkpt>
      <trkpt lat="45.83817" lon="4.32098">
        <ele>755.274</ele>
        <time>2019-10-21T12:45:40Z</time>
      </trkpt>
      <trkpt lat="45.83815" lon="4.32102">
        <ele>767.938</ele>
        <time>2019-10-21T12:45:46Z</time>
      </trkpt>
      <trkpt lat="45.83812" lon="4.32106">
        <ele>726.425</ele>
        <time>2019-10-21T12:45:51Z</time>
      </trkpt>
      <trkpt lat="45.8381" lon="4.3211">
        <ele>733.159</ele>
        <time>2019-10-21T12:45:57Z</time>
      </trkpt>
      <trkpt lat="45.83805" lon="4.32113">
        <ele>736.061</ele>
        <time>2019-10-21T12:46:03Z</time>
      </trkpt>
      <trkpt lat="45.83803" lon="4.32118">
        <ele>750.775</ele>
        <time>2019-10-21T12:46:09Z</time>
      </trkpt>
      <trkpt lat="45.83799" lon="4.32123">
        <ele>753.05</ele>
        <time>2019-10-21T12:46:14Z</time>
      </trkpt>
      <trkpt lat="45.83793" lon="4.32129">
        <ele>758.457</ele>
        <time>2019-10-21T12:46:20Z</time>
      </trkpt>
      <trkpt lat="45.83791" lon="4.32134">
        <ele>759.762</ele>
        <time>2019-10-21T12:46:25Z</time>
      </trkpt>
      <trkpt lat="45.83786" lon="4.3214">
        <ele>759.781</ele>
        <time>2019-10-21T12:46:31Z</time>
      </trkpt>
      <trkpt lat="45.83784" lon="4.32146">
        <ele>759.729</ele>
        <time>2019-10-21T12:46:36Z</time>
      </trkpt>
      <trkpt lat="45.83782" lon="4.32152">
        <ele>762.314</ele>
        <time>2019-10-21T12:46:42Z</time>
      </trkpt>
      <trkpt lat="45.83782" lon="4.32155">
        <ele>757.59</ele>
        <time>2019-10-21T12:46:47Z</time>
      </trkpt>
      <trkpt lat="45.83782" lon="4.32155">
        <ele>758.679</ele>
        <time>2019-10-21T12:46:52Z</time>
      </trkpt>
      <trkpt lat="45.83782" lon="4.32155">
        <ele>759.674</ele>
        <time>2019-10-21T12:46:57Z</time>
      </trkpt>
      <trkpt lat="45.83781" lon="4.32154">
        <ele>760.232</ele>
        <time>2019-10-21T12:47:03Z</time>
      </trkpt>
      <trkpt lat="45.83781" lon="4.32154">
        <ele>761.4</ele>
        <time>2019-10-21T12:47:08Z</time>
      </trkpt>
      <trkpt lat="45.83781" lon="4.32153">
        <ele>756.606</ele>
        <time>2019-10-21T12:47:14Z</time>
      </trkpt>
      <trkpt lat="45.83781" lon="4.32154">
        <ele>762.098</ele>
        <time>2019-10-21T12:47:20Z</time>
      </trkpt>
      <trkpt lat="45.83781" lon="4.32153">
        <ele>763.627</ele>
        <time>2019-10-21T12:47:25Z</time>
      </trkpt>
      <trkpt lat="45.83781" lon="4.32154">
        <ele>766.583</ele>
        <time>2019-10-21T12:47:31Z</time>
      </trkpt>
      <trkpt lat="45.83781" lon="4.32154">
        <ele>765.922</ele>
        <time>2019-10-21T12:47:36Z</time>
      </trkpt>
      <trkpt lat="45.83781" lon="4.32154">
        <ele>764.493</ele>
        <time>2019-10-21T12:47:42Z</time>
      </trkpt>
      <trkpt lat="45.83781" lon="4.32154">
        <ele>761.933</ele>
        <time>2019-10-21T12:47:47Z</time>
      </trkpt>
      <trkpt lat="45.83781" lon="4.32154">
        <ele>777.101</ele>
        <time>2019-10-21T12:47:53Z</time>
      </trkpt>
      <trkpt lat="45.83781" lon="4.32154">
        <ele>776.977</ele>
        <time>2019-10-21T12:47:58Z</time>
      </trkpt>
      <trkpt lat="45.83781" lon="4.32154">
        <ele>776.889</ele>
        <time>2019-10-21T12:48:04Z</time>
      </trkpt>
      <trkpt lat="45.83781" lon="4.32154">
        <ele>776.948</ele>
        <time>2019-10-21T12:48:09Z</time>
      </trkpt>
      <trkpt lat="45.83781" lon="4.32154">
        <ele>776.58</ele>
        <time>2019-10-21T12:48:15Z</time>
      </trkpt>
      <trkpt lat="45.83781" lon="4.32154">
        <ele>776.194</ele>
        <time>2019-10-21T12:48:21Z</time>
      </trkpt>
      <trkpt lat="45.83781" lon="4.32154">
        <ele>775.957</ele>
        <time>2019-10-21T12:48:27Z</time>
      </trkpt>
      <trkpt lat="45.83781" lon="4.32154">
        <ele>776.281</ele>
        <time>2019-10-21T12:48:32Z</time>
      </trkpt>
      <trkpt lat="45.83781" lon="4.32154">
        <ele>761.944</ele>
        <time>2019-10-21T12:48:38Z</time>
      </trkpt>
      <trkpt lat="45.83781" lon="4.32154">
        <ele>766.457</ele>
        <time>2019-10-21T12:48:43Z</time>
      </trkpt>
      <trkpt lat="45.83781" lon="4.32154">
        <ele>776.968</ele>
        <time>2019-10-21T12:48:49Z</time>
      </trkpt>
      <trkpt lat="45.83781" lon="4.32154">
        <ele>776.985</ele>
        <time>2019-10-21T12:48:54Z</time>
      </trkpt>
      <trkpt lat="45.8378" lon="4.32154">
        <ele>777.01</ele>
        <time>2019-10-21T12:49:00Z</time>
      </trkpt>
      <trkpt lat="45.8378" lon="4.32154">
        <ele>777.033</ele>
        <time>2019-10-21T12:49:06Z</time>
      </trkpt>
      <trkpt lat="45.8378" lon="4.32154">
        <ele>776.972</ele>
        <time>2019-10-21T12:49:11Z</time>
      </trkpt>
      <trkpt lat="45.8378" lon="4.32154">
        <ele>776.56</ele>
        <time>2019-10-21T12:49:16Z</time>
      </trkpt>
      <trkpt lat="45.8378" lon="4.32154">
        <ele>776.533</ele>
        <time>2019-10-21T12:49:22Z</time>
      </trkpt>
      <trkpt lat="45.8378" lon="4.32154">
        <ele>776.533</ele>
        <time>2019-10-21T12:49:28Z</time>
      </trkpt>
      <trkpt lat="45.8378" lon="4.32153">
        <ele>776.965</ele>
        <time>2019-10-21T12:49:33Z</time>
      </trkpt>
      <trkpt lat="45.8378" lon="4.32153">
        <ele>777.561</ele>
        <time>2019-10-21T12:49:39Z</time>
      </trkpt>
      <trkpt lat="45.8378" lon="4.32153">
        <ele>768.803</ele>
        <time>2019-10-21T12:49:45Z</time>
      </trkpt>
      <trkpt lat="45.8378" lon="4.32153">
        <ele>763.377</ele>
        <time>2019-10-21T12:49:50Z</time>
      </trkpt>
      <trkpt lat="45.8378" lon="4.32153">
        <ele>762.949</ele>
        <time>2019-10-21T12:49:55Z</time>
      </trkpt>
      <trkpt lat="45.83781" lon="4.32155">
        <ele>760.848</ele>
        <time>2019-10-21T12:50:00Z</time>
      </trkpt>
      <trkpt lat="45.83782" lon="4.32156">
        <ele>766.724</ele>
        <time>2019-10-21T12:50:06Z</time>
      </trkpt>
      <trkpt lat="45.83783" lon="4.32157">
        <ele>755.111</ele>
        <time>2019-10-21T12:50:11Z</time>
      </trkpt>
      <trkpt lat="45.83786" lon="4.32159">
        <ele>754.729</ele>
        <time>2019-10-21T12:50:16Z</time>
      </trkpt>
      <trkpt lat="45.83787" lon="4.3216">
        <ele>755.551</ele>
        <time>2019-10-21T12:50:22Z</time>
      </trkpt>
      <trkpt lat="45.83787" lon="4.32163">
        <ele>754.179</ele>
        <time>2019-10-21T12:50:28Z</time>
      </trkpt>
      <trkpt lat="45.83788" lon="4.32164">
        <ele>755.967</ele>
        <time>2019-10-21T12:50:34Z</time>
      </trkpt>
      <trkpt lat="45.83788" lon="4.32164">
        <ele>756.308</ele>
        <time>2019-10-21T12:50:39Z</time>
      </trkpt>
      <trkpt lat="45.83788" lon="4.32164">
        <ele>761.547</ele>
        <time>2019-10-21T12:50:45Z</time>
      </trkpt>
      <trkpt lat="45.83788" lon="4.32164">
        <ele>762.223</ele>
        <time>2019-10-21T12:50:50Z</time>
      </trkpt>
      <trkpt lat="45.83787" lon="4.32164">
        <ele>754.593</ele>
        <time>2019-10-21T12:50:56Z</time>
      </trkpt>
      <trkpt lat="45.83787" lon="4.32164">
        <ele>756.917</ele>
        <time>2019-10-21T12:51:01Z</time>
      </trkpt>
      <trkpt lat="45.83787" lon="4.32164">
        <ele>765.639</ele>
        <time>2019-10-21T12:51:07Z</time>
      </trkpt>
      <trkpt lat="45.83787" lon="4.32165">
        <ele>765.901</ele>
        <time>2019-10-21T12:51:12Z</time>
      </trkpt>
      <trkpt lat="45.83789" lon="4.32173">
        <ele>764.032</ele>
        <time>2019-10-21T12:51:17Z</time>
      </trkpt>
      <trkpt lat="45.83791" lon="4.3218">
        <ele>764.911</ele>
        <time>2019-10-21T12:51:22Z</time>
      </trkpt>
      <trkpt lat="45.83793" lon="4.32187">
        <ele>764.18</ele>
        <time>2019-10-21T12:51:28Z</time>
      </trkpt>
      <trkpt lat="45.83797" lon="4.32191">
        <ele>761.737</ele>
        <time>2019-10-21T12:51:33Z</time>
      </trkpt>
      <trkpt lat="45.838" lon="4.32196">
        <ele>760.874</ele>
        <time>2019-10-21T12:51:38Z</time>
      </trkpt>
      <trkpt lat="45.83803" lon="4.32203">
        <ele>763.052</ele>
        <time>2019-10-21T12:51:44Z</time>
      </trkpt>
      <trkpt lat="45.83804" lon="4.32206">
        <ele>773.922</ele>
        <time>2019-10-21T12:51:50Z</time>
      </trkpt>
      <trkpt lat="45.83807" lon="4.32209">
        <ele>771.485</ele>
        <time>2019-10-21T12:51:56Z</time>
      </trkpt>
      <trkpt lat="45.83812" lon="4.32213">
        <ele>770.046</ele>
        <time>2019-10-21T12:52:02Z</time>
      </trkpt>
      <trkpt lat="45.83817" lon="4.32218">
        <ele>770.977</ele>
        <time>2019-10-21T12:52:08Z</time>
      </trkpt>
      <trkpt lat="45.83823" lon="4.32221">
        <ele>765.904</ele>
        <time>2019-10-21T12:52:13Z</time>
      </trkpt>
      <trkpt lat="45.83828" lon="4.32224">
        <ele>766.816</ele>
        <time>2019-10-21T12:52:18Z</time>
      </trkpt>
      <trkpt lat="45.83833" lon="4.32228">
        <ele>767.168</ele>
        <time>2019-10-21T12:52:24Z</time>
      </trkpt>
      <trkpt lat="45.83838" lon="4.32229">
        <ele>774.046</ele>
        <time>2019-10-21T12:52:30Z</time>
      </trkpt>
      <trkpt lat="45.83843" lon="4.32228">
        <ele>766.375</ele>
        <time>2019-10-21T12:52:36Z</time>
      </trkpt>
      <trkpt lat="45.83847" lon="4.32227">
        <ele>767.017</ele>
        <time>2019-10-21T12:52:42Z</time>
      </trkpt>
      <trkpt lat="45.83853" lon="4.32224">
        <ele>767.54</ele>
        <time>2019-10-21T12:52:48Z</time>
      </trkpt>
      <trkpt lat="45.83857" lon="4.32223">
        <ele>768.173</ele>
        <time>2019-10-21T12:52:53Z</time>
      </trkpt>
      <trkpt lat="45.83863" lon="4.32222">
        <ele>768.168</ele>
        <time>2019-10-21T12:52:59Z</time>
      </trkpt>
      <trkpt lat="45.83868" lon="4.3222">
        <ele>767.147</ele>
        <time>2019-10-21T12:53:04Z</time>
      </trkpt>
      <trkpt lat="45.83875" lon="4.32216">
        <ele>775.725</ele>
        <time>2019-10-21T12:53:10Z</time>
      </trkpt>
      <trkpt lat="45.8388" lon="4.32215">
        <ele>767.139</ele>
        <time>2019-10-21T12:53:15Z</time>
      </trkpt>
      <trkpt lat="45.83883" lon="4.32214">
        <ele>763.07</ele>
        <time>2019-10-21T12:53:21Z</time>
      </trkpt>
      <trkpt lat="45.83883" lon="4.32214">
        <ele>755.754</ele>
        <time>2019-10-21T12:53:26Z</time>
      </trkpt>
      <trkpt lat="45.83891" lon="4.32215">
        <ele>768.989</ele>
        <time>2019-10-21T12:53:32Z</time>
      </trkpt>
      <trkpt lat="45.83898" lon="4.32214">
        <ele>779.012</ele>
        <time>2019-10-21T12:53:38Z</time>
      </trkpt>
      <trkpt lat="45.83905" lon="4.32213">
        <ele>779.168</ele>
        <time>2019-10-21T12:53:44Z</time>
      </trkpt>
      <trkpt lat="45.8391" lon="4.32213">
        <ele>780.605</ele>
        <time>2019-10-21T12:53:50Z</time>
      </trkpt>
      <trkpt lat="45.83916" lon="4.32211">
        <ele>773.16</ele>
        <time>2019-10-21T12:53:56Z</time>
      </trkpt>
      <trkpt lat="45.83922" lon="4.32212">
        <ele>774.667</ele>
        <time>2019-10-21T12:54:02Z</time>
      </trkpt>
      <trkpt lat="45.83927" lon="4.32212">
        <ele>773.942</ele>
        <time>2019-10-21T12:54:07Z</time>
      </trkpt>
      <trkpt lat="45.83932" lon="4.32212">
        <ele>793.015</ele>
        <time>2019-10-21T12:54:13Z</time>
      </trkpt>
      <trkpt lat="45.83938" lon="4.32212">
        <ele>791.421</ele>
        <time>2019-10-21T12:54:19Z</time>
      </trkpt>
      <trkpt lat="45.83944" lon="4.32211">
        <ele>786.797</ele>
        <time>2019-10-21T12:54:24Z</time>
      </trkpt>
      <trkpt lat="45.83948" lon="4.32211">
        <ele>782.946</ele>
        <time>2019-10-21T12:54:30Z</time>
      </trkpt>
      <trkpt lat="45.83952" lon="4.3221">
        <ele>788.137</ele>
        <time>2019-10-21T12:54:35Z</time>
      </trkpt>
      <trkpt lat="45.83958" lon="4.3221">
        <ele>795.708</ele>
        <time>2019-10-21T12:54:41Z</time>
      </trkpt>
      <trkpt lat="45.83965" lon="4.3221">
        <ele>792.95</ele>
        <time>2019-10-21T12:54:47Z</time>
      </trkpt>
      <trkpt lat="45.83972" lon="4.3221">
        <ele>796.023</ele>
        <time>2019-10-21T12:54:53Z</time>
      </trkpt>
      <trkpt lat="45.83977" lon="4.32211">
        <ele>793.639</ele>
        <time>2019-10-21T12:54:58Z</time>
      </trkpt>
      <trkpt lat="45.83983" lon="4.32213">
        <ele>797.303</ele>
        <time>2019-10-21T12:55:04Z</time>
      </trkpt>
      <trkpt lat="45.83988" lon="4.32215">
        <ele>798.741</ele>
        <time>2019-10-21T12:55:09Z</time>
      </trkpt>
      <trkpt lat="45.83994" lon="4.32219">
        <ele>799.513</ele>
        <time>2019-10-21T12:55:15Z</time>
      </trkpt>
      <trkpt lat="45.83999" lon="4.32223">
        <ele>799.876</ele>
        <time>2019-10-21T12:55:20Z</time>
      </trkpt>
      <trkpt lat="45.84006" lon="4.32226">
        <ele>798.903</ele>
        <time>2019-10-21T12:55:26Z</time>
      </trkpt>
      <trkpt lat="45.84011" lon="4.32229">
        <ele>797.555</ele>
        <time>2019-10-21T12:55:31Z</time>
      </trkpt>
      <trkpt lat="45.84016" lon="4.32232">
        <ele>796.543</ele>
        <time>2019-10-21T12:55:36Z</time>
      </trkpt>
      <trkpt lat="45.84021" lon="4.32233">
        <ele>796.724</ele>
        <time>2019-10-21T12:55:42Z</time>
      </trkpt>
      <trkpt lat="45.84026" lon="4.32233">
        <ele>796.804</ele>
        <time>2019-10-21T12:55:47Z</time>
      </trkpt>
      <trkpt lat="45.84033" lon="4.32236">
        <ele>799.313</ele>
        <time>2019-10-21T12:55:53Z</time>
      </trkpt>
      <trkpt lat="45.84038" lon="4.32238">
        <ele>798.734</ele>
        <time>2019-10-21T12:55:58Z</time>
      </trkpt>
      <trkpt lat="45.84046" lon="4.32238">
        <ele>799.362</ele>
        <time>2019-10-21T12:56:04Z</time>
      </trkpt>
      <trkpt lat="45.84048" lon="4.32238">
        <ele>799.605</ele>
        <time>2019-10-21T12:56:09Z</time>
      </trkpt>
      <trkpt lat="45.84053" lon="4.32238">
        <ele>798.124</ele>
        <time>2019-10-21T12:56:15Z</time>
      </trkpt>
      <trkpt lat="45.84059" lon="4.32239">
        <ele>798.147</ele>
        <time>2019-10-21T12:56:20Z</time>
      </trkpt>
      <trkpt lat="45.84065" lon="4.32239">
        <ele>798.886</ele>
        <time>2019-10-21T12:56:26Z</time>
      </trkpt>
      <trkpt lat="45.84072" lon="4.3224">
        <ele>799.668</ele>
        <time>2019-10-21T12:56:31Z</time>
      </trkpt>
      <trkpt lat="45.84077" lon="4.32241">
        <ele>798.681</ele>
        <time>2019-10-21T12:56:37Z</time>
      </trkpt>
      <trkpt lat="45.84082" lon="4.32243">
        <ele>804.091</ele>
        <time>2019-10-21T12:56:42Z</time>
      </trkpt>
      <trkpt lat="45.84089" lon="4.32244">
        <ele>804.603</ele>
        <time>2019-10-21T12:56:48Z</time>
      </trkpt>
      <trkpt lat="45.84094" lon="4.32244">
        <ele>804.161</ele>
        <time>2019-10-21T12:56:53Z</time>
      </trkpt>
      <trkpt lat="45.84101" lon="4.32246">
        <ele>804.228</ele>
        <time>2019-10-21T12:56:59Z</time>
      </trkpt>
      <trkpt lat="45.84107" lon="4.32248">
        <ele>803.968</ele>
        <time>2019-10-21T12:57:05Z</time>
      </trkpt>
      <trkpt lat="45.84114" lon="4.32248">
        <ele>803.495</ele>
        <time>2019-10-21T12:57:11Z</time>
      </trkpt>
      <trkpt lat="45.84121" lon="4.32249">
        <ele>803.464</ele>
        <time>2019-10-21T12:57:17Z</time>
      </trkpt>
      <trkpt lat="45.84128" lon="4.32249">
        <ele>803.883</ele>
        <time>2019-10-21T12:57:23Z</time>
      </trkpt>
      <trkpt lat="45.84134" lon="4.32249">
        <ele>804.1</ele>
        <time>2019-10-21T12:57:28Z</time>
      </trkpt>
      <trkpt lat="45.8414" lon="4.32249">
        <ele>803.81</ele>
        <time>2019-10-21T12:57:34Z</time>
      </trkpt>
      <trkpt lat="45.84145" lon="4.32249">
        <ele>804.178</ele>
        <time>2019-10-21T12:57:40Z</time>
      </trkpt>
      <trkpt lat="45.8415" lon="4.32248">
        <ele>804.438</ele>
        <time>2019-10-21T12:57:45Z</time>
      </trkpt>
      <trkpt lat="45.84157" lon="4.32248">
        <ele>805.365</ele>
        <time>2019-10-21T12:57:51Z</time>
      </trkpt>
      <trkpt lat="45.84163" lon="4.32248">
        <ele>805.652</ele>
        <time>2019-10-21T12:57:57Z</time>
      </trkpt>
      <trkpt lat="45.8417" lon="4.32247">
        <ele>805.442</ele>
        <time>2019-10-21T12:58:03Z</time>
      </trkpt>
      <trkpt lat="45.84176" lon="4.32246">
        <ele>805.312</ele>
        <time>2019-10-21T12:58:09Z</time>
      </trkpt>
      <trkpt lat="45.84181" lon="4.32246">
        <ele>806.594</ele>
        <time>2019-10-21T12:58:15Z</time>
      </trkpt>
      <trkpt lat="45.84187" lon="4.32247">
        <ele>807.039</ele>
        <time>2019-10-21T12:58:21Z</time>
      </trkpt>
      <trkpt lat="45.84192" lon="4.3225">
        <ele>808.438</ele>
        <time>2019-10-21T12:58:27Z</time>
      </trkpt>
      <trkpt lat="45.84198" lon="4.32254">
        <ele>810.875</ele>
        <time>2019-10-21T12:58:33Z</time>
      </trkpt>
      <trkpt lat="45.84203" lon="4.32256">
        <ele>812.313</ele>
        <time>2019-10-21T12:58:39Z</time>
      </trkpt>
      <trkpt lat="45.84209" lon="4.32258">
        <ele>813.081</ele>
        <time>2019-10-21T12:58:45Z</time>
      </trkpt>
      <trkpt lat="45.84215" lon="4.3226">
        <ele>812.879</ele>
        <time>2019-10-21T12:58:51Z</time>
      </trkpt>
      <trkpt lat="45.84221" lon="4.32262">
        <ele>813.657</ele>
        <time>2019-10-21T12:58:57Z</time>
      </trkpt>
      <trkpt lat="45.84228" lon="4.32264">
        <ele>814.246</ele>
        <time>2019-10-21T12:59:03Z</time>
      </trkpt>
      <trkpt lat="45.84233" lon="4.32265">
        <ele>814.865</ele>
        <time>2019-10-21T12:59:08Z</time>
      </trkpt>
      <trkpt lat="45.84238" lon="4.32266">
        <ele>816.259</ele>
        <time>2019-10-21T12:59:13Z</time>
      </trkpt>
      <trkpt lat="45.84245" lon="4.32267">
        <ele>817.912</ele>
        <time>2019-10-21T12:59:19Z</time>
      </trkpt>
      <trkpt lat="45.84251" lon="4.3227">
        <ele>818.081</ele>
        <time>2019-10-21T12:59:25Z</time>
      </trkpt>
      <trkpt lat="45.84256" lon="4.32274">
        <ele>818.325</ele>
        <time>2019-10-21T12:59:31Z</time>
      </trkpt>
      <trkpt lat="45.84261" lon="4.32278">
        <ele>817.971</ele>
        <time>2019-10-21T12:59:36Z</time>
      </trkpt>
      <trkpt lat="45.84267" lon="4.32284">
        <ele>818.57</ele>
        <time>2019-10-21T12:59:42Z</time>
      </trkpt>
      <trkpt lat="45.84272" lon="4.32289">
        <ele>819.09</ele>
        <time>2019-10-21T12:59:47Z</time>
      </trkpt>
      <trkpt lat="45.84277" lon="4.32294">
        <ele>820.017</ele>
        <time>2019-10-21T12:59:53Z</time>
      </trkpt>
      <trkpt lat="45.84282" lon="4.32299">
        <ele>818.875</ele>
        <time>2019-10-21T12:59:58Z</time>
      </trkpt>
      <trkpt lat="45.84288" lon="4.32304">
        <ele>819.108</ele>
        <time>2019-10-21T13:00:04Z</time>
      </trkpt>
      <trkpt lat="45.84291" lon="4.32309">
        <ele>818.683</ele>
        <time>2019-10-21T13:00:09Z</time>
      </trkpt>
      <trkpt lat="45.84296" lon="4.32315">
        <ele>818.407</ele>
        <time>2019-10-21T13:00:15Z</time>
      </trkpt>
      <trkpt lat="45.84299" lon="4.32321">
        <ele>817.971</ele>
        <time>2019-10-21T13:00:21Z</time>
      </trkpt>
      <trkpt lat="45.84303" lon="4.32328">
        <ele>819.653</ele>
        <time>2019-10-21T13:00:26Z</time>
      </trkpt>
      <trkpt lat="45.84309" lon="4.32331">
        <ele>819.448</ele>
        <time>2019-10-21T13:00:31Z</time>
      </trkpt>
      <trkpt lat="45.84315" lon="4.32334">
        <ele>818.609</ele>
        <time>2019-10-21T13:00:37Z</time>
      </trkpt>
      <trkpt lat="45.84322" lon="4.3234">
        <ele>818.178</ele>
        <time>2019-10-21T13:00:43Z</time>
      </trkpt>
      <trkpt lat="45.84328" lon="4.32345">
        <ele>817.576</ele>
        <time>2019-10-21T13:00:49Z</time>
      </trkpt>
      <trkpt lat="45.84332" lon="4.32349">
        <ele>815.488</ele>
        <time>2019-10-21T13:00:54Z</time>
      </trkpt>
      <trkpt lat="45.84338" lon="4.32354">
        <ele>814.992</ele>
        <time>2019-10-21T13:01:00Z</time>
      </trkpt>
      <trkpt lat="45.84345" lon="4.32358">
        <ele>815.083</ele>
        <time>2019-10-21T13:01:06Z</time>
      </trkpt>
      <trkpt lat="45.84351" lon="4.32362">
        <ele>814.031</ele>
        <time>2019-10-21T13:01:12Z</time>
      </trkpt>
      <trkpt lat="45.84356" lon="4.32367">
        <ele>814.055</ele>
        <time>2019-10-21T13:01:18Z</time>
      </trkpt>
      <trkpt lat="45.84362" lon="4.32371">
        <ele>813.99</ele>
        <time>2019-10-21T13:01:23Z</time>
      </trkpt>
      <trkpt lat="45.84368" lon="4.32377">
        <ele>813.516</ele>
        <time>2019-10-21T13:01:29Z</time>
      </trkpt>
      <trkpt lat="45.84373" lon="4.32381">
        <ele>812.116</ele>
        <time>2019-10-21T13:01:34Z</time>
      </trkpt>
      <trkpt lat="45.84378" lon="4.32385">
        <ele>811.352</ele>
        <time>2019-10-21T13:01:40Z</time>
      </trkpt>
      <trkpt lat="45.84383" lon="4.3239">
        <ele>811.198</ele>
        <time>2019-10-21T13:01:45Z</time>
      </trkpt>
      <trkpt lat="45.84389" lon="4.32397">
        <ele>811.501</ele>
        <time>2019-10-21T13:01:51Z</time>
      </trkpt>
      <trkpt lat="45.84394" lon="4.32403">
        <ele>810.324</ele>
        <time>2019-10-21T13:01:57Z</time>
      </trkpt>
      <trkpt lat="45.844" lon="4.32409">
        <ele>810.164</ele>
        <time>2019-10-21T13:02:03Z</time>
      </trkpt>
      <trkpt lat="45.84407" lon="4.32414">
        <ele>808.729</ele>
        <time>2019-10-21T13:02:09Z</time>
      </trkpt>
      <trkpt lat="45.84412" lon="4.32421">
        <ele>809.758</ele>
        <time>2019-10-21T13:02:15Z</time>
      </trkpt>
      <trkpt lat="45.84417" lon="4.32426">
        <ele>809.371</ele>
        <time>2019-10-21T13:02:21Z</time>
      </trkpt>
      <trkpt lat="45.84422" lon="4.3243">
        <ele>808.115</ele>
        <time>2019-10-21T13:02:26Z</time>
      </trkpt>
      <trkpt lat="45.84428" lon="4.32436">
        <ele>809.509</ele>
        <time>2019-10-21T13:02:32Z</time>
      </trkpt>
      <trkpt lat="45.84433" lon="4.32442">
        <ele>808.39</ele>
        <time>2019-10-21T13:02:37Z</time>
      </trkpt>
      <trkpt lat="45.84439" lon="4.32446">
        <ele>808.622</ele>
        <time>2019-10-21T13:02:43Z</time>
      </trkpt>
      <trkpt lat="45.84444" lon="4.32452">
        <ele>808.575</ele>
        <time>2019-10-21T13:02:48Z</time>
      </trkpt>
      <trkpt lat="45.84449" lon="4.32458">
        <ele>807.582</ele>
        <time>2019-10-21T13:02:54Z</time>
      </trkpt>
      <trkpt lat="45.84455" lon="4.32464">
        <ele>807.34</ele>
        <time>2019-10-21T13:02:59Z</time>
      </trkpt>
      <trkpt lat="45.8446" lon="4.32468">
        <ele>807.862</ele>
        <time>2019-10-21T13:03:04Z</time>
      </trkpt>
      <trkpt lat="45.84466" lon="4.32473">
        <ele>807.168</ele>
        <time>2019-10-21T13:03:10Z</time>
      </trkpt>
      <trkpt lat="45.84472" lon="4.32478">
        <ele>807.092</ele>
        <time>2019-10-21T13:03:16Z</time>
      </trkpt>
      <trkpt lat="45.84472" lon="4.32478">
        <ele>807.349</ele>
        <time>2019-10-21T13:03:22Z</time>
      </trkpt>
      <trkpt lat="45.84477" lon="4.32482">
        <ele>806.559</ele>
        <time>2019-10-21T13:03:27Z</time>
      </trkpt>
      <trkpt lat="45.84485" lon="4.32487">
        <ele>807.569</ele>
        <time>2019-10-21T13:03:33Z</time>
      </trkpt>
      <trkpt lat="45.84489" lon="4.3249">
        <ele>808.257</ele>
        <time>2019-10-21T13:03:39Z</time>
      </trkpt>
      <trkpt lat="45.84495" lon="4.32495">
        <ele>808.408</ele>
        <time>2019-10-21T13:03:45Z</time>
      </trkpt>
      <trkpt lat="45.845" lon="4.32499">
        <ele>808.7</ele>
        <time>2019-10-21T13:03:51Z</time>
      </trkpt>
      <trkpt lat="45.84505" lon="4.32503">
        <ele>808.708</ele>
        <time>2019-10-21T13:03:57Z</time>
      </trkpt>
      <trkpt lat="45.8451" lon="4.32508">
        <ele>809.8</ele>
        <time>2019-10-21T13:04:03Z</time>
      </trkpt>
      <trkpt lat="45.84515" lon="4.32512">
        <ele>809.093</ele>
        <time>2019-10-21T13:04:08Z</time>
      </trkpt>
      <trkpt lat="45.8452" lon="4.32518">
        <ele>809.104</ele>
        <time>2019-10-21T13:04:13Z</time>
      </trkpt>
      <trkpt lat="45.84526" lon="4.32525">
        <ele>809.606</ele>
        <time>2019-10-21T13:04:19Z</time>
      </trkpt>
      <trkpt lat="45.8453" lon="4.3253">
        <ele>810.075</ele>
        <time>2019-10-21T13:04:24Z</time>
      </trkpt>
      <trkpt lat="45.84537" lon="4.32539">
        <ele>807.26</ele>
        <time>2019-10-21T13:04:30Z</time>
      </trkpt>
      <trkpt lat="45.84542" lon="4.32546">
        <ele>807.765</ele>
        <time>2019-10-21T13:04:36Z</time>
      </trkpt>
      <trkpt lat="45.84546" lon="4.32551">
        <ele>808.56</ele>
        <time>2019-10-21T13:04:42Z</time>
      </trkpt>
      <trkpt lat="45.8455" lon="4.32554">
        <ele>808.982</ele>
        <time>2019-10-21T13:04:48Z</time>
      </trkpt>
      <trkpt lat="45.84551" lon="4.32554">
        <ele>809.544</ele>
        <time>2019-10-21T13:04:54Z</time>
      </trkpt>
      <trkpt lat="45.84551" lon="4.32555">
        <ele>809.418</ele>
        <time>2019-10-21T13:05:00Z</time>
      </trkpt>
      <trkpt lat="45.84551" lon="4.32555">
        <ele>809.088</ele>
        <time>2019-10-21T13:05:05Z</time>
      </trkpt>
      <trkpt lat="45.84552" lon="4.32556">
        <ele>808.429</ele>
        <time>2019-10-21T13:05:11Z</time>
      </trkpt>
      <trkpt lat="45.84552" lon="4.32556">
        <ele>809.429</ele>
        <time>2019-10-21T13:05:16Z</time>
      </trkpt>
      <trkpt lat="45.84553" lon="4.32556">
        <ele>808.992</ele>
        <time>2019-10-21T13:05:22Z</time>
      </trkpt>
      <trkpt lat="45.84552" lon="4.32556">
        <ele>809.089</ele>
        <time>2019-10-21T13:05:28Z</time>
      </trkpt>
      <trkpt lat="45.84552" lon="4.32555">
        <ele>809.378</ele>
        <time>2019-10-21T13:05:33Z</time>
      </trkpt>
      <trkpt lat="45.84552" lon="4.32555">
        <ele>809.422</ele>
        <time>2019-10-21T13:05:39Z</time>
      </trkpt>
      <trkpt lat="45.84553" lon="4.32555">
        <ele>809.89</ele>
        <time>2019-10-21T13:05:45Z</time>
      </trkpt>
      <trkpt lat="45.84553" lon="4.32556">
        <ele>809.028</ele>
        <time>2019-10-21T13:05:51Z</time>
      </trkpt>
      <trkpt lat="45.84553" lon="4.32555">
        <ele>808.699</ele>
        <time>2019-10-21T13:05:56Z</time>
      </trkpt>
      <trkpt lat="45.84553" lon="4.32555">
        <ele>809.615</ele>
        <time>2019-10-21T13:06:02Z</time>
      </trkpt>
      <trkpt lat="45.84555" lon="4.32557">
        <ele>809.648</ele>
        <time>2019-10-21T13:06:07Z</time>
      </trkpt>
      <trkpt lat="45.84561" lon="4.3256">
        <ele>809.656</ele>
        <time>2019-10-21T13:06:13Z</time>
      </trkpt>
      <trkpt lat="45.84564" lon="4.32563">
        <ele>810.601</ele>
        <time>2019-10-21T13:06:19Z</time>
      </trkpt>
      <trkpt lat="45.84568" lon="4.32566">
        <ele>810.129</ele>
        <time>2019-10-21T13:06:24Z</time>
      </trkpt>
      <trkpt lat="45.84574" lon="4.32569">
        <ele>809.833</ele>
        <time>2019-10-21T13:06:29Z</time>
      </trkpt>
      <trkpt lat="45.8458" lon="4.32571">
        <ele>810.042</ele>
        <time>2019-10-21T13:06:35Z</time>
      </trkpt>
      <trkpt lat="45.84586" lon="4.32573">
        <ele>809.812</ele>
        <time>2019-10-21T13:06:40Z</time>
      </trkpt>
      <trkpt lat="45.84592" lon="4.32578">
        <ele>809.788</ele>
        <time>2019-10-21T13:06:46Z</time>
      </trkpt>
      <trkpt lat="45.84598" lon="4.3258">
        <ele>809.849</ele>
        <time>2019-10-21T13:06:51Z</time>
      </trkpt>
      <trkpt lat="45.84604" lon="4.32583">
        <ele>808.658</ele>
        <time>2019-10-21T13:06:57Z</time>
      </trkpt>
      <trkpt lat="45.84611" lon="4.32587">
        <ele>807.937</ele>
        <time>2019-10-21T13:07:03Z</time>
      </trkpt>
      <trkpt lat="45.84617" lon="4.32589">
        <ele>808.952</ele>
        <time>2019-10-21T13:07:08Z</time>
      </trkpt>
      <trkpt lat="45.84622" lon="4.32592">
        <ele>808.629</ele>
        <time>2019-10-21T13:07:13Z</time>
      </trkpt>
      <trkpt lat="45.84629" lon="4.32595">
        <ele>809.167</ele>
        <time>2019-10-21T13:07:19Z</time>
      </trkpt>
      <trkpt lat="45.84634" lon="4.32597">
        <ele>808.739</ele>
        <time>2019-10-21T13:07:24Z</time>
      </trkpt>
      <trkpt lat="45.84641" lon="4.32601">
        <ele>808.622</ele>
        <time>2019-10-21T13:07:29Z</time>
      </trkpt>
      <trkpt lat="45.8465" lon="4.32606">
        <ele>808.398</ele>
        <time>2019-10-21T13:07:35Z</time>
      </trkpt>
      <trkpt lat="45.84657" lon="4.32609">
        <ele>808.69</ele>
        <time>2019-10-21T13:07:41Z</time>
      </trkpt>
      <trkpt lat="45.84664" lon="4.32611">
        <ele>809.21</ele>
        <time>2019-10-21T13:07:47Z</time>
      </trkpt>
      <trkpt lat="45.84669" lon="4.32614">
        <ele>807.63</ele>
        <time>2019-10-21T13:07:52Z</time>
      </trkpt>
      <trkpt lat="45.84674" lon="4.32617">
        <ele>807.761</ele>
        <time>2019-10-21T13:07:57Z</time>
      </trkpt>
      <trkpt lat="45.8468" lon="4.32618">
        <ele>805.498</ele>
        <time>2019-10-21T13:08:03Z</time>
      </trkpt>
      <trkpt lat="45.84686" lon="4.32621">
        <ele>805.965</ele>
        <time>2019-10-21T13:08:08Z</time>
      </trkpt>
      <trkpt lat="45.84692" lon="4.32625">
        <ele>805.75</ele>
        <time>2019-10-21T13:08:14Z</time>
      </trkpt>
      <trkpt lat="45.84697" lon="4.32627">
        <ele>804.57</ele>
        <time>2019-10-21T13:08:19Z</time>
      </trkpt>
      <trkpt lat="45.84705" lon="4.32631">
        <ele>805.234</ele>
        <time>2019-10-21T13:08:25Z</time>
      </trkpt>
      <trkpt lat="45.84713" lon="4.32634">
        <ele>805.537</ele>
        <time>2019-10-21T13:08:31Z</time>
      </trkpt>
      <trkpt lat="45.84719" lon="4.32637">
        <ele>806.738</ele>
        <time>2019-10-21T13:08:37Z</time>
      </trkpt>
      <trkpt lat="45.84724" lon="4.3264">
        <ele>807.815</ele>
        <time>2019-10-21T13:08:42Z</time>
      </trkpt>
      <trkpt lat="45.84731" lon="4.32642">
        <ele>808.526</ele>
        <time>2019-10-21T13:08:48Z</time>
      </trkpt>
      <trkpt lat="45.84736" lon="4.32644">
        <ele>807.407</ele>
        <time>2019-10-21T13:08:53Z</time>
      </trkpt>
      <trkpt lat="45.84743" lon="4.32646">
        <ele>807.213</ele>
        <time>2019-10-21T13:08:59Z</time>
      </trkpt>
      <trkpt lat="45.84749" lon="4.32649">
        <ele>808.674</ele>
        <time>2019-10-21T13:09:04Z</time>
      </trkpt>
      <trkpt lat="45.84754" lon="4.32649">
        <ele>809.234</ele>
        <time>2019-10-21T13:09:09Z</time>
      </trkpt>
      <trkpt lat="45.84762" lon="4.32651">
        <ele>809.407</ele>
        <time>2019-10-21T13:09:15Z</time>
      </trkpt>
      <trkpt lat="45.84767" lon="4.32649">
        <ele>808.979</ele>
        <time>2019-10-21T13:09:21Z</time>
      </trkpt>
      <trkpt lat="45.84773" lon="4.3265">
        <ele>809.597</ele>
        <time>2019-10-21T13:09:26Z</time>
      </trkpt>
      <trkpt lat="45.84779" lon="4.32652">
        <ele>804.915</ele>
        <time>2019-10-21T13:09:32Z</time>
      </trkpt>
      <trkpt lat="45.84786" lon="4.32652">
        <ele>804.739</ele>
        <time>2019-10-21T13:09:37Z</time>
      </trkpt>
      <trkpt lat="45.84794" lon="4.32653">
        <ele>803.431</ele>
        <time>2019-10-21T13:09:43Z</time>
      </trkpt>
      <trkpt lat="45.84799" lon="4.32653">
        <ele>804.063</ele>
        <time>2019-10-21T13:09:48Z</time>
      </trkpt>
      <trkpt lat="45.84806" lon="4.32652">
        <ele>804.565</ele>
        <time>2019-10-21T13:09:54Z</time>
      </trkpt>
      <trkpt lat="45.84812" lon="4.32652">
        <ele>805.575</ele>
        <time>2019-10-21T13:09:59Z</time>
      </trkpt>
      <trkpt lat="45.84818" lon="4.32651">
        <ele>805.43</ele>
        <time>2019-10-21T13:10:04Z</time>
      </trkpt>
      <trkpt lat="45.84824" lon="4.32648">
        <ele>804.96</ele>
        <time>2019-10-21T13:10:10Z</time>
      </trkpt>
      <trkpt lat="45.84832" lon="4.32648">
        <ele>804.336</ele>
        <time>2019-10-21T13:10:16Z</time>
      </trkpt>
      <trkpt lat="45.84838" lon="4.32647">
        <ele>804.69</ele>
        <time>2019-10-21T13:10:21Z</time>
      </trkpt>
      <trkpt lat="45.84845" lon="4.32646">
        <ele>805.093</ele>
        <time>2019-10-21T13:10:27Z</time>
      </trkpt>
      <trkpt lat="45.8485" lon="4.32645">
        <ele>805.321</ele>
        <time>2019-10-21T13:10:32Z</time>
      </trkpt>
      <trkpt lat="45.84855" lon="4.32643">
        <ele>805.269</ele>
        <time>2019-10-21T13:10:38Z</time>
      </trkpt>
      <trkpt lat="45.8486" lon="4.32642">
        <ele>806.418</ele>
        <time>2019-10-21T13:10:44Z</time>
      </trkpt>
      <trkpt lat="45.84865" lon="4.32641">
        <ele>807.231</ele>
        <time>2019-10-21T13:10:50Z</time>
      </trkpt>
      <trkpt lat="45.84871" lon="4.3264">
        <ele>807.709</ele>
        <time>2019-10-21T13:10:55Z</time>
      </trkpt>
      <trkpt lat="45.84881" lon="4.32644">
        <ele>809.368</ele>
        <time>2019-10-21T13:11:01Z</time>
      </trkpt>
      <trkpt lat="45.84888" lon="4.32647">
        <ele>810.276</ele>
        <time>2019-10-21T13:11:06Z</time>
      </trkpt>
      <trkpt lat="45.84896" lon="4.3265">
        <ele>810.023</ele>
        <time>2019-10-21T13:11:12Z</time>
      </trkpt>
      <trkpt lat="45.84901" lon="4.32654">
        <ele>810.939</ele>
        <time>2019-10-21T13:11:17Z</time>
      </trkpt>
      <trkpt lat="45.84907" lon="4.32659">
        <ele>810.578</ele>
        <time>2019-10-21T13:11:22Z</time>
      </trkpt>
      <trkpt lat="45.84915" lon="4.32663">
        <ele>810.982</ele>
        <time>2019-10-21T13:11:28Z</time>
      </trkpt>
      <trkpt lat="45.84921" lon="4.32663">
        <ele>810.05</ele>
        <time>2019-10-21T13:11:34Z</time>
      </trkpt>
      <trkpt lat="45.84927" lon="4.32661">
        <ele>809.632</ele>
        <time>2019-10-21T13:11:39Z</time>
      </trkpt>
      <trkpt lat="45.84931" lon="4.32657">
        <ele>809.069</ele>
        <time>2019-10-21T13:11:45Z</time>
      </trkpt>
      <trkpt lat="45.84935" lon="4.32653">
        <ele>809.216</ele>
        <time>2019-10-21T13:11:51Z</time>
      </trkpt>
      <trkpt lat="45.84939" lon="4.32653">
        <ele>807.859</ele>
        <time>2019-10-21T13:11:56Z</time>
      </trkpt>
      <trkpt lat="45.84941" lon="4.32653">
        <ele>808.083</ele>
        <time>2019-10-21T13:12:02Z</time>
      </trkpt>
      <trkpt lat="45.84943" lon="4.32652">
        <ele>807.442</ele>
        <time>2019-10-21T13:12:08Z</time>
      </trkpt>
      <trkpt lat="45.84947" lon="4.32647">
        <ele>806.42</ele>
        <time>2019-10-21T13:12:14Z</time>
      </trkpt>
      <trkpt lat="45.8495" lon="4.3264">
        <ele>806.411</ele>
        <time>2019-10-21T13:12:20Z</time>
      </trkpt>
      <trkpt lat="45.84954" lon="4.32631">
        <ele>806.522</ele>
        <time>2019-10-21T13:12:26Z</time>
      </trkpt>
      <trkpt lat="45.84958" lon="4.32624">
        <ele>807.392</ele>
        <time>2019-10-21T13:12:32Z</time>
      </trkpt>
      <trkpt lat="45.84962" lon="4.3262">
        <ele>807.651</ele>
        <time>2019-10-21T13:12:37Z</time>
      </trkpt>
      <trkpt lat="45.84965" lon="4.32617">
        <ele>807.639</ele>
        <time>2019-10-21T13:12:42Z</time>
      </trkpt>
      <trkpt lat="45.84968" lon="4.32611">
        <ele>808.15</ele>
        <time>2019-10-21T13:12:48Z</time>
      </trkpt>
      <trkpt lat="45.84973" lon="4.32607">
        <ele>805.623</ele>
        <time>2019-10-21T13:12:54Z</time>
      </trkpt>
      <trkpt lat="45.84978" lon="4.32603">
        <ele>806.076</ele>
        <time>2019-10-21T13:13:00Z</time>
      </trkpt>
      <trkpt lat="45.84984" lon="4.32593">
        <ele>806.737</ele>
        <time>2019-10-21T13:13:06Z</time>
      </trkpt>
      <trkpt lat="45.84989" lon="4.32585">
        <ele>808.128</ele>
        <time>2019-10-21T13:13:12Z</time>
      </trkpt>
      <trkpt lat="45.84993" lon="4.32581">
        <ele>806.829</ele>
        <time>2019-10-21T13:13:17Z</time>
      </trkpt>
      <trkpt lat="45.84997" lon="4.32574">
        <ele>807.033</ele>
        <time>2019-10-21T13:13:22Z</time>
      </trkpt>
      <trkpt lat="45.85001" lon="4.32566">
        <ele>808.696</ele>
        <time>2019-10-21T13:13:28Z</time>
      </trkpt>
      <trkpt lat="45.85005" lon="4.32561">
        <ele>810.119</ele>
        <time>2019-10-21T13:13:33Z</time>
      </trkpt>
      <trkpt lat="45.85007" lon="4.32555">
        <ele>808.7</ele>
        <time>2019-10-21T13:13:39Z</time>
      </trkpt>
      <trkpt lat="45.85011" lon="4.32549">
        <ele>809.132</ele>
        <time>2019-10-21T13:13:45Z</time>
      </trkpt>
      <trkpt lat="45.85014" lon="4.32543">
        <ele>809.139</ele>
        <time>2019-10-21T13:13:50Z</time>
      </trkpt>
      <trkpt lat="45.85018" lon="4.32533">
        <ele>808.564</ele>
        <time>2019-10-21T13:13:56Z</time>
      </trkpt>
      <trkpt lat="45.85021" lon="4.32525">
        <ele>808.378</ele>
        <time>2019-10-21T13:14:02Z</time>
      </trkpt>
      <trkpt lat="45.85023" lon="4.32518">
        <ele>808.202</ele>
        <time>2019-10-21T13:14:08Z</time>
      </trkpt>
      <trkpt lat="45.85026" lon="4.3251">
        <ele>808.17</ele>
        <time>2019-10-21T13:14:14Z</time>
      </trkpt>
      <trkpt lat="45.85029" lon="4.32503">
        <ele>809.283</ele>
        <time>2019-10-21T13:14:19Z</time>
      </trkpt>
      <trkpt lat="45.85031" lon="4.32494">
        <ele>809.445</ele>
        <time>2019-10-21T13:14:24Z</time>
      </trkpt>
      <trkpt lat="45.85033" lon="4.32486">
        <ele>809.605</ele>
        <time>2019-10-21T13:14:30Z</time>
      </trkpt>
      <trkpt lat="45.85035" lon="4.32475">
        <ele>809.807</ele>
        <time>2019-10-21T13:14:36Z</time>
      </trkpt>
      <trkpt lat="45.85038" lon="4.32465">
        <ele>808.554</ele>
        <time>2019-10-21T13:14:42Z</time>
      </trkpt>
      <trkpt lat="45.8504" lon="4.32458">
        <ele>806.667</ele>
        <time>2019-10-21T13:14:48Z</time>
      </trkpt>
      <trkpt lat="45.85043" lon="4.32451">
        <ele>805.534</ele>
        <time>2019-10-21T13:14:54Z</time>
      </trkpt>
      <trkpt lat="45.85045" lon="4.32443">
        <ele>804.972</ele>
        <time>2019-10-21T13:14:59Z</time>
      </trkpt>
      <trkpt lat="45.85046" lon="4.32435">
        <ele>805.74</ele>
        <time>2019-10-21T13:15:05Z</time>
      </trkpt>
      <trkpt lat="45.85047" lon="4.32429">
        <ele>807.177</ele>
        <time>2019-10-21T13:15:10Z</time>
      </trkpt>
      <trkpt lat="45.8505" lon="4.32421">
        <ele>806.847</ele>
        <time>2019-10-21T13:15:16Z</time>
      </trkpt>
      <trkpt lat="45.85054" lon="4.32413">
        <ele>805.309</ele>
        <time>2019-10-21T13:15:22Z</time>
      </trkpt>
      <trkpt lat="45.85057" lon="4.32404">
        <ele>805.385</ele>
        <time>2019-10-21T13:15:28Z</time>
      </trkpt>
      <trkpt lat="45.8506" lon="4.32396">
        <ele>807.591</ele>
        <time>2019-10-21T13:15:34Z</time>
      </trkpt>
      <trkpt lat="45.85062" lon="4.32388">
        <ele>806.891</ele>
        <time>2019-10-21T13:15:39Z</time>
      </trkpt>
      <trkpt lat="45.85064" lon="4.32382">
        <ele>806.258</ele>
        <time>2019-10-21T13:15:44Z</time>
      </trkpt>
      <trkpt lat="45.85066" lon="4.3238">
        <ele>805.901</ele>
        <time>2019-10-21T13:15:49Z</time>
      </trkpt>
      <trkpt lat="45.85067" lon="4.32375">
        <ele>807.606</ele>
        <time>2019-10-21T13:15:55Z</time>
      </trkpt>
      <trkpt lat="45.85069" lon="4.32369">
        <ele>805.891</ele>
        <time>2019-10-21T13:16:00Z</time>
      </trkpt>
      <trkpt lat="45.85071" lon="4.32361">
        <ele>806.875</ele>
        <time>2019-10-21T13:16:06Z</time>
      </trkpt>
      <trkpt lat="45.85071" lon="4.3236">
        <ele>809.027</ele>
        <time>2019-10-21T13:16:12Z</time>
      </trkpt>
      <trkpt lat="45.85071" lon="4.32361">
        <ele>808.437</ele>
        <time>2019-10-21T13:16:18Z</time>
      </trkpt>
      <trkpt lat="45.85073" lon="4.32358">
        <ele>809.29</ele>
        <time>2019-10-21T13:16:24Z</time>
      </trkpt>
      <trkpt lat="45.85074" lon="4.32356">
        <ele>808.909</ele>
        <time>2019-10-21T13:16:29Z</time>
      </trkpt>
      <trkpt lat="45.85078" lon="4.3235">
        <ele>808.871</ele>
        <time>2019-10-21T13:16:34Z</time>
      </trkpt>
      <trkpt lat="45.85083" lon="4.32346">
        <ele>807.302</ele>
        <time>2019-10-21T13:16:39Z</time>
      </trkpt>
      <trkpt lat="45.85089" lon="4.32344">
        <ele>807.047</ele>
        <time>2019-10-21T13:16:45Z</time>
      </trkpt>
      <trkpt lat="45.85095" lon="4.32336">
        <ele>807.108</ele>
        <time>2019-10-21T13:16:51Z</time>
      </trkpt>
      <trkpt lat="45.851" lon="4.32331">
        <ele>806.713</ele>
        <time>2019-10-21T13:16:57Z</time>
      </trkpt>
      <trkpt lat="45.85104" lon="4.32325">
        <ele>807.832</ele>
        <time>2019-10-21T13:17:02Z</time>
      </trkpt>
      <trkpt lat="45.85109" lon="4.32318">
        <ele>807.03</ele>
        <time>2019-10-21T13:17:07Z</time>
      </trkpt>
      <trkpt lat="45.85113" lon="4.32311">
        <ele>806.888</ele>
        <time>2019-10-21T13:17:13Z</time>
      </trkpt>
      <trkpt lat="45.85121" lon="4.32301">
        <ele>808.522</ele>
        <time>2019-10-21T13:17:19Z</time>
      </trkpt>
      <trkpt lat="45.85129" lon="4.32292">
        <ele>808.302</ele>
        <time>2019-10-21T13:17:25Z</time>
      </trkpt>
      <trkpt lat="45.85134" lon="4.32288">
        <ele>809.963</ele>
        <time>2019-10-21T13:17:31Z</time>
      </trkpt>
      <trkpt lat="45.85138" lon="4.3228">
        <ele>810.089</ele>
        <time>2019-10-21T13:17:36Z</time>
      </trkpt>
      <trkpt lat="45.85142" lon="4.32273">
        <ele>809.449</ele>
        <time>2019-10-21T13:17:41Z</time>
      </trkpt>
      <trkpt lat="45.85146" lon="4.32268">
        <ele>808.105</ele>
        <time>2019-10-21T13:17:47Z</time>
      </trkpt>
      <trkpt lat="45.85149" lon="4.32267">
        <ele>806.209</ele>
        <time>2019-10-21T13:17:52Z</time>
      </trkpt>
      <trkpt lat="45.85152" lon="4.32263">
        <ele>804.716</ele>
        <time>2019-10-21T13:17:58Z</time>
      </trkpt>
      <trkpt lat="45.85154" lon="4.32254">
        <ele>803.915</ele>
        <time>2019-10-21T13:18:04Z</time>
      </trkpt>
      <trkpt lat="45.85159" lon="4.32251">
        <ele>803.336</ele>
        <time>2019-10-21T13:18:09Z</time>
      </trkpt>
      <trkpt lat="45.85165" lon="4.32247">
        <ele>803.896</ele>
        <time>2019-10-21T13:18:14Z</time>
      </trkpt>
      <trkpt lat="45.85169" lon="4.32245">
        <ele>802.795</ele>
        <time>2019-10-21T13:18:19Z</time>
      </trkpt>
      <trkpt lat="45.85175" lon="4.32241">
        <ele>801.545</ele>
        <time>2019-10-21T13:18:25Z</time>
      </trkpt>
      <trkpt lat="45.85181" lon="4.32237">
        <ele>801.873</ele>
        <time>2019-10-21T13:18:31Z</time>
      </trkpt>
      <trkpt lat="45.85185" lon="4.32233">
        <ele>801.856</ele>
        <time>2019-10-21T13:18:36Z</time>
      </trkpt>
      <trkpt lat="45.85191" lon="4.32228">
        <ele>801.165</ele>
        <time>2019-10-21T13:18:42Z</time>
      </trkpt>
      <trkpt lat="45.85197" lon="4.32223">
        <ele>800.677</ele>
        <time>2019-10-21T13:18:47Z</time>
      </trkpt>
      <trkpt lat="45.85203" lon="4.32219">
        <ele>800.066</ele>
        <time>2019-10-21T13:18:52Z</time>
      </trkpt>
      <trkpt lat="45.8521" lon="4.32212">
        <ele>800.127</ele>
        <time>2019-10-21T13:18:58Z</time>
      </trkpt>
      <trkpt lat="45.85214" lon="4.32206">
        <ele>800.501</ele>
        <time>2019-10-21T13:19:03Z</time>
      </trkpt>
      <trkpt lat="45.85217" lon="4.322">
        <ele>796.026</ele>
        <time>2019-10-21T13:19:09Z</time>
      </trkpt>
      <trkpt lat="45.8522" lon="4.32192">
        <ele>796.341</ele>
        <time>2019-10-21T13:19:14Z</time>
      </trkpt>
      <trkpt lat="45.85223" lon="4.32181">
        <ele>798.959</ele>
        <time>2019-10-21T13:19:20Z</time>
      </trkpt>
      <trkpt lat="45.85225" lon="4.32172">
        <ele>798.223</ele>
        <time>2019-10-21T13:19:26Z</time>
      </trkpt>
      <trkpt lat="45.85228" lon="4.32167">
        <ele>798.992</ele>
        <time>2019-10-21T13:19:31Z</time>
      </trkpt>
      <trkpt lat="45.85231" lon="4.32158">
        <ele>797.409</ele>
        <time>2019-10-21T13:19:37Z</time>
      </trkpt>
      <trkpt lat="45.85234" lon="4.32152">
        <ele>796.937</ele>
        <time>2019-10-21T13:19:42Z</time>
      </trkpt>
      <trkpt lat="45.85237" lon="4.32145">
        <ele>796.767</ele>
        <time>2019-10-21T13:19:47Z</time>
      </trkpt>
      <trkpt lat="45.8524" lon="4.32138">
        <ele>796.748</ele>
        <time>2019-10-21T13:19:52Z</time>
      </trkpt>
      <trkpt lat="45.85243" lon="4.32134">
        <ele>796.223</ele>
        <time>2019-10-21T13:19:58Z</time>
      </trkpt>
      <trkpt lat="45.85245" lon="4.3213">
        <ele>796.309</ele>
        <time>2019-10-21T13:20:03Z</time>
      </trkpt>
      <trkpt lat="45.85248" lon="4.32122">
        <ele>796.711</ele>
        <time>2019-10-21T13:20:08Z</time>
      </trkpt>
      <trkpt lat="45.85252" lon="4.32115">
        <ele>797.86</ele>
        <time>2019-10-21T13:20:14Z</time>
      </trkpt>
      <trkpt lat="45.85257" lon="4.32107">
        <ele>795.477</ele>
        <time>2019-10-21T13:20:20Z</time>
      </trkpt>
      <trkpt lat="45.85264" lon="4.32101">
        <ele>795.266</ele>
        <time>2019-10-21T13:20:26Z</time>
      </trkpt>
      <trkpt lat="45.85268" lon="4.32097">
        <ele>794.924</ele>
        <time>2019-10-21T13:20:31Z</time>
      </trkpt>
      <trkpt lat="45.85273" lon="4.32091">
        <ele>794.824</ele>
        <time>2019-10-21T13:20:36Z</time>
      </trkpt>
      <trkpt lat="45.85279" lon="4.32086">
        <ele>796.202</ele>
        <time>2019-10-21T13:20:42Z</time>
      </trkpt>
      <trkpt lat="45.85286" lon="4.32083">
        <ele>796.336</ele>
        <time>2019-10-21T13:20:48Z</time>
      </trkpt>
      <trkpt lat="45.85293" lon="4.32078">
        <ele>797.19</ele>
        <time>2019-10-21T13:20:54Z</time>
      </trkpt>
      <trkpt lat="45.85299" lon="4.32076">
        <ele>797.536</ele>
        <time>2019-10-21T13:21:00Z</time>
      </trkpt>
      <trkpt lat="45.85307" lon="4.32071">
        <ele>797.319</ele>
        <time>2019-10-21T13:21:06Z</time>
      </trkpt>
      <trkpt lat="45.85311" lon="4.32068">
        <ele>796.882</ele>
        <time>2019-10-21T13:21:11Z</time>
      </trkpt>
      <trkpt lat="45.85315" lon="4.32064">
        <ele>797.402</ele>
        <time>2019-10-21T13:21:16Z</time>
      </trkpt>
      <trkpt lat="45.85321" lon="4.32058">
        <ele>796.493</ele>
        <time>2019-10-21T13:21:21Z</time>
      </trkpt>
      <trkpt lat="45.85324" lon="4.32051">
        <ele>796.679</ele>
        <time>2019-10-21T13:21:27Z</time>
      </trkpt>
      <trkpt lat="45.85328" lon="4.32044">
        <ele>796.561</ele>
        <time>2019-10-21T13:21:32Z</time>
      </trkpt>
      <trkpt lat="45.85331" lon="4.32038">
        <ele>796.303</ele>
        <time>2019-10-21T13:21:37Z</time>
      </trkpt>
      <trkpt lat="45.85336" lon="4.32033">
        <ele>796.827</ele>
        <time>2019-10-21T13:21:43Z</time>
      </trkpt>
      <trkpt lat="45.85341" lon="4.32026">
        <ele>795.615</ele>
        <time>2019-10-21T13:21:48Z</time>
      </trkpt>
      <trkpt lat="45.85343" lon="4.32022">
        <ele>795.632</ele>
        <time>2019-10-21T13:21:53Z</time>
      </trkpt>
      <trkpt lat="45.85347" lon="4.32016">
        <ele>795.656</ele>
        <time>2019-10-21T13:21:58Z</time>
      </trkpt>
      <trkpt lat="45.8535" lon="4.3201">
        <ele>793.86</ele>
        <time>2019-10-21T13:22:04Z</time>
      </trkpt>
      <trkpt lat="45.85354" lon="4.32005">
        <ele>793.647</ele>
        <time>2019-10-21T13:22:10Z</time>
      </trkpt>
      <trkpt lat="45.85358" lon="4.31999">
        <ele>794.676</ele>
        <time>2019-10-21T13:22:15Z</time>
      </trkpt>
      <trkpt lat="45.85363" lon="4.31993">
        <ele>791.109</ele>
        <time>2019-10-21T13:22:21Z</time>
      </trkpt>
      <trkpt lat="45.85365" lon="4.31988">
        <ele>791.064</ele>
        <time>2019-10-21T13:22:26Z</time>
      </trkpt>
      <trkpt lat="45.85369" lon="4.31983">
        <ele>791.55</ele>
        <time>2019-10-21T13:22:32Z</time>
      </trkpt>
      <trkpt lat="45.85373" lon="4.31979">
        <ele>790.792</ele>
        <time>2019-10-21T13:22:37Z</time>
      </trkpt>
      <trkpt lat="45.85377" lon="4.31973">
        <ele>789.654</ele>
        <time>2019-10-21T13:22:42Z</time>
      </trkpt>
      <trkpt lat="45.85381" lon="4.3197">
        <ele>788.888</ele>
        <time>2019-10-21T13:22:47Z</time>
      </trkpt>
      <trkpt lat="45.85384" lon="4.31966">
        <ele>788.295</ele>
        <time>2019-10-21T13:22:52Z</time>
      </trkpt>
      <trkpt lat="45.85388" lon="4.31959">
        <ele>791.277</ele>
        <time>2019-10-21T13:22:58Z</time>
      </trkpt>
      <trkpt lat="45.8539" lon="4.31956">
        <ele>790.951</ele>
        <time>2019-10-21T13:23:04Z</time>
      </trkpt>
      <trkpt lat="45.85396" lon="4.31947">
        <ele>789.072</ele>
        <time>2019-10-21T13:23:10Z</time>
      </trkpt>
      <trkpt lat="45.85401" lon="4.31938">
        <ele>788.92</ele>
        <time>2019-10-21T13:23:16Z</time>
      </trkpt>
      <trkpt lat="45.85405" lon="4.3193">
        <ele>790.683</ele>
        <time>2019-10-21T13:23:22Z</time>
      </trkpt>
      <trkpt lat="45.85408" lon="4.31926">
        <ele>790.026</ele>
        <time>2019-10-21T13:23:27Z</time>
      </trkpt>
      <trkpt lat="45.85413" lon="4.31919">
        <ele>786.432</ele>
        <time>2019-10-21T13:23:33Z</time>
      </trkpt>
      <trkpt lat="45.85416" lon="4.31913">
        <ele>786.043</ele>
        <time>2019-10-21T13:23:38Z</time>
      </trkpt>
      <trkpt lat="45.8542" lon="4.31909">
        <ele>781.642</ele>
        <time>2019-10-21T13:23:44Z</time>
      </trkpt>
      <trkpt lat="45.85424" lon="4.31903">
        <ele>779.045</ele>
        <time>2019-10-21T13:23:50Z</time>
      </trkpt>
      <trkpt lat="45.85428" lon="4.31895">
        <ele>777.793</ele>
        <time>2019-10-21T13:23:55Z</time>
      </trkpt>
      <trkpt lat="45.85431" lon="4.31891">
        <ele>778.691</ele>
        <time>2019-10-21T13:24:00Z</time>
      </trkpt>
      <trkpt lat="45.85434" lon="4.31885">
        <ele>780.337</ele>
        <time>2019-10-21T13:24:05Z</time>
      </trkpt>
      <trkpt lat="45.85437" lon="4.31879">
        <ele>780.404</ele>
        <time>2019-10-21T13:24:11Z</time>
      </trkpt>
      <trkpt lat="45.85439" lon="4.31876">
        <ele>781.018</ele>
        <time>2019-10-21T13:24:16Z</time>
      </trkpt>
      <trkpt lat="45.85443" lon="4.31869">
        <ele>779.61</ele>
        <time>2019-10-21T13:24:22Z</time>
      </trkpt>
      <trkpt lat="45.85446" lon="4.31863">
        <ele>777.808</ele>
        <time>2019-10-21T13:24:27Z</time>
      </trkpt>
      <trkpt lat="45.85448" lon="4.31858">
        <ele>778.681</ele>
        <time>2019-10-21T13:24:33Z</time>
      </trkpt>
      <trkpt lat="45.85453" lon="4.3185">
        <ele>778.928</ele>
        <time>2019-10-21T13:24:38Z</time>
      </trkpt>
      <trkpt lat="45.85457" lon="4.31847">
        <ele>777.068</ele>
        <time>2019-10-21T13:24:44Z</time>
      </trkpt>
      <trkpt lat="45.8546" lon="4.31841">
        <ele>776.315</ele>
        <time>2019-10-21T13:24:49Z</time>
      </trkpt>
      <trkpt lat="45.85465" lon="4.31833">
        <ele>776.409</ele>
        <time>2019-10-21T13:24:55Z</time>
      </trkpt>
      <trkpt lat="45.8547" lon="4.31827">
        <ele>778.052</ele>
        <time>2019-10-21T13:25:01Z</time>
      </trkpt>
      <trkpt lat="45.85474" lon="4.3182">
        <ele>777.603</ele>
        <time>2019-10-21T13:25:06Z</time>
      </trkpt>
      <trkpt lat="45.85479" lon="4.31813">
        <ele>777.242</ele>
        <time>2019-10-21T13:25:12Z</time>
      </trkpt>
      <trkpt lat="45.85482" lon="4.31807">
        <ele>776.815</ele>
        <time>2019-10-21T13:25:17Z</time>
      </trkpt>
      <trkpt lat="45.85484" lon="4.318">
        <ele>776.688</ele>
        <time>2019-10-21T13:25:23Z</time>
      </trkpt>
      <trkpt lat="45.85487" lon="4.31794">
        <ele>776.087</ele>
        <time>2019-10-21T13:25:28Z</time>
      </trkpt>
      <trkpt lat="45.85488" lon="4.31784">
        <ele>776.085</ele>
        <time>2019-10-21T13:25:34Z</time>
      </trkpt>
      <trkpt lat="45.85488" lon="4.31778">
        <ele>777.111</ele>
        <time>2019-10-21T13:25:39Z</time>
      </trkpt>
      <trkpt lat="45.85489" lon="4.31769">
        <ele>774.885</ele>
        <time>2019-10-21T13:25:45Z</time>
      </trkpt>
      <trkpt lat="45.85489" lon="4.3176">
        <ele>774.147</ele>
        <time>2019-10-21T13:25:51Z</time>
      </trkpt>
      <trkpt lat="45.85489" lon="4.31751">
        <ele>773.57</ele>
        <time>2019-10-21T13:25:57Z</time>
      </trkpt>
      <trkpt lat="45.8549" lon="4.31744">
        <ele>774.065</ele>
        <time>2019-10-21T13:26:02Z</time>
      </trkpt>
      <trkpt lat="45.85491" lon="4.31736">
        <ele>773.508</ele>
        <time>2019-10-21T13:26:07Z</time>
      </trkpt>
      <trkpt lat="45.85491" lon="4.31727">
        <ele>774.181</ele>
        <time>2019-10-21T13:26:12Z</time>
      </trkpt>
      <trkpt lat="45.85492" lon="4.31718">
        <ele>775.642</ele>
        <time>2019-10-21T13:26:18Z</time>
      </trkpt>
      <trkpt lat="45.85493" lon="4.31709">
        <ele>775.496</ele>
        <time>2019-10-21T13:26:23Z</time>
      </trkpt>
      <trkpt lat="45.85493" lon="4.31699">
        <ele>775.291</ele>
        <time>2019-10-21T13:26:29Z</time>
      </trkpt>
      <trkpt lat="45.85493" lon="4.31692">
        <ele>777.112</ele>
        <time>2019-10-21T13:26:34Z</time>
      </trkpt>
      <trkpt lat="45.85491" lon="4.31687">
        <ele>777.21</ele>
        <time>2019-10-21T13:26:40Z</time>
      </trkpt>
      <trkpt lat="45.85492" lon="4.31678">
        <ele>777.683</ele>
        <time>2019-10-21T13:26:46Z</time>
      </trkpt>
      <trkpt lat="45.85492" lon="4.3167">
        <ele>778.583</ele>
        <time>2019-10-21T13:26:52Z</time>
      </trkpt>
      <trkpt lat="45.85492" lon="4.31662">
        <ele>779.497</ele>
        <time>2019-10-21T13:26:57Z</time>
      </trkpt>
      <trkpt lat="45.85492" lon="4.31653">
        <ele>778.946</ele>
        <time>2019-10-21T13:27:03Z</time>
      </trkpt>
      <trkpt lat="45.85493" lon="4.31644">
        <ele>779.287</ele>
        <time>2019-10-21T13:27:09Z</time>
      </trkpt>
      <trkpt lat="45.85494" lon="4.31638">
        <ele>777.359</ele>
        <time>2019-10-21T13:27:14Z</time>
      </trkpt>
      <trkpt lat="45.85497" lon="4.31629">
        <ele>776.066</ele>
        <time>2019-10-21T13:27:20Z</time>
      </trkpt>
      <trkpt lat="45.85499" lon="4.31621">
        <ele>776.637</ele>
        <time>2019-10-21T13:27:26Z</time>
      </trkpt>
      <trkpt lat="45.855" lon="4.31614">
        <ele>777.324</ele>
        <time>2019-10-21T13:27:31Z</time>
      </trkpt>
      <trkpt lat="45.85501" lon="4.31608">
        <ele>777.095</ele>
        <time>2019-10-21T13:27:36Z</time>
      </trkpt>
      <trkpt lat="45.85503" lon="4.31601">
        <ele>778.408</ele>
        <time>2019-10-21T13:27:41Z</time>
      </trkpt>
      <trkpt lat="45.85505" lon="4.31592">
        <ele>778.18</ele>
        <time>2019-10-21T13:27:47Z</time>
      </trkpt>
      <trkpt lat="45.85507" lon="4.31583">
        <ele>778.703</ele>
        <time>2019-10-21T13:27:53Z</time>
      </trkpt>
      <trkpt lat="45.85509" lon="4.31576">
        <ele>778.93</ele>
        <time>2019-10-21T13:27:58Z</time>
      </trkpt>
      <trkpt lat="45.85513" lon="4.31568">
        <ele>778.643</ele>
        <time>2019-10-21T13:28:04Z</time>
      </trkpt>
      <trkpt lat="45.85515" lon="4.31561">
        <ele>778.027</ele>
        <time>2019-10-21T13:28:09Z</time>
      </trkpt>
      <trkpt lat="45.85518" lon="4.31554">
        <ele>779.355</ele>
        <time>2019-10-21T13:28:15Z</time>
      </trkpt>
      <trkpt lat="45.85519" lon="4.31546">
        <ele>781.689</ele>
        <time>2019-10-21T13:28:21Z</time>
      </trkpt>
      <trkpt lat="45.85519" lon="4.31538">
        <ele>782.958</ele>
        <time>2019-10-21T13:28:27Z</time>
      </trkpt>
      <trkpt lat="45.8552" lon="4.3153">
        <ele>783.608</ele>
        <time>2019-10-21T13:28:33Z</time>
      </trkpt>
      <trkpt lat="45.8552" lon="4.31522">
        <ele>785.421</ele>
        <time>2019-10-21T13:28:39Z</time>
      </trkpt>
      <trkpt lat="45.8552" lon="4.31515">
        <ele>787.16</ele>
        <time>2019-10-21T13:28:44Z</time>
      </trkpt>
      <trkpt lat="45.8552" lon="4.31507">
        <ele>786.73</ele>
        <time>2019-10-21T13:28:49Z</time>
      </trkpt>
      <trkpt lat="45.85522" lon="4.31499">
        <ele>784.688</ele>
        <time>2019-10-21T13:28:54Z</time>
      </trkpt>
      <trkpt lat="45.85522" lon="4.3149">
        <ele>783.794</ele>
        <time>2019-10-21T13:29:00Z</time>
      </trkpt>
      <trkpt lat="45.85522" lon="4.3148">
        <ele>784.419</ele>
        <time>2019-10-21T13:29:05Z</time>
      </trkpt>
      <trkpt lat="45.85521" lon="4.31473">
        <ele>784.718</ele>
        <time>2019-10-21T13:29:10Z</time>
      </trkpt>
      <trkpt lat="45.85521" lon="4.31464">
        <ele>784.609</ele>
        <time>2019-10-21T13:29:15Z</time>
      </trkpt>
      <trkpt lat="45.8552" lon="4.31454">
        <ele>787.016</ele>
        <time>2019-10-21T13:29:21Z</time>
      </trkpt>
      <trkpt lat="45.85518" lon="4.31447">
        <ele>786.863</ele>
        <time>2019-10-21T13:29:26Z</time>
      </trkpt>
      <trkpt lat="45.85517" lon="4.31437">
        <ele>786.212</ele>
        <time>2019-10-21T13:29:32Z</time>
      </trkpt>
      <trkpt lat="45.85516" lon="4.31426">
        <ele>786.252</ele>
        <time>2019-10-21T13:29:38Z</time>
      </trkpt>
      <trkpt lat="45.85514" lon="4.31419">
        <ele>787.793</ele>
        <time>2019-10-21T13:29:43Z</time>
      </trkpt>
      <trkpt lat="45.85512" lon="4.31409">
        <ele>788.204</ele>
        <time>2019-10-21T13:29:48Z</time>
      </trkpt>
      <trkpt lat="45.85512" lon="4.31401">
        <ele>787.564</ele>
        <time>2019-10-21T13:29:53Z</time>
      </trkpt>
      <trkpt lat="45.8551" lon="4.31393">
        <ele>786.306</ele>
        <time>2019-10-21T13:29:58Z</time>
      </trkpt>
      <trkpt lat="45.85508" lon="4.31382">
        <ele>784.574</ele>
        <time>2019-10-21T13:30:04Z</time>
      </trkpt>
      <trkpt lat="45.85505" lon="4.31372">
        <ele>783.744</ele>
        <time>2019-10-21T13:30:10Z</time>
      </trkpt>
      <trkpt lat="45.85503" lon="4.31362">
        <ele>783.159</ele>
        <time>2019-10-21T13:30:16Z</time>
      </trkpt>
      <trkpt lat="45.85501" lon="4.31356">
        <ele>782.797</ele>
        <time>2019-10-21T13:30:21Z</time>
      </trkpt>
      <trkpt lat="45.85498" lon="4.31348">
        <ele>784.453</ele>
        <time>2019-10-21T13:30:27Z</time>
      </trkpt>
      <trkpt lat="45.85495" lon="4.31339">
        <ele>784.07</ele>
        <time>2019-10-21T13:30:32Z</time>
      </trkpt>
      <trkpt lat="45.85492" lon="4.31332">
        <ele>783.347</ele>
        <time>2019-10-21T13:30:37Z</time>
      </trkpt>
      <trkpt lat="45.85487" lon="4.31323">
        <ele>784.909</ele>
        <time>2019-10-21T13:30:43Z</time>
      </trkpt>
      <trkpt lat="45.85484" lon="4.31315">
        <ele>785.213</ele>
        <time>2019-10-21T13:30:49Z</time>
      </trkpt>
      <trkpt lat="45.85481" lon="4.31307">
        <ele>783.507</ele>
        <time>2019-10-21T13:30:54Z</time>
      </trkpt>
      <trkpt lat="45.85477" lon="4.31301">
        <ele>783.749</ele>
        <time>2019-10-21T13:30:59Z</time>
      </trkpt>
      <trkpt lat="45.85473" lon="4.31292">
        <ele>781.467</ele>
        <time>2019-10-21T13:31:05Z</time>
      </trkpt>
      <trkpt lat="45.8547" lon="4.31284">
        <ele>782.332</ele>
        <time>2019-10-21T13:31:11Z</time>
      </trkpt>
      <trkpt lat="45.85466" lon="4.31276">
        <ele>784.93</ele>
        <time>2019-10-21T13:31:17Z</time>
      </trkpt>
      <trkpt lat="45.85462" lon="4.31266">
        <ele>785.014</ele>
        <time>2019-10-21T13:31:23Z</time>
      </trkpt>
      <trkpt lat="45.85458" lon="4.31259">
        <ele>786.071</ele>
        <time>2019-10-21T13:31:29Z</time>
      </trkpt>
      <trkpt lat="45.85454" lon="4.31251">
        <ele>788.638</ele>
        <time>2019-10-21T13:31:34Z</time>
      </trkpt>
      <trkpt lat="45.85451" lon="4.31247">
        <ele>790.376</ele>
        <time>2019-10-21T13:31:39Z</time>
      </trkpt>
      <trkpt lat="45.85448" lon="4.31238">
        <ele>789.126</ele>
        <time>2019-10-21T13:31:45Z</time>
      </trkpt>
      <trkpt lat="45.85445" lon="4.31232">
        <ele>790.105</ele>
        <time>2019-10-21T13:31:51Z</time>
      </trkpt>
      <trkpt lat="45.85443" lon="4.31226">
        <ele>788.452</ele>
        <time>2019-10-21T13:31:56Z</time>
      </trkpt>
      <trkpt lat="45.8544" lon="4.31219">
        <ele>788.863</ele>
        <time>2019-10-21T13:32:02Z</time>
      </trkpt>
      <trkpt lat="45.85436" lon="4.31213">
        <ele>790.357</ele>
        <time>2019-10-21T13:32:07Z</time>
      </trkpt>
      <trkpt lat="45.85433" lon="4.31205">
        <ele>790.469</ele>
        <time>2019-10-21T13:32:12Z</time>
      </trkpt>
      <trkpt lat="45.85429" lon="4.31198">
        <ele>790.618</ele>
        <time>2019-10-21T13:32:18Z</time>
      </trkpt>
      <trkpt lat="45.85424" lon="4.3119">
        <ele>790.712</ele>
        <time>2019-10-21T13:32:24Z</time>
      </trkpt>
      <trkpt lat="45.85421" lon="4.31181">
        <ele>792.182</ele>
        <time>2019-10-21T13:32:29Z</time>
      </trkpt>
      <trkpt lat="45.85417" lon="4.31175">
        <ele>791.29</ele>
        <time>2019-10-21T13:32:34Z</time>
      </trkpt>
      <trkpt lat="45.85413" lon="4.31168">
        <ele>792.203</ele>
        <time>2019-10-21T13:32:40Z</time>
      </trkpt>
      <trkpt lat="45.85408" lon="4.3116">
        <ele>793.622</ele>
        <time>2019-10-21T13:32:46Z</time>
      </trkpt>
      <trkpt lat="45.85403" lon="4.31154">
        <ele>794.49</ele>
        <time>2019-10-21T13:32:52Z</time>
      </trkpt>
      <trkpt lat="45.85398" lon="4.31149">
        <ele>794.307</ele>
        <time>2019-10-21T13:32:57Z</time>
      </trkpt>
      <trkpt lat="45.85393" lon="4.31143">
        <ele>795.016</ele>
        <time>2019-10-21T13:33:03Z</time>
      </trkpt>
      <trkpt lat="45.85388" lon="4.31137">
        <ele>794.886</ele>
        <time>2019-10-21T13:33:08Z</time>
      </trkpt>
      <trkpt lat="45.85384" lon="4.31131">
        <ele>794.099</ele>
        <time>2019-10-21T13:33:14Z</time>
      </trkpt>
      <trkpt lat="45.85379" lon="4.31124">
        <ele>793.128</ele>
        <time>2019-10-21T13:33:19Z</time>
      </trkpt>
      <trkpt lat="45.85373" lon="4.31117">
        <ele>791.663</ele>
        <time>2019-10-21T13:33:25Z</time>
      </trkpt>
      <trkpt lat="45.85368" lon="4.31113">
        <ele>791.561</ele>
        <time>2019-10-21T13:33:31Z</time>
      </trkpt>
      <trkpt lat="45.85362" lon="4.31106">
        <ele>791.264</ele>
        <time>2019-10-21T13:33:36Z</time>
      </trkpt>
      <trkpt lat="45.85357" lon="4.31103">
        <ele>790.308</ele>
        <time>2019-10-21T13:33:42Z</time>
      </trkpt>
      <trkpt lat="45.85352" lon="4.31097">
        <ele>790.775</ele>
        <time>2019-10-21T13:33:48Z</time>
      </trkpt>
      <trkpt lat="45.85346" lon="4.31089">
        <ele>791.091</ele>
        <time>2019-10-21T13:33:54Z</time>
      </trkpt>
      <trkpt lat="45.85341" lon="4.31085">
        <ele>790.332</ele>
        <time>2019-10-21T13:33:59Z</time>
      </trkpt>
      <trkpt lat="45.85337" lon="4.31083">
        <ele>791.001</ele>
        <time>2019-10-21T13:34:04Z</time>
      </trkpt>
      <trkpt lat="45.85331" lon="4.31077">
        <ele>788.807</ele>
        <time>2019-10-21T13:34:10Z</time>
      </trkpt>
      <trkpt lat="45.85327" lon="4.31073">
        <ele>789.217</ele>
        <time>2019-10-21T13:34:15Z</time>
      </trkpt>
      <trkpt lat="45.85321" lon="4.31067">
        <ele>790.326</ele>
        <time>2019-10-21T13:34:21Z</time>
      </trkpt>
      <trkpt lat="45.85316" lon="4.31062">
        <ele>787.719</ele>
        <time>2019-10-21T13:34:26Z</time>
      </trkpt>
      <trkpt lat="45.85314" lon="4.31057">
        <ele>786.341</ele>
        <time>2019-10-21T13:34:32Z</time>
      </trkpt>
      <trkpt lat="45.85308" lon="4.31049">
        <ele>786.564</ele>
        <time>2019-10-21T13:34:38Z</time>
      </trkpt>
      <trkpt lat="45.85304" lon="4.31042">
        <ele>785.569</ele>
        <time>2019-10-21T13:34:43Z</time>
      </trkpt>
      <trkpt lat="45.85301" lon="4.31035">
        <ele>783.993</ele>
        <time>2019-10-21T13:34:49Z</time>
      </trkpt>
      <trkpt lat="45.85298" lon="4.31028">
        <ele>785.084</ele>
        <time>2019-10-21T13:34:55Z</time>
      </trkpt>
      <trkpt lat="45.85293" lon="4.3102">
        <ele>785.6</ele>
        <time>2019-10-21T13:35:01Z</time>
      </trkpt>
      <trkpt lat="45.85289" lon="4.31012">
        <ele>784.975</ele>
        <time>2019-10-21T13:35:07Z</time>
      </trkpt>
      <trkpt lat="45.85287" lon="4.31003">
        <ele>783.504</ele>
        <time>2019-10-21T13:35:12Z</time>
      </trkpt>
      <trkpt lat="45.85285" lon="4.30998">
        <ele>781.734</ele>
        <time>2019-10-21T13:35:17Z</time>
      </trkpt>
      <trkpt lat="45.85284" lon="4.3099">
        <ele>779.142</ele>
        <time>2019-10-21T13:35:23Z</time>
      </trkpt>
      <trkpt lat="45.85281" lon="4.30981">
        <ele>779.48</ele>
        <time>2019-10-21T13:35:29Z</time>
      </trkpt>
      <trkpt lat="45.85278" lon="4.30973">
        <ele>778.087</ele>
        <time>2019-10-21T13:35:35Z</time>
      </trkpt>
      <trkpt lat="45.85278" lon="4.30964">
        <ele>779.588</ele>
        <time>2019-10-21T13:35:41Z</time>
      </trkpt>
      <trkpt lat="45.85278" lon="4.30955">
        <ele>777.65</ele>
        <time>2019-10-21T13:35:47Z</time>
      </trkpt>
      <trkpt lat="45.85277" lon="4.30949">
        <ele>775.742</ele>
        <time>2019-10-21T13:35:52Z</time>
      </trkpt>
      <trkpt lat="45.85276" lon="4.30942">
        <ele>761.568</ele>
        <time>2019-10-21T13:35:57Z</time>
      </trkpt>
      <trkpt lat="45.85277" lon="4.30934">
        <ele>765.071</ele>
        <time>2019-10-21T13:36:02Z</time>
      </trkpt>
      <trkpt lat="45.85275" lon="4.30925">
        <ele>764.736</ele>
        <time>2019-10-21T13:36:08Z</time>
      </trkpt>
      <trkpt lat="45.85274" lon="4.30914">
        <ele>764.944</ele>
        <time>2019-10-21T13:36:14Z</time>
      </trkpt>
      <trkpt lat="45.85274" lon="4.30906">
        <ele>760.185</ele>
        <time>2019-10-21T13:36:20Z</time>
      </trkpt>
      <trkpt lat="45.85275" lon="4.30898">
        <ele>758.466</ele>
        <time>2019-10-21T13:36:25Z</time>
      </trkpt>
      <trkpt lat="45.85276" lon="4.30889">
        <ele>758.452</ele>
        <time>2019-10-21T13:36:30Z</time>
      </trkpt>
      <trkpt lat="45.85278" lon="4.30879">
        <ele>760.224</ele>
        <time>2019-10-21T13:36:36Z</time>
      </trkpt>
      <trkpt lat="45.85278" lon="4.3087">
        <ele>756.915</ele>
        <time>2019-10-21T13:36:41Z</time>
      </trkpt>
      <trkpt lat="45.85279" lon="4.30861">
        <ele>756.488</ele>
        <time>2019-10-21T13:36:47Z</time>
      </trkpt>
      <trkpt lat="45.85279" lon="4.30851">
        <ele>757.097</ele>
        <time>2019-10-21T13:36:53Z</time>
      </trkpt>
      <trkpt lat="45.85278" lon="4.30844">
        <ele>760.046</ele>
        <time>2019-10-21T13:36:59Z</time>
      </trkpt>
      <trkpt lat="45.85276" lon="4.30836">
        <ele>760.329</ele>
        <time>2019-10-21T13:37:04Z</time>
      </trkpt>
      <trkpt lat="45.85273" lon="4.30832">
        <ele>760.774</ele>
        <time>2019-10-21T13:37:09Z</time>
      </trkpt>
      <trkpt lat="45.85273" lon="4.30823">
        <ele>758.493</ele>
        <time>2019-10-21T13:37:15Z</time>
      </trkpt>
      <trkpt lat="45.85273" lon="4.30815">
        <ele>757.246</ele>
        <time>2019-10-21T13:37:21Z</time>
      </trkpt>
      <trkpt lat="45.85274" lon="4.30812">
        <ele>755.594</ele>
        <time>2019-10-21T13:37:26Z</time>
      </trkpt>
      <trkpt lat="45.85274" lon="4.30812">
        <ele>753.775</ele>
        <time>2019-10-21T13:37:32Z</time>
      </trkpt>
      <trkpt lat="45.85274" lon="4.30812">
        <ele>756.563</ele>
        <time>2019-10-21T13:37:37Z</time>
      </trkpt>
      <trkpt lat="45.85274" lon="4.30811">
        <ele>752.252</ele>
        <time>2019-10-21T13:37:42Z</time>
      </trkpt>
      <trkpt lat="45.85274" lon="4.30811">
        <ele>755.641</ele>
        <time>2019-10-21T13:37:48Z</time>
      </trkpt>
      <trkpt lat="45.85274" lon="4.30811">
        <ele>756.746</ele>
        <time>2019-10-21T13:37:53Z</time>
      </trkpt>
      <trkpt lat="45.85274" lon="4.30811">
        <ele>756.177</ele>
        <time>2019-10-21T13:37:59Z</time>
      </trkpt>
      <trkpt lat="45.85274" lon="4.30811">
        <ele>754.564</ele>
        <time>2019-10-21T13:38:05Z</time>
      </trkpt>
      <trkpt lat="45.85274" lon="4.30811">
        <ele>755.401</ele>
        <time>2019-10-21T13:38:10Z</time>
      </trkpt>
      <trkpt lat="45.85274" lon="4.30812">
        <ele>759.355</ele>
        <time>2019-10-21T13:38:16Z</time>
      </trkpt>
      <trkpt lat="45.85275" lon="4.3081">
        <ele>757.821</ele>
        <time>2019-10-21T13:38:21Z</time>
      </trkpt>
      <trkpt lat="45.85276" lon="4.30809">
        <ele>751.137</ele>
        <time>2019-10-21T13:38:27Z</time>
      </trkpt>
      <trkpt lat="45.85276" lon="4.30809">
        <ele>758.291</ele>
        <time>2019-10-21T13:38:32Z</time>
      </trkpt>
      <trkpt lat="45.85276" lon="4.30809">
        <ele>756.173</ele>
        <time>2019-10-21T13:38:38Z</time>
      </trkpt>
      <trkpt lat="45.85276" lon="4.30809">
        <ele>756.167</ele>
        <time>2019-10-21T13:38:43Z</time>
      </trkpt>
      <trkpt lat="45.85276" lon="4.30809">
        <ele>756.153</ele>
        <time>2019-10-21T13:38:48Z</time>
      </trkpt>
      <trkpt lat="45.85276" lon="4.30809">
        <ele>756.156</ele>
        <time>2019-10-21T13:38:54Z</time>
      </trkpt>
      <trkpt lat="45.85276" lon="4.30809">
        <ele>758.796</ele>
        <time>2019-10-21T13:38:59Z</time>
      </trkpt>
      <trkpt lat="45.85276" lon="4.30809">
        <ele>751.32</ele>
        <time>2019-10-21T13:39:05Z</time>
      </trkpt>
      <trkpt lat="45.85276" lon="4.30809">
        <ele>755.902</ele>
        <time>2019-10-21T13:39:10Z</time>
      </trkpt>
      <trkpt lat="45.85276" lon="4.30809">
        <ele>756.254</ele>
        <time>2019-10-21T13:39:15Z</time>
      </trkpt>
      <trkpt lat="45.85276" lon="4.30809">
        <ele>756.831</ele>
        <time>2019-10-21T13:39:21Z</time>
      </trkpt>
      <trkpt lat="45.85276" lon="4.30809">
        <ele>755.801</ele>
        <time>2019-10-21T13:39:27Z</time>
      </trkpt>
      <trkpt lat="45.85276" lon="4.3081">
        <ele>757.011</ele>
        <time>2019-10-21T13:39:33Z</time>
      </trkpt>
      <trkpt lat="45.85276" lon="4.3081">
        <ele>759.871</ele>
        <time>2019-10-21T13:39:39Z</time>
      </trkpt>
      <trkpt lat="45.85276" lon="4.3081">
        <ele>757.117</ele>
        <time>2019-10-21T13:39:44Z</time>
      </trkpt>
      <trkpt lat="45.85276" lon="4.3081">
        <ele>756.602</ele>
        <time>2019-10-21T13:39:50Z</time>
      </trkpt>
      <trkpt lat="45.85275" lon="4.3081">
        <ele>758.923</ele>
        <time>2019-10-21T13:39:56Z</time>
      </trkpt>
      <trkpt lat="45.85275" lon="4.3081">
        <ele>758.671</ele>
        <time>2019-10-21T13:40:02Z</time>
      </trkpt>
      <trkpt lat="45.85274" lon="4.30808">
        <ele>756.157</ele>
        <time>2019-10-21T13:40:08Z</time>
      </trkpt>
      <trkpt lat="45.85269" lon="4.30804">
        <ele>755.122</ele>
        <time>2019-10-21T13:40:13Z</time>
      </trkpt>
      <trkpt lat="45.85265" lon="4.30792">
        <ele>755.982</ele>
        <time>2019-10-21T13:40:19Z</time>
      </trkpt>
      <trkpt lat="45.85264" lon="4.30781">
        <ele>755.972</ele>
        <time>2019-10-21T13:40:24Z</time>
      </trkpt>
      <trkpt lat="45.85261" lon="4.30769">
        <ele>757</ele>
        <time>2019-10-21T13:40:29Z</time>
      </trkpt>
      <trkpt lat="45.85256" lon="4.30761">
        <ele>756.389</ele>
        <time>2019-10-21T13:40:34Z</time>
      </trkpt>
      <trkpt lat="45.85249" lon="4.30746">
        <ele>754.176</ele>
        <time>2019-10-21T13:40:40Z</time>
      </trkpt>
      <trkpt lat="45.85245" lon="4.30738">
        <ele>753.027</ele>
        <time>2019-10-21T13:40:45Z</time>
      </trkpt>
      <trkpt lat="45.85247" lon="4.30734">
        <ele>755.697</ele>
        <time>2019-10-21T13:40:51Z</time>
      </trkpt>
      <trkpt lat="45.85245" lon="4.3073">
        <ele>755.844</ele>
        <time>2019-10-21T13:40:57Z</time>
      </trkpt>
      <trkpt lat="45.85244" lon="4.30721">
        <ele>753.44</ele>
        <time>2019-10-21T13:41:02Z</time>
      </trkpt>
      <trkpt lat="45.85241" lon="4.30709">
        <ele>750.159</ele>
        <time>2019-10-21T13:41:08Z</time>
      </trkpt>
      <trkpt lat="45.85239" lon="4.30701">
        <ele>750.244</ele>
        <time>2019-10-21T13:41:13Z</time>
      </trkpt>
      <trkpt lat="45.85238" lon="4.30692">
        <ele>749.712</ele>
        <time>2019-10-21T13:41:18Z</time>
      </trkpt>
      <trkpt lat="45.85236" lon="4.30683">
        <ele>751.307</ele>
        <time>2019-10-21T13:41:23Z</time>
      </trkpt>
      <trkpt lat="45.85232" lon="4.30673">
        <ele>750.937</ele>
        <time>2019-10-21T13:41:29Z</time>
      </trkpt>
      <trkpt lat="45.85229" lon="4.30667">
        <ele>751.824</ele>
        <time>2019-10-21T13:41:34Z</time>
      </trkpt>
      <trkpt lat="45.85225" lon="4.3066">
        <ele>751.968</ele>
        <time>2019-10-21T13:41:39Z</time>
      </trkpt>
      <trkpt lat="45.85223" lon="4.30653">
        <ele>752.055</ele>
        <time>2019-10-21T13:41:44Z</time>
      </trkpt>
      <trkpt lat="45.85219" lon="4.30646">
        <ele>752.092</ele>
        <time>2019-10-21T13:41:49Z</time>
      </trkpt>
      <trkpt lat="45.85216" lon="4.30639">
        <ele>750.389</ele>
        <time>2019-10-21T13:41:55Z</time>
      </trkpt>
      <trkpt lat="45.85213" lon="4.30633">
        <ele>750.113</ele>
        <time>2019-10-21T13:42:01Z</time>
      </trkpt>
      <trkpt lat="45.8521" lon="4.30627">
        <ele>749.044</ele>
        <time>2019-10-21T13:42:06Z</time>
      </trkpt>
      <trkpt lat="45.85207" lon="4.3062">
        <ele>746.714</ele>
        <time>2019-10-21T13:42:11Z</time>
      </trkpt>
      <trkpt lat="45.85203" lon="4.30613">
        <ele>748.221</ele>
        <time>2019-10-21T13:42:16Z</time>
      </trkpt>
      <trkpt lat="45.85199" lon="4.30605">
        <ele>748.697</ele>
        <time>2019-10-21T13:42:22Z</time>
      </trkpt>
      <trkpt lat="45.85195" lon="4.30599">
        <ele>744.625</ele>
        <time>2019-10-21T13:42:27Z</time>
      </trkpt>
      <trkpt lat="45.85192" lon="4.30594">
        <ele>748.959</ele>
        <time>2019-10-21T13:42:33Z</time>
      </trkpt>
      <trkpt lat="45.85187" lon="4.3059">
        <ele>749.5</ele>
        <time>2019-10-21T13:42:38Z</time>
      </trkpt>
      <trkpt lat="45.8518" lon="4.30584">
        <ele>752.948</ele>
        <time>2019-10-21T13:42:44Z</time>
      </trkpt>
      <trkpt lat="45.85174" lon="4.30577">
        <ele>755.589</ele>
        <time>2019-10-21T13:42:50Z</time>
      </trkpt>
      <trkpt lat="45.85173" lon="4.30573">
        <ele>755.168</ele>
        <time>2019-10-21T13:42:56Z</time>
      </trkpt>
      <trkpt lat="45.8517" lon="4.30567">
        <ele>754.118</ele>
        <time>2019-10-21T13:43:02Z</time>
      </trkpt>
      <trkpt lat="45.85165" lon="4.3056">
        <ele>754.542</ele>
        <time>2019-10-21T13:43:07Z</time>
      </trkpt>
      <trkpt lat="45.85158" lon="4.30555">
        <ele>756.09</ele>
        <time>2019-10-21T13:43:13Z</time>
      </trkpt>
      <trkpt lat="45.85153" lon="4.30552">
        <ele>758.276</ele>
        <time>2019-10-21T13:43:18Z</time>
      </trkpt>
      <trkpt lat="45.85149" lon="4.30549">
        <ele>758.339</ele>
        <time>2019-10-21T13:43:24Z</time>
      </trkpt>
      <trkpt lat="45.85146" lon="4.30549">
        <ele>759.982</ele>
        <time>2019-10-21T13:43:29Z</time>
      </trkpt>
      <trkpt lat="45.8514" lon="4.30543">
        <ele>759.211</ele>
        <time>2019-10-21T13:43:34Z</time>
      </trkpt>
      <trkpt lat="45.85136" lon="4.30538">
        <ele>758.799</ele>
        <time>2019-10-21T13:43:40Z</time>
      </trkpt>
      <trkpt lat="45.85131" lon="4.30533">
        <ele>758.05</ele>
        <time>2019-10-21T13:43:46Z</time>
      </trkpt>
      <trkpt lat="45.85126" lon="4.30526">
        <ele>756.669</ele>
        <time>2019-10-21T13:43:51Z</time>
      </trkpt>
      <trkpt lat="45.85122" lon="4.30522">
        <ele>758.289</ele>
        <time>2019-10-21T13:43:56Z</time>
      </trkpt>
      <trkpt lat="45.85117" lon="4.30518">
        <ele>760.477</ele>
        <time>2019-10-21T13:44:02Z</time>
      </trkpt>
      <trkpt lat="45.85112" lon="4.30515">
        <ele>786.177</ele>
        <time>2019-10-21T13:44:08Z</time>
      </trkpt>
      <trkpt lat="45.85106" lon="4.30512">
        <ele>783.725</ele>
        <time>2019-10-21T13:44:13Z</time>
      </trkpt>
      <trkpt lat="45.85102" lon="4.30509">
        <ele>779.58</ele>
        <time>2019-10-21T13:44:19Z</time>
      </trkpt>
      <trkpt lat="45.85096" lon="4.30506">
        <ele>780.07</ele>
        <time>2019-10-21T13:44:25Z</time>
      </trkpt>
      <trkpt lat="45.85089" lon="4.30505">
        <ele>791.195</ele>
        <time>2019-10-21T13:44:30Z</time>
      </trkpt>
      <trkpt lat="45.85084" lon="4.30502">
        <ele>787.798</ele>
        <time>2019-10-21T13:44:35Z</time>
      </trkpt>
      <trkpt lat="45.85082" lon="4.30501">
        <ele>790.309</ele>
        <time>2019-10-21T13:44:41Z</time>
      </trkpt>
      <trkpt lat="45.85081" lon="4.305">
        <ele>780.848</ele>
        <time>2019-10-21T13:44:46Z</time>
      </trkpt>
      <trkpt lat="45.85079" lon="4.30498">
        <ele>785.869</ele>
        <time>2019-10-21T13:44:52Z</time>
      </trkpt>
      <trkpt lat="45.8507" lon="4.3049">
        <ele>788.278</ele>
        <time>2019-10-21T13:44:58Z</time>
      </trkpt>
      <trkpt lat="45.8506" lon="4.30485">
        <ele>794.019</ele>
        <time>2019-10-21T13:45:04Z</time>
      </trkpt>
      <trkpt lat="45.85054" lon="4.30485">
        <ele>800.463</ele>
        <time>2019-10-21T13:45:09Z</time>
      </trkpt>
      <trkpt lat="45.8505" lon="4.30483">
        <ele>807.009</ele>
        <time>2019-10-21T13:45:14Z</time>
      </trkpt>
      <trkpt lat="45.85045" lon="4.30479">
        <ele>805.781</ele>
        <time>2019-10-21T13:45:19Z</time>
      </trkpt>
      <trkpt lat="45.85041" lon="4.30473">
        <ele>800.869</ele>
        <time>2019-10-21T13:45:25Z</time>
      </trkpt>
      <trkpt lat="45.85036" lon="4.30472">
        <ele>799.241</ele>
        <time>2019-10-21T13:45:30Z</time>
      </trkpt>
      <trkpt lat="45.8503" lon="4.3047">
        <ele>787.522</ele>
        <time>2019-10-21T13:45:35Z</time>
      </trkpt>
      <trkpt lat="45.85025" lon="4.30468">
        <ele>788.429</ele>
        <time>2019-10-21T13:45:40Z</time>
      </trkpt>
      <trkpt lat="45.8502" lon="4.30463">
        <ele>785.434</ele>
        <time>2019-10-21T13:45:46Z</time>
      </trkpt>
      <trkpt lat="45.85013" lon="4.30461">
        <ele>798.583</ele>
        <time>2019-10-21T13:45:51Z</time>
      </trkpt>
      <trkpt lat="45.85008" lon="4.30461">
        <ele>805.947</ele>
        <time>2019-10-21T13:45:57Z</time>
      </trkpt>
      <trkpt lat="45.85003" lon="4.30458">
        <ele>811.714</ele>
        <time>2019-10-21T13:46:03Z</time>
      </trkpt>
      <trkpt lat="45.84998" lon="4.30457">
        <ele>799.847</ele>
        <time>2019-10-21T13:46:09Z</time>
      </trkpt>
      <trkpt lat="45.84992" lon="4.30452">
        <ele>805.809</ele>
        <time>2019-10-21T13:46:15Z</time>
      </trkpt>
      <trkpt lat="45.84986" lon="4.3045">
        <ele>794.897</ele>
        <time>2019-10-21T13:46:20Z</time>
      </trkpt>
      <trkpt lat="45.84986" lon="4.30449">
        <ele>794.561</ele>
        <time>2019-10-21T13:46:25Z</time>
      </trkpt>
      <trkpt lat="45.84982" lon="4.30447">
        <ele>789.511</ele>
        <time>2019-10-21T13:46:30Z</time>
      </trkpt>
      <trkpt lat="45.84979" lon="4.30442">
        <ele>795.471</ele>
        <time>2019-10-21T13:46:35Z</time>
      </trkpt>
      <trkpt lat="45.84974" lon="4.30438">
        <ele>797.611</ele>
        <time>2019-10-21T13:46:40Z</time>
      </trkpt>
      <trkpt lat="45.8497" lon="4.30433">
        <ele>794.333</ele>
        <time>2019-10-21T13:46:46Z</time>
      </trkpt>
      <trkpt lat="45.84966" lon="4.30428">
        <ele>798.826</ele>
        <time>2019-10-21T13:46:51Z</time>
      </trkpt>
      <trkpt lat="45.84962" lon="4.30424">
        <ele>793.788</ele>
        <time>2019-10-21T13:46:56Z</time>
      </trkpt>
      <trkpt lat="45.84957" lon="4.30417">
        <ele>793.818</ele>
        <time>2019-10-21T13:47:02Z</time>
      </trkpt>
      <trkpt lat="45.84954" lon="4.30411">
        <ele>787.336</ele>
        <time>2019-10-21T13:47:08Z</time>
      </trkpt>
      <trkpt lat="45.84951" lon="4.30406">
        <ele>793.836</ele>
        <time>2019-10-21T13:47:13Z</time>
      </trkpt>
      <trkpt lat="45.84948" lon="4.304">
        <ele>793.633</ele>
        <time>2019-10-21T13:47:19Z</time>
      </trkpt>
      <trkpt lat="45.84946" lon="4.30395">
        <ele>793.602</ele>
        <time>2019-10-21T13:47:24Z</time>
      </trkpt>
      <trkpt lat="45.84944" lon="4.30389">
        <ele>793.636</ele>
        <time>2019-10-21T13:47:29Z</time>
      </trkpt>
      <trkpt lat="45.84943" lon="4.30382">
        <ele>793.808</ele>
        <time>2019-10-21T13:47:35Z</time>
      </trkpt>
      <trkpt lat="45.84943" lon="4.30379">
        <ele>794.904</ele>
        <time>2019-10-21T13:47:41Z</time>
      </trkpt>
      <trkpt lat="45.84943" lon="4.30376">
        <ele>794.811</ele>
        <time>2019-10-21T13:47:46Z</time>
      </trkpt>
      <trkpt lat="45.84943" lon="4.30376">
        <ele>795.674</ele>
        <time>2019-10-21T13:47:52Z</time>
      </trkpt>
      <trkpt lat="45.84942" lon="4.30376">
        <ele>795.354</ele>
        <time>2019-10-21T13:47:57Z</time>
      </trkpt>
      <trkpt lat="45.84942" lon="4.30376">
        <ele>794.612</ele>
        <time>2019-10-21T13:48:02Z</time>
      </trkpt>
      <trkpt lat="45.84941" lon="4.30376">
        <ele>788.049</ele>
        <time>2019-10-21T13:48:08Z</time>
      </trkpt>
      <trkpt lat="45.84941" lon="4.30376">
        <ele>794.765</ele>
        <time>2019-10-21T13:48:13Z</time>
      </trkpt>
      <trkpt lat="45.84941" lon="4.30376">
        <ele>794.798</ele>
        <time>2019-10-21T13:48:18Z</time>
      </trkpt>
      <trkpt lat="45.84941" lon="4.30376">
        <ele>794.771</ele>
        <time>2019-10-21T13:48:23Z</time>
      </trkpt>
      <trkpt lat="45.84941" lon="4.30376">
        <ele>788.229</ele>
        <time>2019-10-21T13:48:29Z</time>
      </trkpt>
      <trkpt lat="45.84941" lon="4.30376">
        <ele>795.308</ele>
        <time>2019-10-21T13:48:34Z</time>
      </trkpt>
      <trkpt lat="45.84941" lon="4.30376">
        <ele>795.773</ele>
        <time>2019-10-21T13:48:39Z</time>
      </trkpt>
      <trkpt lat="45.84941" lon="4.30376">
        <ele>789.298</ele>
        <time>2019-10-21T13:48:45Z</time>
      </trkpt>
      <trkpt lat="45.84941" lon="4.30377">
        <ele>789.641</ele>
        <time>2019-10-21T13:48:51Z</time>
      </trkpt>
      <trkpt lat="45.84941" lon="4.30377">
        <ele>789.604</ele>
        <time>2019-10-21T13:48:56Z</time>
      </trkpt>
      <trkpt lat="45.84941" lon="4.30377">
        <ele>795.975</ele>
        <time>2019-10-21T13:49:02Z</time>
      </trkpt>
      <trkpt lat="45.84941" lon="4.30376">
        <ele>789.308</ele>
        <time>2019-10-21T13:49:08Z</time>
      </trkpt>
      <trkpt lat="45.84941" lon="4.30375">
        <ele>796.351</ele>
        <time>2019-10-21T13:49:14Z</time>
      </trkpt>
      <trkpt lat="45.84941" lon="4.30375">
        <ele>796.661</ele>
        <time>2019-10-21T13:49:20Z</time>
      </trkpt>
      <trkpt lat="45.84941" lon="4.30375">
        <ele>796.636</ele>
        <time>2019-10-21T13:49:25Z</time>
      </trkpt>
      <trkpt lat="45.84941" lon="4.30375">
        <ele>790.243</ele>
        <time>2019-10-21T13:49:31Z</time>
      </trkpt>
      <trkpt lat="45.84941" lon="4.30375">
        <ele>790.234</ele>
        <time>2019-10-21T13:49:37Z</time>
      </trkpt>
      <trkpt lat="45.84941" lon="4.30375">
        <ele>790.259</ele>
        <time>2019-10-21T13:49:42Z</time>
      </trkpt>
      <trkpt lat="45.84941" lon="4.30375">
        <ele>789.708</ele>
        <time>2019-10-21T13:49:47Z</time>
      </trkpt>
      <trkpt lat="45.84941" lon="4.30375">
        <ele>790.24</ele>
        <time>2019-10-21T13:49:53Z</time>
      </trkpt>
      <trkpt lat="45.84942" lon="4.30375">
        <ele>795.712</ele>
        <time>2019-10-21T13:49:58Z</time>
      </trkpt>
      <trkpt lat="45.84942" lon="4.30375">
        <ele>795.86</ele>
        <time>2019-10-21T13:50:04Z</time>
      </trkpt>
      <trkpt lat="45.84942" lon="4.30375">
        <ele>789.491</ele>
        <time>2019-10-21T13:50:09Z</time>
      </trkpt>
      <trkpt lat="45.84942" lon="4.30375">
        <ele>795.931</ele>
        <time>2019-10-21T13:50:14Z</time>
      </trkpt>
      <trkpt lat="45.84942" lon="4.30375">
        <ele>795.872</ele>
        <time>2019-10-21T13:50:19Z</time>
      </trkpt>
      <trkpt lat="45.84942" lon="4.30375">
        <ele>795.851</ele>
        <time>2019-10-21T13:50:25Z</time>
      </trkpt>
      <trkpt lat="45.84942" lon="4.30373">
        <ele>790.698</ele>
        <time>2019-10-21T13:50:31Z</time>
      </trkpt>
      <trkpt lat="45.8494" lon="4.30367">
        <ele>797.486</ele>
        <time>2019-10-21T13:50:36Z</time>
      </trkpt>
      <trkpt lat="45.84938" lon="4.3036">
        <ele>789.397</ele>
        <time>2019-10-21T13:50:41Z</time>
      </trkpt>
      <trkpt lat="45.84939" lon="4.30352">
        <ele>788.731</ele>
        <time>2019-10-21T13:50:47Z</time>
      </trkpt>
      <trkpt lat="45.84939" lon="4.30344">
        <ele>787.878</ele>
        <time>2019-10-21T13:50:52Z</time>
      </trkpt>
      <trkpt lat="45.84939" lon="4.30336">
        <ele>794.24</ele>
        <time>2019-10-21T13:50:58Z</time>
      </trkpt>
      <trkpt lat="45.84941" lon="4.30331">
        <ele>794.16</ele>
        <time>2019-10-21T13:51:04Z</time>
      </trkpt>
      <trkpt lat="45.8494" lon="4.30322">
        <ele>787.357</ele>
        <time>2019-10-21T13:51:09Z</time>
      </trkpt>
      <trkpt lat="45.84938" lon="4.30313">
        <ele>788.688</ele>
        <time>2019-10-21T13:51:14Z</time>
      </trkpt>
      <trkpt lat="45.84938" lon="4.30302">
        <ele>795.383</ele>
        <time>2019-10-21T13:51:20Z</time>
      </trkpt>
      <trkpt lat="45.84936" lon="4.30296">
        <ele>795.04</ele>
        <time>2019-10-21T13:51:25Z</time>
      </trkpt>
      <trkpt lat="45.84934" lon="4.30285">
        <ele>788.38</ele>
        <time>2019-10-21T13:51:31Z</time>
      </trkpt>
      <trkpt lat="45.84932" lon="4.30278">
        <ele>795.375</ele>
        <time>2019-10-21T13:51:36Z</time>
      </trkpt>
      <trkpt lat="45.8493" lon="4.30271">
        <ele>795.049</ele>
        <time>2019-10-21T13:51:41Z</time>
      </trkpt>
      <trkpt lat="45.84928" lon="4.30262">
        <ele>794.706</ele>
        <time>2019-10-21T13:51:47Z</time>
      </trkpt>
      <trkpt lat="45.84925" lon="4.30252">
        <ele>789.519</ele>
        <time>2019-10-21T13:51:53Z</time>
      </trkpt>
      <trkpt lat="45.84923" lon="4.30244">
        <ele>795.521</ele>
        <time>2019-10-21T13:51:59Z</time>
      </trkpt>
      <trkpt lat="45.8492" lon="4.30235">
        <ele>795.278</ele>
        <time>2019-10-21T13:52:05Z</time>
      </trkpt>
      <trkpt lat="45.84918" lon="4.30227">
        <ele>788.307</ele>
        <time>2019-10-21T13:52:11Z</time>
      </trkpt>
      <trkpt lat="45.84915" lon="4.30219">
        <ele>788.071</ele>
        <time>2019-10-21T13:52:16Z</time>
      </trkpt>
      <trkpt lat="45.84912" lon="4.30213">
        <ele>795.126</ele>
        <time>2019-10-21T13:52:21Z</time>
      </trkpt>
      <trkpt lat="45.84908" lon="4.30203">
        <ele>795.642</ele>
        <time>2019-10-21T13:52:27Z</time>
      </trkpt>
      <trkpt lat="45.84904" lon="4.30194">
        <ele>788.653</ele>
        <time>2019-10-21T13:52:33Z</time>
      </trkpt>
      <trkpt lat="45.84901" lon="4.30188">
        <ele>795.644</ele>
        <time>2019-10-21T13:52:38Z</time>
      </trkpt>
      <trkpt lat="45.84897" lon="4.3018">
        <ele>796.473</ele>
        <time>2019-10-21T13:52:43Z</time>
      </trkpt>
      <trkpt lat="45.84895" lon="4.30173">
        <ele>795.406</ele>
        <time>2019-10-21T13:52:48Z</time>
      </trkpt>
      <trkpt lat="45.84893" lon="4.30164">
        <ele>790.646</ele>
        <time>2019-10-21T13:52:54Z</time>
      </trkpt>
      <trkpt lat="45.84889" lon="4.30155">
        <ele>794.773</ele>
        <time>2019-10-21T13:53:00Z</time>
      </trkpt>
      <trkpt lat="45.84886" lon="4.30148">
        <ele>794.997</ele>
        <time>2019-10-21T13:53:06Z</time>
      </trkpt>
      <trkpt lat="45.84883" lon="4.30142">
        <ele>795.266</ele>
        <time>2019-10-21T13:53:11Z</time>
      </trkpt>
      <trkpt lat="45.84878" lon="4.30135">
        <ele>796.014</ele>
        <time>2019-10-21T13:53:17Z</time>
      </trkpt>
      <trkpt lat="45.84875" lon="4.30128">
        <ele>801.656</ele>
        <time>2019-10-21T13:53:22Z</time>
      </trkpt>
      <trkpt lat="45.84872" lon="4.30122">
        <ele>797.89</ele>
        <time>2019-10-21T13:53:27Z</time>
      </trkpt>
      <trkpt lat="45.84869" lon="4.30115">
        <ele>798.921</ele>
        <time>2019-10-21T13:53:33Z</time>
      </trkpt>
      <trkpt lat="45.84866" lon="4.3011">
        <ele>800.594</ele>
        <time>2019-10-21T13:53:38Z</time>
      </trkpt>
      <trkpt lat="45.84862" lon="4.30106">
        <ele>801.945</ele>
        <time>2019-10-21T13:53:44Z</time>
      </trkpt>
      <trkpt lat="45.84858" lon="4.30103">
        <ele>802.953</ele>
        <time>2019-10-21T13:53:50Z</time>
      </trkpt>
      <trkpt lat="45.84854" lon="4.30099">
        <ele>803.655</ele>
        <time>2019-10-21T13:53:55Z</time>
      </trkpt>
      <trkpt lat="45.8485" lon="4.30093">
        <ele>804.488</ele>
        <time>2019-10-21T13:54:01Z</time>
      </trkpt>
      <trkpt lat="45.84846" lon="4.30088">
        <ele>805.244</ele>
        <time>2019-10-21T13:54:07Z</time>
      </trkpt>
      <trkpt lat="45.84844" lon="4.30081">
        <ele>800.715</ele>
        <time>2019-10-21T13:54:13Z</time>
      </trkpt>
      <trkpt lat="45.84841" lon="4.30077">
        <ele>801.424</ele>
        <time>2019-10-21T13:54:18Z</time>
      </trkpt>
      <trkpt lat="45.84837" lon="4.3007">
        <ele>807.633</ele>
        <time>2019-10-21T13:54:24Z</time>
      </trkpt>
      <trkpt lat="45.84833" lon="4.30063">
        <ele>808.426</ele>
        <time>2019-10-21T13:54:30Z</time>
      </trkpt>
      <trkpt lat="45.84829" lon="4.30056">
        <ele>809.306</ele>
        <time>2019-10-21T13:54:36Z</time>
      </trkpt>
      <trkpt lat="45.84824" lon="4.30049">
        <ele>810.129</ele>
        <time>2019-10-21T13:54:42Z</time>
      </trkpt>
      <trkpt lat="45.84823" lon="4.30042">
        <ele>809.84</ele>
        <time>2019-10-21T13:54:47Z</time>
      </trkpt>
      <trkpt lat="45.8482" lon="4.30032">
        <ele>808.93</ele>
        <time>2019-10-21T13:54:53Z</time>
      </trkpt>
      <trkpt lat="45.84817" lon="4.30026">
        <ele>805.083</ele>
        <time>2019-10-21T13:54:58Z</time>
      </trkpt>
      <trkpt lat="45.84814" lon="4.3002">
        <ele>810.192</ele>
        <time>2019-10-21T13:55:03Z</time>
      </trkpt>
      <trkpt lat="45.84811" lon="4.30012">
        <ele>810.657</ele>
        <time>2019-10-21T13:55:09Z</time>
      </trkpt>
      <trkpt lat="45.84807" lon="4.30003">
        <ele>806.47</ele>
        <time>2019-10-21T13:55:15Z</time>
      </trkpt>
      <trkpt lat="45.84806" lon="4.29996">
        <ele>810.626</ele>
        <time>2019-10-21T13:55:20Z</time>
      </trkpt>
      <trkpt lat="45.84805" lon="4.29985">
        <ele>810.22</ele>
        <time>2019-10-21T13:55:26Z</time>
      </trkpt>
      <trkpt lat="45.84803" lon="4.29976">
        <ele>808.711</ele>
        <time>2019-10-21T13:55:32Z</time>
      </trkpt>
      <trkpt lat="45.84803" lon="4.29968">
        <ele>807.468</ele>
        <time>2019-10-21T13:55:37Z</time>
      </trkpt>
      <trkpt lat="45.84801" lon="4.29959">
        <ele>808.663</ele>
        <time>2019-10-21T13:55:43Z</time>
      </trkpt>
      <trkpt lat="45.84798" lon="4.29951">
        <ele>808.954</ele>
        <time>2019-10-21T13:55:49Z</time>
      </trkpt>
      <trkpt lat="45.84795" lon="4.29942">
        <ele>803.128</ele>
        <time>2019-10-21T13:55:55Z</time>
      </trkpt>
      <trkpt lat="45.84792" lon="4.29935">
        <ele>809.667</ele>
        <time>2019-10-21T13:56:00Z</time>
      </trkpt>
      <trkpt lat="45.84789" lon="4.29926">
        <ele>810.225</ele>
        <time>2019-10-21T13:56:06Z</time>
      </trkpt>
      <trkpt lat="45.84787" lon="4.2992">
        <ele>810.93</ele>
        <time>2019-10-21T13:56:11Z</time>
      </trkpt>
      <trkpt lat="45.84784" lon="4.29913">
        <ele>806.629</ele>
        <time>2019-10-21T13:56:17Z</time>
      </trkpt>
      <trkpt lat="45.84782" lon="4.29905">
        <ele>811.167</ele>
        <time>2019-10-21T13:56:22Z</time>
      </trkpt>
      <trkpt lat="45.8478" lon="4.29898">
        <ele>806.16</ele>
        <time>2019-10-21T13:56:27Z</time>
      </trkpt>
      <trkpt lat="45.84778" lon="4.29891">
        <ele>806.655</ele>
        <time>2019-10-21T13:56:32Z</time>
      </trkpt>
      <trkpt lat="45.84775" lon="4.29882">
        <ele>807.76</ele>
        <time>2019-10-21T13:56:38Z</time>
      </trkpt>
      <trkpt lat="45.84773" lon="4.29876">
        <ele>812.382</ele>
        <time>2019-10-21T13:56:43Z</time>
      </trkpt>
      <trkpt lat="45.84768" lon="4.29869">
        <ele>807.515</ele>
        <time>2019-10-21T13:56:49Z</time>
      </trkpt>
      <trkpt lat="45.84764" lon="4.29864">
        <ele>806.832</ele>
        <time>2019-10-21T13:56:54Z</time>
      </trkpt>
      <trkpt lat="45.8476" lon="4.29858">
        <ele>805.635</ele>
        <time>2019-10-21T13:57:00Z</time>
      </trkpt>
      <trkpt lat="45.84757" lon="4.29852">
        <ele>781.726</ele>
        <time>2019-10-21T13:57:05Z</time>
      </trkpt>
      <trkpt lat="45.84752" lon="4.29847">
        <ele>797.778</ele>
        <time>2019-10-21T13:57:10Z</time>
      </trkpt>
      <trkpt lat="45.84746" lon="4.29842">
        <ele>798.009</ele>
        <time>2019-10-21T13:57:16Z</time>
      </trkpt>
      <trkpt lat="45.84741" lon="4.29836">
        <ele>811.088</ele>
        <time>2019-10-21T13:57:22Z</time>
      </trkpt>
      <trkpt lat="45.84737" lon="4.29831">
        <ele>812.35</ele>
        <time>2019-10-21T13:57:28Z</time>
      </trkpt>
      <trkpt lat="45.84733" lon="4.29826">
        <ele>814.331</ele>
        <time>2019-10-21T13:57:34Z</time>
      </trkpt>
      <trkpt lat="45.84728" lon="4.29821">
        <ele>809.783</ele>
        <time>2019-10-21T13:57:40Z</time>
      </trkpt>
      <trkpt lat="45.84723" lon="4.29816">
        <ele>815.338</ele>
        <time>2019-10-21T13:57:46Z</time>
      </trkpt>
      <trkpt lat="45.84719" lon="4.29809">
        <ele>815.27</ele>
        <time>2019-10-21T13:57:52Z</time>
      </trkpt>
      <trkpt lat="45.84716" lon="4.29803">
        <ele>815.829</ele>
        <time>2019-10-21T13:57:58Z</time>
      </trkpt>
      <trkpt lat="45.84713" lon="4.29801">
        <ele>816.253</ele>
        <time>2019-10-21T13:58:03Z</time>
      </trkpt>
      <trkpt lat="45.8471" lon="4.298">
        <ele>817.165</ele>
        <time>2019-10-21T13:58:08Z</time>
      </trkpt>
      <trkpt lat="45.84704" lon="4.29799">
        <ele>822.235</ele>
        <time>2019-10-21T13:58:14Z</time>
      </trkpt>
      <trkpt lat="45.847" lon="4.29794">
        <ele>819.353</ele>
        <time>2019-10-21T13:58:20Z</time>
      </trkpt>
      <trkpt lat="45.84697" lon="4.29791">
        <ele>822.17</ele>
        <time>2019-10-21T13:58:26Z</time>
      </trkpt>
      <trkpt lat="45.84694" lon="4.29788">
        <ele>822.343</ele>
        <time>2019-10-21T13:58:31Z</time>
      </trkpt>
      <trkpt lat="45.8469" lon="4.2978">
        <ele>820.505</ele>
        <time>2019-10-21T13:58:37Z</time>
      </trkpt>
      <trkpt lat="45.84685" lon="4.29777">
        <ele>822.451</ele>
        <time>2019-10-21T13:58:42Z</time>
      </trkpt>
      <trkpt lat="45.84681" lon="4.29768">
        <ele>829.966</ele>
        <time>2019-10-21T13:58:48Z</time>
      </trkpt>
      <trkpt lat="45.84676" lon="4.29761">
        <ele>832.186</ele>
        <time>2019-10-21T13:58:53Z</time>
      </trkpt>
      <trkpt lat="45.84672" lon="4.29758">
        <ele>830.669</ele>
        <time>2019-10-21T13:58:59Z</time>
      </trkpt>
      <trkpt lat="45.84668" lon="4.29754">
        <ele>829.427</ele>
        <time>2019-10-21T13:59:04Z</time>
      </trkpt>
      <trkpt lat="45.84665" lon="4.29752">
        <ele>826.834</ele>
        <time>2019-10-21T13:59:09Z</time>
      </trkpt>
      <trkpt lat="45.84659" lon="4.29748">
        <ele>825.879</ele>
        <time>2019-10-21T13:59:15Z</time>
      </trkpt>
      <trkpt lat="45.84654" lon="4.29745">
        <ele>826.807</ele>
        <time>2019-10-21T13:59:21Z</time>
      </trkpt>
      <trkpt lat="45.8465" lon="4.2974">
        <ele>827.863</ele>
        <time>2019-10-21T13:59:27Z</time>
      </trkpt>
      <trkpt lat="45.84645" lon="4.29737">
        <ele>827.554</ele>
        <time>2019-10-21T13:59:33Z</time>
      </trkpt>
      <trkpt lat="45.84641" lon="4.29736">
        <ele>827.239</ele>
        <time>2019-10-21T13:59:39Z</time>
      </trkpt>
      <trkpt lat="45.84639" lon="4.29736">
        <ele>828.191</ele>
        <time>2019-10-21T13:59:45Z</time>
      </trkpt>
      <trkpt lat="45.84635" lon="4.29735">
        <ele>828.267</ele>
        <time>2019-10-21T13:59:50Z</time>
      </trkpt>
      <trkpt lat="45.84628" lon="4.29729">
        <ele>828.394</ele>
        <time>2019-10-21T13:59:56Z</time>
      </trkpt>
      <trkpt lat="45.84624" lon="4.29727">
        <ele>831.864</ele>
        <time>2019-10-21T14:00:02Z</time>
      </trkpt>
      <trkpt lat="45.8462" lon="4.29726">
        <ele>830.03</ele>
        <time>2019-10-21T14:00:07Z</time>
      </trkpt>
      <trkpt lat="45.84613" lon="4.29726">
        <ele>830.597</ele>
        <time>2019-10-21T14:00:13Z</time>
      </trkpt>
      <trkpt lat="45.84607" lon="4.29723">
        <ele>833.782</ele>
        <time>2019-10-21T14:00:19Z</time>
      </trkpt>
      <trkpt lat="45.84606" lon="4.29721">
        <ele>834.232</ele>
        <time>2019-10-21T14:00:24Z</time>
      </trkpt>
      <trkpt lat="45.84606" lon="4.2972">
        <ele>834.138</ele>
        <time>2019-10-21T14:00:30Z</time>
      </trkpt>
      <trkpt lat="45.84598" lon="4.29719">
        <ele>834.149</ele>
        <time>2019-10-21T14:00:35Z</time>
      </trkpt>
      <trkpt lat="45.8459" lon="4.29717">
        <ele>835.346</ele>
        <time>2019-10-21T14:00:41Z</time>
      </trkpt>
      <trkpt lat="45.84584" lon="4.29714">
        <ele>829.146</ele>
        <time>2019-10-21T14:00:46Z</time>
      </trkpt>
      <trkpt lat="45.84575" lon="4.29712">
        <ele>833.719</ele>
        <time>2019-10-21T14:00:52Z</time>
      </trkpt>
      <trkpt lat="45.84572" lon="4.29706">
        <ele>748.198</ele>
        <time>2019-10-21T14:00:58Z</time>
      </trkpt>
      <trkpt lat="45.84569" lon="4.29699">
        <ele>764.725</ele>
        <time>2019-10-21T14:01:04Z</time>
      </trkpt>
      <trkpt lat="45.84567" lon="4.29696">
        <ele>739.112</ele>
        <time>2019-10-21T14:01:09Z</time>
      </trkpt>
      <trkpt lat="45.8456" lon="4.29693">
        <ele>725.707</ele>
        <time>2019-10-21T14:01:14Z</time>
      </trkpt>
      <trkpt lat="45.84556" lon="4.2969">
        <ele>728.58</ele>
        <time>2019-10-21T14:01:19Z</time>
      </trkpt>
      <trkpt lat="45.84554" lon="4.2969">
        <ele>739.083</ele>
        <time>2019-10-21T14:01:24Z</time>
      </trkpt>
      <trkpt lat="45.84553" lon="4.29689">
        <ele>745.156</ele>
        <time>2019-10-21T14:01:30Z</time>
      </trkpt>
      <trkpt lat="45.84548" lon="4.29687">
        <ele>736.464</ele>
        <time>2019-10-21T14:01:36Z</time>
      </trkpt>
      <trkpt lat="45.84534" lon="4.29679">
        <ele>746.843</ele>
        <time>2019-10-21T14:01:42Z</time>
      </trkpt>
      <trkpt lat="45.84524" lon="4.29675">
        <ele>750.089</ele>
        <time>2019-10-21T14:01:47Z</time>
      </trkpt>
      <trkpt lat="45.84515" lon="4.29671">
        <ele>736.373</ele>
        <time>2019-10-21T14:01:53Z</time>
      </trkpt>
      <trkpt lat="45.84507" lon="4.29665">
        <ele>747.466</ele>
        <time>2019-10-21T14:01:59Z</time>
      </trkpt>
      <trkpt lat="45.84501" lon="4.2966">
        <ele>752.88</ele>
        <time>2019-10-21T14:02:04Z</time>
      </trkpt>
      <trkpt lat="45.84495" lon="4.29656">
        <ele>781.927</ele>
        <time>2019-10-21T14:02:09Z</time>
      </trkpt>
      <trkpt lat="45.84488" lon="4.2965">
        <ele>811.806</ele>
        <time>2019-10-21T14:02:15Z</time>
      </trkpt>
      <trkpt lat="45.84484" lon="4.29645">
        <ele>811.846</ele>
        <time>2019-10-21T14:02:20Z</time>
      </trkpt>
      <trkpt lat="45.84479" lon="4.29638">
        <ele>823.07</ele>
        <time>2019-10-21T14:02:26Z</time>
      </trkpt>
      <trkpt lat="45.84474" lon="4.29634">
        <ele>822.432</ele>
        <time>2019-10-21T14:02:31Z</time>
      </trkpt>
      <trkpt lat="45.84467" lon="4.29629">
        <ele>822.603</ele>
        <time>2019-10-21T14:02:37Z</time>
      </trkpt>
      <trkpt lat="45.84461" lon="4.29626">
        <ele>822.639</ele>
        <time>2019-10-21T14:02:43Z</time>
      </trkpt>
      <trkpt lat="45.84456" lon="4.29621">
        <ele>818.888</ele>
        <time>2019-10-21T14:02:48Z</time>
      </trkpt>
      <trkpt lat="45.84451" lon="4.29615">
        <ele>823.733</ele>
        <time>2019-10-21T14:02:53Z</time>
      </trkpt>
      <trkpt lat="45.84447" lon="4.29611">
        <ele>820.592</ele>
        <time>2019-10-21T14:02:59Z</time>
      </trkpt>
      <trkpt lat="45.84442" lon="4.29606">
        <ele>820.651</ele>
        <time>2019-10-21T14:03:04Z</time>
      </trkpt>
      <trkpt lat="45.84437" lon="4.29603">
        <ele>820.238</ele>
        <time>2019-10-21T14:03:09Z</time>
      </trkpt>
      <trkpt lat="45.84431" lon="4.29598">
        <ele>823.053</ele>
        <time>2019-10-21T14:03:15Z</time>
      </trkpt>
      <trkpt lat="45.84425" lon="4.29593">
        <ele>818.078</ele>
        <time>2019-10-21T14:03:21Z</time>
      </trkpt>
      <trkpt lat="45.8442" lon="4.2959">
        <ele>819.176</ele>
        <time>2019-10-21T14:03:26Z</time>
      </trkpt>
      <trkpt lat="45.84414" lon="4.29585">
        <ele>822.55</ele>
        <time>2019-10-21T14:03:32Z</time>
      </trkpt>
      <trkpt lat="45.84411" lon="4.2958">
        <ele>822.305</ele>
        <time>2019-10-21T14:03:37Z</time>
      </trkpt>
      <trkpt lat="45.84407" lon="4.29573">
        <ele>822.614</ele>
        <time>2019-10-21T14:03:43Z</time>
      </trkpt>
      <trkpt lat="45.84403" lon="4.29567">
        <ele>812.094</ele>
        <time>2019-10-21T14:03:49Z</time>
      </trkpt>
      <trkpt lat="45.84398" lon="4.29559">
        <ele>811.098</ele>
        <time>2019-10-21T14:03:55Z</time>
      </trkpt>
      <trkpt lat="45.84394" lon="4.29552">
        <ele>811.261</ele>
        <time>2019-10-21T14:04:01Z</time>
      </trkpt>
      <trkpt lat="45.84391" lon="4.29544">
        <ele>810.588</ele>
        <time>2019-10-21T14:04:06Z</time>
      </trkpt>
      <trkpt lat="45.84385" lon="4.29538">
        <ele>811.345</ele>
        <time>2019-10-21T14:04:12Z</time>
      </trkpt>
      <trkpt lat="45.84382" lon="4.29532">
        <ele>810.71</ele>
        <time>2019-10-21T14:04:17Z</time>
      </trkpt>
      <trkpt lat="45.84378" lon="4.29524">
        <ele>809.093</ele>
        <time>2019-10-21T14:04:23Z</time>
      </trkpt>
      <trkpt lat="45.84375" lon="4.29517">
        <ele>809.593</ele>
        <time>2019-10-21T14:04:29Z</time>
      </trkpt>
      <trkpt lat="45.84371" lon="4.29511">
        <ele>808.857</ele>
        <time>2019-10-21T14:04:34Z</time>
      </trkpt>
      <trkpt lat="45.84369" lon="4.29506">
        <ele>806.965</ele>
        <time>2019-10-21T14:04:40Z</time>
      </trkpt>
      <trkpt lat="45.84364" lon="4.29499">
        <ele>807.73</ele>
        <time>2019-10-21T14:04:46Z</time>
      </trkpt>
      <trkpt lat="45.8436" lon="4.29492">
        <ele>809.221</ele>
        <time>2019-10-21T14:04:51Z</time>
      </trkpt>
      <trkpt lat="45.84356" lon="4.29486">
        <ele>806.599</ele>
        <time>2019-10-21T14:04:57Z</time>
      </trkpt>
      <trkpt lat="45.84352" lon="4.29479">
        <ele>805.375</ele>
        <time>2019-10-21T14:05:03Z</time>
      </trkpt>
      <trkpt lat="45.84347" lon="4.29473">
        <ele>804.861</ele>
        <time>2019-10-21T14:05:08Z</time>
      </trkpt>
      <trkpt lat="45.84344" lon="4.29468">
        <ele>804.908</ele>
        <time>2019-10-21T14:05:14Z</time>
      </trkpt>
      <trkpt lat="45.84339" lon="4.29462">
        <ele>804.007</ele>
        <time>2019-10-21T14:05:19Z</time>
      </trkpt>
      <trkpt lat="45.84338" lon="4.29461">
        <ele>804.036</ele>
        <time>2019-10-21T14:05:25Z</time>
      </trkpt>
      <trkpt lat="45.84339" lon="4.2946">
        <ele>804.286</ele>
        <time>2019-10-21T14:05:31Z</time>
      </trkpt>
      <trkpt lat="45.84338" lon="4.2946">
        <ele>804.428</ele>
        <time>2019-10-21T14:05:36Z</time>
      </trkpt>
      <trkpt lat="45.84338" lon="4.2946">
        <ele>804.251</ele>
        <time>2019-10-21T14:05:41Z</time>
      </trkpt>
      <trkpt lat="45.84336" lon="4.29459">
        <ele>805.183</ele>
        <time>2019-10-21T14:05:48Z</time>
      </trkpt>
      <trkpt lat="45.84336" lon="4.29459">
        <ele>805.406</ele>
        <time>2019-10-21T14:05:53Z</time>
      </trkpt>
      <trkpt lat="45.84336" lon="4.29459">
        <ele>805.406</ele>
        <time>2019-10-21T14:06:00Z</time>
      </trkpt>
      <trkpt lat="45.84336" lon="4.29459">
        <ele>805.357</ele>
        <time>2019-10-21T14:06:05Z</time>
      </trkpt>
      <trkpt lat="45.84336" lon="4.29459">
        <ele>805.357</ele>
        <time>2019-10-21T14:06:11Z</time>
      </trkpt>
      <trkpt lat="45.84336" lon="4.29459">
        <ele>805.331</ele>
        <time>2019-10-21T14:06:16Z</time>
      </trkpt>
      <trkpt lat="45.84334" lon="4.29456">
        <ele>806.441</ele>
        <time>2019-10-21T14:06:21Z</time>
      </trkpt>
      <trkpt lat="45.84332" lon="4.29452">
        <ele>806.14</ele>
        <time>2019-10-21T14:06:26Z</time>
      </trkpt>
      <trkpt lat="45.8433" lon="4.29446">
        <ele>803.764</ele>
        <time>2019-10-21T14:06:32Z</time>
      </trkpt>
      <trkpt lat="45.84327" lon="4.29441">
        <ele>803.889</ele>
        <time>2019-10-21T14:06:37Z</time>
      </trkpt>
      <trkpt lat="45.84324" lon="4.29435">
        <ele>802.675</ele>
        <time>2019-10-21T14:06:43Z</time>
      </trkpt>
      <trkpt lat="45.84321" lon="4.29429">
        <ele>802.704</ele>
        <time>2019-10-21T14:06:48Z</time>
      </trkpt>
      <trkpt lat="45.84318" lon="4.29423">
        <ele>802.94</ele>
        <time>2019-10-21T14:06:54Z</time>
      </trkpt>
      <trkpt lat="45.84314" lon="4.29417">
        <ele>801.682</ele>
        <time>2019-10-21T14:06:59Z</time>
      </trkpt>
      <trkpt lat="45.84309" lon="4.29411">
        <ele>800.23</ele>
        <time>2019-10-21T14:07:04Z</time>
      </trkpt>
      <trkpt lat="45.84306" lon="4.29405">
        <ele>800.066</ele>
        <time>2019-10-21T14:07:09Z</time>
      </trkpt>
      <trkpt lat="45.84303" lon="4.29398">
        <ele>798.221</ele>
        <time>2019-10-21T14:07:15Z</time>
      </trkpt>
      <trkpt lat="45.84299" lon="4.2939">
        <ele>797.755</ele>
        <time>2019-10-21T14:07:21Z</time>
      </trkpt>
      <trkpt lat="45.84293" lon="4.29382">
        <ele>797.883</ele>
        <time>2019-10-21T14:07:27Z</time>
      </trkpt>
      <trkpt lat="45.84288" lon="4.29374">
        <ele>795.647</ele>
        <time>2019-10-21T14:07:32Z</time>
      </trkpt>
      <trkpt lat="45.84285" lon="4.29368">
        <ele>794.526</ele>
        <time>2019-10-21T14:07:37Z</time>
      </trkpt>
      <trkpt lat="45.84282" lon="4.29365">
        <ele>794.702</ele>
        <time>2019-10-21T14:07:43Z</time>
      </trkpt>
      <trkpt lat="45.84282" lon="4.29361">
        <ele>794.943</ele>
        <time>2019-10-21T14:07:48Z</time>
      </trkpt>
      <trkpt lat="45.84282" lon="4.29361">
        <ele>795.337</ele>
        <time>2019-10-21T14:07:55Z</time>
      </trkpt>
      <trkpt lat="45.84278" lon="4.29358">
        <ele>795.984</ele>
        <time>2019-10-21T14:08:00Z</time>
      </trkpt>
      <trkpt lat="45.84275" lon="4.2935">
        <ele>795.206</ele>
        <time>2019-10-21T14:08:06Z</time>
      </trkpt>
      <trkpt lat="45.84274" lon="4.29347">
        <ele>795.197</ele>
        <time>2019-10-21T14:08:11Z</time>
      </trkpt>
      <trkpt lat="45.84274" lon="4.29347">
        <ele>795.349</ele>
        <time>2019-10-21T14:08:17Z</time>
      </trkpt>
      <trkpt lat="45.8427" lon="4.29342">
        <ele>795.091</ele>
        <time>2019-10-21T14:08:22Z</time>
      </trkpt>
      <trkpt lat="45.84268" lon="4.2934">
        <ele>795.215</ele>
        <time>2019-10-21T14:08:28Z</time>
      </trkpt>
      <trkpt lat="45.84267" lon="4.29338">
        <ele>795.634</ele>
        <time>2019-10-21T14:08:33Z</time>
      </trkpt>
      <trkpt lat="45.84265" lon="4.29332">
        <ele>794.352</ele>
        <time>2019-10-21T14:08:39Z</time>
      </trkpt>
      <trkpt lat="45.84262" lon="4.29325">
        <ele>794.124</ele>
        <time>2019-10-21T14:08:44Z</time>
      </trkpt>
      <trkpt lat="45.84258" lon="4.29317">
        <ele>793.732</ele>
        <time>2019-10-21T14:08:50Z</time>
      </trkpt>
      <trkpt lat="45.84255" lon="4.29312">
        <ele>792.837</ele>
        <time>2019-10-21T14:08:56Z</time>
      </trkpt>
      <trkpt lat="45.84252" lon="4.29306">
        <ele>792.505</ele>
        <time>2019-10-21T14:09:02Z</time>
      </trkpt>
      <trkpt lat="45.84249" lon="4.29298">
        <ele>791.613</ele>
        <time>2019-10-21T14:09:08Z</time>
      </trkpt>
      <trkpt lat="45.84245" lon="4.29291">
        <ele>789.94</ele>
        <time>2019-10-21T14:09:13Z</time>
      </trkpt>
      <trkpt lat="45.84241" lon="4.29283">
        <ele>789.524</ele>
        <time>2019-10-21T14:09:19Z</time>
      </trkpt>
      <trkpt lat="45.84237" lon="4.29276">
        <ele>788.745</ele>
        <time>2019-10-21T14:09:25Z</time>
      </trkpt>
      <trkpt lat="45.84234" lon="4.2927">
        <ele>789.512</ele>
        <time>2019-10-21T14:09:31Z</time>
      </trkpt>
      <trkpt lat="45.84231" lon="4.29265">
        <ele>788.971</ele>
        <time>2019-10-21T14:09:37Z</time>
      </trkpt>
      <trkpt lat="45.84229" lon="4.29259">
        <ele>788.12</ele>
        <time>2019-10-21T14:09:42Z</time>
      </trkpt>
      <trkpt lat="45.84226" lon="4.29252">
        <ele>788.967</ele>
        <time>2019-10-21T14:09:48Z</time>
      </trkpt>
      <trkpt lat="45.84222" lon="4.29245">
        <ele>788.663</ele>
        <time>2019-10-21T14:09:53Z</time>
      </trkpt>
      <trkpt lat="45.84218" lon="4.29238">
        <ele>788.399</ele>
        <time>2019-10-21T14:09:59Z</time>
      </trkpt>
      <trkpt lat="45.84215" lon="4.29234">
        <ele>789</ele>
        <time>2019-10-21T14:10:05Z</time>
      </trkpt>
      <trkpt lat="45.84212" lon="4.29225">
        <ele>789.218</ele>
        <time>2019-10-21T14:10:12Z</time>
      </trkpt>
      <trkpt lat="45.84209" lon="4.29217">
        <ele>789.394</ele>
        <time>2019-10-21T14:10:17Z</time>
      </trkpt>
      <trkpt lat="45.84206" lon="4.2921">
        <ele>788.161</ele>
        <time>2019-10-21T14:10:22Z</time>
      </trkpt>
      <trkpt lat="45.84203" lon="4.29205">
        <ele>787.931</ele>
        <time>2019-10-21T14:10:28Z</time>
      </trkpt>
      <trkpt lat="45.842" lon="4.29199">
        <ele>788.324</ele>
        <time>2019-10-21T14:10:33Z</time>
      </trkpt>
      <trkpt lat="45.84198" lon="4.29193">
        <ele>788.534</ele>
        <time>2019-10-21T14:10:38Z</time>
      </trkpt>
      <trkpt lat="45.84196" lon="4.29186">
        <ele>784.636</ele>
        <time>2019-10-21T14:10:43Z</time>
      </trkpt>
      <trkpt lat="45.84193" lon="4.29181">
        <ele>782.795</ele>
        <time>2019-10-21T14:10:48Z</time>
      </trkpt>
      <trkpt lat="45.8419" lon="4.29175">
        <ele>782.863</ele>
        <time>2019-10-21T14:10:54Z</time>
      </trkpt>
      <trkpt lat="45.84186" lon="4.29168">
        <ele>783.709</ele>
        <time>2019-10-21T14:10:59Z</time>
      </trkpt>
      <trkpt lat="45.84182" lon="4.29162">
        <ele>782.362</ele>
        <time>2019-10-21T14:11:05Z</time>
      </trkpt>
      <trkpt lat="45.84179" lon="4.29153">
        <ele>782.454</ele>
        <time>2019-10-21T14:11:12Z</time>
      </trkpt>
      <trkpt lat="45.84175" lon="4.29145">
        <ele>782.272</ele>
        <time>2019-10-21T14:11:18Z</time>
      </trkpt>
      <trkpt lat="45.84172" lon="4.29138">
        <ele>784.382</ele>
        <time>2019-10-21T14:11:23Z</time>
      </trkpt>
      <trkpt lat="45.84167" lon="4.2913">
        <ele>784.473</ele>
        <time>2019-10-21T14:11:28Z</time>
      </trkpt>
      <trkpt lat="45.84162" lon="4.29123">
        <ele>785.126</ele>
        <time>2019-10-21T14:11:35Z</time>
      </trkpt>
      <trkpt lat="45.84157" lon="4.29116">
        <ele>785.38</ele>
        <time>2019-10-21T14:11:40Z</time>
      </trkpt>
      <trkpt lat="45.84151" lon="4.2911">
        <ele>785.669</ele>
        <time>2019-10-21T14:11:46Z</time>
      </trkpt>
      <trkpt lat="45.84146" lon="4.29107">
        <ele>785.028</ele>
        <time>2019-10-21T14:11:51Z</time>
      </trkpt>
      <trkpt lat="45.84141" lon="4.29104">
        <ele>785.479</ele>
        <time>2019-10-21T14:11:58Z</time>
      </trkpt>
      <trkpt lat="45.84137" lon="4.29102">
        <ele>786.422</ele>
        <time>2019-10-21T14:12:03Z</time>
      </trkpt>
      <trkpt lat="45.84132" lon="4.29098">
        <ele>785.02</ele>
        <time>2019-10-21T14:12:08Z</time>
      </trkpt>
      <trkpt lat="45.84128" lon="4.29095">
        <ele>784.47</ele>
        <time>2019-10-21T14:12:13Z</time>
      </trkpt>
      <trkpt lat="45.84124" lon="4.29091">
        <ele>783.518</ele>
        <time>2019-10-21T14:12:19Z</time>
      </trkpt>
      <trkpt lat="45.84117" lon="4.29088">
        <ele>782.222</ele>
        <time>2019-10-21T14:12:24Z</time>
      </trkpt>
      <trkpt lat="45.84111" lon="4.29083">
        <ele>781.342</ele>
        <time>2019-10-21T14:12:30Z</time>
      </trkpt>
      <trkpt lat="45.84106" lon="4.29079">
        <ele>780.492</ele>
        <time>2019-10-21T14:12:37Z</time>
      </trkpt>
      <trkpt lat="45.841" lon="4.29075">
        <ele>779.826</ele>
        <time>2019-10-21T14:12:42Z</time>
      </trkpt>
      <trkpt lat="45.84097" lon="4.29072">
        <ele>777.945</ele>
        <time>2019-10-21T14:12:48Z</time>
      </trkpt>
      <trkpt lat="45.84091" lon="4.29069">
        <ele>777.651</ele>
        <time>2019-10-21T14:12:53Z</time>
      </trkpt>
      <trkpt lat="45.84085" lon="4.29066">
        <ele>777.492</ele>
        <time>2019-10-21T14:12:59Z</time>
      </trkpt>
      <trkpt lat="45.8408" lon="4.29062">
        <ele>777.54</ele>
        <time>2019-10-21T14:13:05Z</time>
      </trkpt>
      <trkpt lat="45.84074" lon="4.29059">
        <ele>777.551</ele>
        <time>2019-10-21T14:13:10Z</time>
      </trkpt>
      <trkpt lat="45.84068" lon="4.29058">
        <ele>777.527</ele>
        <time>2019-10-21T14:13:16Z</time>
      </trkpt>
      <trkpt lat="45.84063" lon="4.29055">
        <ele>776.802</ele>
        <time>2019-10-21T14:13:21Z</time>
      </trkpt>
      <trkpt lat="45.84059" lon="4.2905">
        <ele>776.346</ele>
        <time>2019-10-21T14:13:27Z</time>
      </trkpt>
      <trkpt lat="45.84051" lon="4.29047">
        <ele>775.044</ele>
        <time>2019-10-21T14:13:33Z</time>
      </trkpt>
      <trkpt lat="45.84045" lon="4.29042">
        <ele>773.378</ele>
        <time>2019-10-21T14:13:38Z</time>
      </trkpt>
      <trkpt lat="45.8404" lon="4.29037">
        <ele>772.241</ele>
        <time>2019-10-21T14:13:44Z</time>
      </trkpt>
      <trkpt lat="45.84035" lon="4.29034">
        <ele>771.764</ele>
        <time>2019-10-21T14:13:49Z</time>
      </trkpt>
      <trkpt lat="45.84032" lon="4.29031">
        <ele>771.297</ele>
        <time>2019-10-21T14:13:55Z</time>
      </trkpt>
      <trkpt lat="45.84027" lon="4.29027">
        <ele>771.883</ele>
        <time>2019-10-21T14:14:00Z</time>
      </trkpt>
      <trkpt lat="45.84022" lon="4.29022">
        <ele>770.926</ele>
        <time>2019-10-21T14:14:06Z</time>
      </trkpt>
      <trkpt lat="45.84016" lon="4.29017">
        <ele>769.242</ele>
        <time>2019-10-21T14:14:11Z</time>
      </trkpt>
      <trkpt lat="45.84011" lon="4.29013">
        <ele>768.752</ele>
        <time>2019-10-21T14:14:17Z</time>
      </trkpt>
      <trkpt lat="45.84006" lon="4.29011">
        <ele>767.095</ele>
        <time>2019-10-21T14:14:22Z</time>
      </trkpt>
      <trkpt lat="45.84004" lon="4.29009">
        <ele>766.329</ele>
        <time>2019-10-21T14:14:28Z</time>
      </trkpt>
      <trkpt lat="45.84" lon="4.29004">
        <ele>765.782</ele>
        <time>2019-10-21T14:14:34Z</time>
      </trkpt>
      <trkpt lat="45.83995" lon="4.28999">
        <ele>763.579</ele>
        <time>2019-10-21T14:14:39Z</time>
      </trkpt>
      <trkpt lat="45.8399" lon="4.28996">
        <ele>763.549</ele>
        <time>2019-10-21T14:14:44Z</time>
      </trkpt>
      <trkpt lat="45.83987" lon="4.28995">
        <ele>762.998</ele>
        <time>2019-10-21T14:14:50Z</time>
      </trkpt>
      <trkpt lat="45.83984" lon="4.28993">
        <ele>762.692</ele>
        <time>2019-10-21T14:14:56Z</time>
      </trkpt>
      <trkpt lat="45.83981" lon="4.28988">
        <ele>763.075</ele>
        <time>2019-10-21T14:15:02Z</time>
      </trkpt>
      <trkpt lat="45.83977" lon="4.28985">
        <ele>763.295</ele>
        <time>2019-10-21T14:15:08Z</time>
      </trkpt>
      <trkpt lat="45.83973" lon="4.28982">
        <ele>760.749</ele>
        <time>2019-10-21T14:15:13Z</time>
      </trkpt>
      <trkpt lat="45.83967" lon="4.28979">
        <ele>760.325</ele>
        <time>2019-10-21T14:15:18Z</time>
      </trkpt>
      <trkpt lat="45.83965" lon="4.28976">
        <ele>759.192</ele>
        <time>2019-10-21T14:15:23Z</time>
      </trkpt>
      <trkpt lat="45.83962" lon="4.28972">
        <ele>758.393</ele>
        <time>2019-10-21T14:15:29Z</time>
      </trkpt>
      <trkpt lat="45.83957" lon="4.28967">
        <ele>757.52</ele>
        <time>2019-10-21T14:15:34Z</time>
      </trkpt>
      <trkpt lat="45.83951" lon="4.28964">
        <ele>755.987</ele>
        <time>2019-10-21T14:15:41Z</time>
      </trkpt>
      <trkpt lat="45.83947" lon="4.28967">
        <ele>756.406</ele>
        <time>2019-10-21T14:15:46Z</time>
      </trkpt>
      <trkpt lat="45.83944" lon="4.28974">
        <ele>755.896</ele>
        <time>2019-10-21T14:15:51Z</time>
      </trkpt>
      <trkpt lat="45.83941" lon="4.28982">
        <ele>760.172</ele>
        <time>2019-10-21T14:15:57Z</time>
      </trkpt>
      <trkpt lat="45.83938" lon="4.28992">
        <ele>758.779</ele>
        <time>2019-10-21T14:16:03Z</time>
      </trkpt>
      <trkpt lat="45.83934" lon="4.29002">
        <ele>759.166</ele>
        <time>2019-10-21T14:16:09Z</time>
      </trkpt>
      <trkpt lat="45.83929" lon="4.29012">
        <ele>758.375</ele>
        <time>2019-10-21T14:16:15Z</time>
      </trkpt>
      <trkpt lat="45.83925" lon="4.29022">
        <ele>759.061</ele>
        <time>2019-10-21T14:16:21Z</time>
      </trkpt>
      <trkpt lat="45.83921" lon="4.29029">
        <ele>758.798</ele>
        <time>2019-10-21T14:16:27Z</time>
      </trkpt>
      <trkpt lat="45.83918" lon="4.29036">
        <ele>759.668</ele>
        <time>2019-10-21T14:16:32Z</time>
      </trkpt>
      <trkpt lat="45.83913" lon="4.29042">
        <ele>759.384</ele>
        <time>2019-10-21T14:16:37Z</time>
      </trkpt>
      <trkpt lat="45.83908" lon="4.29051">
        <ele>762.895</ele>
        <time>2019-10-21T14:16:43Z</time>
      </trkpt>
      <trkpt lat="45.83905" lon="4.29058">
        <ele>760.901</ele>
        <time>2019-10-21T14:16:48Z</time>
      </trkpt>
      <trkpt lat="45.83901" lon="4.29065">
        <ele>746.647</ele>
        <time>2019-10-21T14:16:53Z</time>
      </trkpt>
      <trkpt lat="45.83894" lon="4.29072">
        <ele>747.919</ele>
        <time>2019-10-21T14:16:59Z</time>
      </trkpt>
      <trkpt lat="45.83889" lon="4.29077">
        <ele>747.551</ele>
        <time>2019-10-21T14:17:05Z</time>
      </trkpt>
      <trkpt lat="45.83884" lon="4.29082">
        <ele>747.589</ele>
        <time>2019-10-21T14:17:10Z</time>
      </trkpt>
      <trkpt lat="45.8388" lon="4.29088">
        <ele>747.963</ele>
        <time>2019-10-21T14:17:15Z</time>
      </trkpt>
      <trkpt lat="45.83875" lon="4.29094">
        <ele>747.449</ele>
        <time>2019-10-21T14:17:21Z</time>
      </trkpt>
      <trkpt lat="45.8387" lon="4.29101">
        <ele>748.638</ele>
        <time>2019-10-21T14:17:26Z</time>
      </trkpt>
      <trkpt lat="45.83865" lon="4.29108">
        <ele>749.013</ele>
        <time>2019-10-21T14:17:31Z</time>
      </trkpt>
      <trkpt lat="45.83859" lon="4.29117">
        <ele>748.528</ele>
        <time>2019-10-21T14:17:37Z</time>
      </trkpt>
      <trkpt lat="45.83855" lon="4.29122">
        <ele>746.879</ele>
        <time>2019-10-21T14:17:43Z</time>
      </trkpt>
      <trkpt lat="45.83852" lon="4.29125">
        <ele>745.455</ele>
        <time>2019-10-21T14:17:48Z</time>
      </trkpt>
      <trkpt lat="45.83848" lon="4.29132">
        <ele>743.586</ele>
        <time>2019-10-21T14:17:54Z</time>
      </trkpt>
      <trkpt lat="45.83843" lon="4.2914">
        <ele>744.909</ele>
        <time>2019-10-21T14:18:00Z</time>
      </trkpt>
      <trkpt lat="45.83843" lon="4.29146">
        <ele>741.499</ele>
        <time>2019-10-21T14:18:05Z</time>
      </trkpt>
      <trkpt lat="45.8384" lon="4.29157">
        <ele>741.73</ele>
        <time>2019-10-21T14:18:11Z</time>
      </trkpt>
      <trkpt lat="45.83835" lon="4.29165">
        <ele>744.607</ele>
        <time>2019-10-21T14:18:16Z</time>
      </trkpt>
      <trkpt lat="45.83834" lon="4.2917">
        <ele>746.687</ele>
        <time>2019-10-21T14:18:22Z</time>
      </trkpt>
      <trkpt lat="45.83831" lon="4.29177">
        <ele>746.29</ele>
        <time>2019-10-21T14:18:27Z</time>
      </trkpt>
      <trkpt lat="45.83827" lon="4.29189">
        <ele>743.97</ele>
        <time>2019-10-21T14:18:33Z</time>
      </trkpt>
      <trkpt lat="45.83826" lon="4.29196">
        <ele>743.449</ele>
        <time>2019-10-21T14:18:38Z</time>
      </trkpt>
      <trkpt lat="45.83822" lon="4.29207">
        <ele>743.92</ele>
        <time>2019-10-21T14:18:43Z</time>
      </trkpt>
      <trkpt lat="45.83817" lon="4.29218">
        <ele>744.068</ele>
        <time>2019-10-21T14:18:49Z</time>
      </trkpt>
      <trkpt lat="45.83818" lon="4.29228">
        <ele>743.224</ele>
        <time>2019-10-21T14:18:55Z</time>
      </trkpt>
      <trkpt lat="45.83816" lon="4.29237">
        <ele>744.358</ele>
        <time>2019-10-21T14:19:00Z</time>
      </trkpt>
      <trkpt lat="45.83815" lon="4.29246">
        <ele>741.982</ele>
        <time>2019-10-21T14:19:06Z</time>
      </trkpt>
      <trkpt lat="45.83814" lon="4.29255">
        <ele>741.114</ele>
        <time>2019-10-21T14:19:12Z</time>
      </trkpt>
      <trkpt lat="45.83812" lon="4.29266">
        <ele>742.593</ele>
        <time>2019-10-21T14:19:18Z</time>
      </trkpt>
      <trkpt lat="45.8381" lon="4.29277">
        <ele>742.578</ele>
        <time>2019-10-21T14:19:24Z</time>
      </trkpt>
      <trkpt lat="45.83809" lon="4.29289">
        <ele>744.885</ele>
        <time>2019-10-21T14:19:30Z</time>
      </trkpt>
      <trkpt lat="45.83807" lon="4.29299">
        <ele>744.44</ele>
        <time>2019-10-21T14:19:36Z</time>
      </trkpt>
      <trkpt lat="45.83805" lon="4.29308">
        <ele>745.262</ele>
        <time>2019-10-21T14:19:41Z</time>
      </trkpt>
      <trkpt lat="45.83804" lon="4.29316">
        <ele>746.456</ele>
        <time>2019-10-21T14:19:47Z</time>
      </trkpt>
      <trkpt lat="45.83802" lon="4.29324">
        <ele>746.654</ele>
        <time>2019-10-21T14:19:53Z</time>
      </trkpt>
      <trkpt lat="45.838" lon="4.29332">
        <ele>746.734</ele>
        <time>2019-10-21T14:19:58Z</time>
      </trkpt>
      <trkpt lat="45.83798" lon="4.2934">
        <ele>746.998</ele>
        <time>2019-10-21T14:20:03Z</time>
      </trkpt>
      <trkpt lat="45.83796" lon="4.2935">
        <ele>747.444</ele>
        <time>2019-10-21T14:20:09Z</time>
      </trkpt>
      <trkpt lat="45.83793" lon="4.2936">
        <ele>746.949</ele>
        <time>2019-10-21T14:20:15Z</time>
      </trkpt>
      <trkpt lat="45.8379" lon="4.29367">
        <ele>747.479</ele>
        <time>2019-10-21T14:20:20Z</time>
      </trkpt>
      <trkpt lat="45.83787" lon="4.29377">
        <ele>747.079</ele>
        <time>2019-10-21T14:20:26Z</time>
      </trkpt>
      <trkpt lat="45.83785" lon="4.29386">
        <ele>746.871</ele>
        <time>2019-10-21T14:20:31Z</time>
      </trkpt>
      <trkpt lat="45.83785" lon="4.29396">
        <ele>748.166</ele>
        <time>2019-10-21T14:20:37Z</time>
      </trkpt>
      <trkpt lat="45.83786" lon="4.29405">
        <ele>747.822</ele>
        <time>2019-10-21T14:20:42Z</time>
      </trkpt>
      <trkpt lat="45.83789" lon="4.29414">
        <ele>746.541</ele>
        <time>2019-10-21T14:20:48Z</time>
      </trkpt>
      <trkpt lat="45.83794" lon="4.29423">
        <ele>744.583</ele>
        <time>2019-10-21T14:20:54Z</time>
      </trkpt>
      <trkpt lat="45.83798" lon="4.29434">
        <ele>744.675</ele>
        <time>2019-10-21T14:21:00Z</time>
      </trkpt>
      <trkpt lat="45.83802" lon="4.2944">
        <ele>743.847</ele>
        <time>2019-10-21T14:21:05Z</time>
      </trkpt>
      <trkpt lat="45.83806" lon="4.29447">
        <ele>744.688</ele>
        <time>2019-10-21T14:21:10Z</time>
      </trkpt>
      <trkpt lat="45.83811" lon="4.29457">
        <ele>744.5</ele>
        <time>2019-10-21T14:21:16Z</time>
      </trkpt>
      <trkpt lat="45.83815" lon="4.29464">
        <ele>746.933</ele>
        <time>2019-10-21T14:21:21Z</time>
      </trkpt>
      <trkpt lat="45.83821" lon="4.29471">
        <ele>747.456</ele>
        <time>2019-10-21T14:21:27Z</time>
      </trkpt>
      <trkpt lat="45.83825" lon="4.29478">
        <ele>747.08</ele>
        <time>2019-10-21T14:21:32Z</time>
      </trkpt>
      <trkpt lat="45.83829" lon="4.29481">
        <ele>741.334</ele>
        <time>2019-10-21T14:21:38Z</time>
      </trkpt>
      <trkpt lat="45.8383" lon="4.2948">
        <ele>739.205</ele>
        <time>2019-10-21T14:21:43Z</time>
      </trkpt>
      <trkpt lat="45.83832" lon="4.29485">
        <ele>741.203</ele>
        <time>2019-10-21T14:21:49Z</time>
      </trkpt>
      <trkpt lat="45.83837" lon="4.29493">
        <ele>740.486</ele>
        <time>2019-10-21T14:21:55Z</time>
      </trkpt>
      <trkpt lat="45.83839" lon="4.29501">
        <ele>740.389</ele>
        <time>2019-10-21T14:22:00Z</time>
      </trkpt>
      <trkpt lat="45.83842" lon="4.29509">
        <ele>739.568</ele>
        <time>2019-10-21T14:22:06Z</time>
      </trkpt>
      <trkpt lat="45.83843" lon="4.29514">
        <ele>740.616</ele>
        <time>2019-10-21T14:22:11Z</time>
      </trkpt>
      <trkpt lat="45.83845" lon="4.29523">
        <ele>739.729</ele>
        <time>2019-10-21T14:22:16Z</time>
      </trkpt>
      <trkpt lat="45.83847" lon="4.29531">
        <ele>738.877</ele>
        <time>2019-10-21T14:22:22Z</time>
      </trkpt>
      <trkpt lat="45.83847" lon="4.29539">
        <ele>737.754</ele>
        <time>2019-10-21T14:22:27Z</time>
      </trkpt>
      <trkpt lat="45.83849" lon="4.29549">
        <ele>737.947</ele>
        <time>2019-10-21T14:22:33Z</time>
      </trkpt>
      <trkpt lat="45.83851" lon="4.2956">
        <ele>736.541</ele>
        <time>2019-10-21T14:22:39Z</time>
      </trkpt>
      <trkpt lat="45.83851" lon="4.2957">
        <ele>736.003</ele>
        <time>2019-10-21T14:22:44Z</time>
      </trkpt>
      <trkpt lat="45.83851" lon="4.29582">
        <ele>734.641</ele>
        <time>2019-10-21T14:22:50Z</time>
      </trkpt>
      <trkpt lat="45.83851" lon="4.29593">
        <ele>734.635</ele>
        <time>2019-10-21T14:22:56Z</time>
      </trkpt>
      <trkpt lat="45.83852" lon="4.29602">
        <ele>734.44</ele>
        <time>2019-10-21T14:23:01Z</time>
      </trkpt>
      <trkpt lat="45.83852" lon="4.29613">
        <ele>734.254</ele>
        <time>2019-10-21T14:23:07Z</time>
      </trkpt>
      <trkpt lat="45.83853" lon="4.29623">
        <ele>734.753</ele>
        <time>2019-10-21T14:23:13Z</time>
      </trkpt>
      <trkpt lat="45.83852" lon="4.29634">
        <ele>735.053</ele>
        <time>2019-10-21T14:23:19Z</time>
      </trkpt>
      <trkpt lat="45.8385" lon="4.29644">
        <ele>735.917</ele>
        <time>2019-10-21T14:23:25Z</time>
      </trkpt>
      <trkpt lat="45.83847" lon="4.29654">
        <ele>724.792</ele>
        <time>2019-10-21T14:23:30Z</time>
      </trkpt>
      <trkpt lat="45.83845" lon="4.29663">
        <ele>724.558</ele>
        <time>2019-10-21T14:23:35Z</time>
      </trkpt>
      <trkpt lat="45.83841" lon="4.29671">
        <ele>723.656</ele>
        <time>2019-10-21T14:23:41Z</time>
      </trkpt>
      <trkpt lat="45.83836" lon="4.2968">
        <ele>723.585</ele>
        <time>2019-10-21T14:23:47Z</time>
      </trkpt>
      <trkpt lat="45.8383" lon="4.29688">
        <ele>715.368</ele>
        <time>2019-10-21T14:23:53Z</time>
      </trkpt>
      <trkpt lat="45.83826" lon="4.29696">
        <ele>728.487</ele>
        <time>2019-10-21T14:23:59Z</time>
      </trkpt>
      <trkpt lat="45.83822" lon="4.29703">
        <ele>734.503</ele>
        <time>2019-10-21T14:24:04Z</time>
      </trkpt>
      <trkpt lat="45.83817" lon="4.2971">
        <ele>735.143</ele>
        <time>2019-10-21T14:24:09Z</time>
      </trkpt>
      <trkpt lat="45.83813" lon="4.29717">
        <ele>735.568</ele>
        <time>2019-10-21T14:24:14Z</time>
      </trkpt>
      <trkpt lat="45.83808" lon="4.29726">
        <ele>736.054</ele>
        <time>2019-10-21T14:24:20Z</time>
      </trkpt>
      <trkpt lat="45.83802" lon="4.29734">
        <ele>737.902</ele>
        <time>2019-10-21T14:24:26Z</time>
      </trkpt>
      <trkpt lat="45.83797" lon="4.29743">
        <ele>738.019</ele>
        <time>2019-10-21T14:24:32Z</time>
      </trkpt>
      <trkpt lat="45.83791" lon="4.29751">
        <ele>738.195</ele>
        <time>2019-10-21T14:24:38Z</time>
      </trkpt>
      <trkpt lat="45.83786" lon="4.29757">
        <ele>737.362</ele>
        <time>2019-10-21T14:24:43Z</time>
      </trkpt>
      <trkpt lat="45.83783" lon="4.29764">
        <ele>735.694</ele>
        <time>2019-10-21T14:24:49Z</time>
      </trkpt>
      <trkpt lat="45.83779" lon="4.29772">
        <ele>734.211</ele>
        <time>2019-10-21T14:24:54Z</time>
      </trkpt>
      <trkpt lat="45.83773" lon="4.29778">
        <ele>733.83</ele>
        <time>2019-10-21T14:25:00Z</time>
      </trkpt>
      <trkpt lat="45.83769" lon="4.29782">
        <ele>733.247</ele>
        <time>2019-10-21T14:25:05Z</time>
      </trkpt>
      <trkpt lat="45.83763" lon="4.29787">
        <ele>733.926</ele>
        <time>2019-10-21T14:25:11Z</time>
      </trkpt>
      <trkpt lat="45.83758" lon="4.29791">
        <ele>731.366</ele>
        <time>2019-10-21T14:25:17Z</time>
      </trkpt>
      <trkpt lat="45.83753" lon="4.29795">
        <ele>732.888</ele>
        <time>2019-10-21T14:25:22Z</time>
      </trkpt>
      <trkpt lat="45.83748" lon="4.29801">
        <ele>734.81</ele>
        <time>2019-10-21T14:25:27Z</time>
      </trkpt>
      <trkpt lat="45.83746" lon="4.29813">
        <ele>734.945</ele>
        <time>2019-10-21T14:25:33Z</time>
      </trkpt>
      <trkpt lat="45.83743" lon="4.29824">
        <ele>735.267</ele>
        <time>2019-10-21T14:25:39Z</time>
      </trkpt>
      <trkpt lat="45.83742" lon="4.29835">
        <ele>738.284</ele>
        <time>2019-10-21T14:25:45Z</time>
      </trkpt>
      <trkpt lat="45.83742" lon="4.29843">
        <ele>740.05</ele>
        <time>2019-10-21T14:25:50Z</time>
      </trkpt>
      <trkpt lat="45.83741" lon="4.2985">
        <ele>739.156</ele>
        <time>2019-10-21T14:25:55Z</time>
      </trkpt>
      <trkpt lat="45.83742" lon="4.29858">
        <ele>740.297</ele>
        <time>2019-10-21T14:26:00Z</time>
      </trkpt>
      <trkpt lat="45.83741" lon="4.29871">
        <ele>740.848</ele>
        <time>2019-10-21T14:26:06Z</time>
      </trkpt>
      <trkpt lat="45.8374" lon="4.29882">
        <ele>739.907</ele>
        <time>2019-10-21T14:26:12Z</time>
      </trkpt>
      <trkpt lat="45.83739" lon="4.29893">
        <ele>739.231</ele>
        <time>2019-10-21T14:26:18Z</time>
      </trkpt>
      <trkpt lat="45.8374" lon="4.29903">
        <ele>738.544</ele>
        <time>2019-10-21T14:26:24Z</time>
      </trkpt>
      <trkpt lat="45.8374" lon="4.29915">
        <ele>738.603</ele>
        <time>2019-10-21T14:26:30Z</time>
      </trkpt>
      <trkpt lat="45.83741" lon="4.29925">
        <ele>739.248</ele>
        <time>2019-10-21T14:26:35Z</time>
      </trkpt>
      <trkpt lat="45.83741" lon="4.29936">
        <ele>739.681</ele>
        <time>2019-10-21T14:26:41Z</time>
      </trkpt>
      <trkpt lat="45.83741" lon="4.29947">
        <ele>739.716</ele>
        <time>2019-10-21T14:26:47Z</time>
      </trkpt>
      <trkpt lat="45.83742" lon="4.29959">
        <ele>739.459</ele>
        <time>2019-10-21T14:26:53Z</time>
      </trkpt>
      <trkpt lat="45.83743" lon="4.29968">
        <ele>739.614</ele>
        <time>2019-10-21T14:26:58Z</time>
      </trkpt>
      <trkpt lat="45.83744" lon="4.29976">
        <ele>741.716</ele>
        <time>2019-10-21T14:27:03Z</time>
      </trkpt>
      <trkpt lat="45.83745" lon="4.29986">
        <ele>742.131</ele>
        <time>2019-10-21T14:27:08Z</time>
      </trkpt>
      <trkpt lat="45.83746" lon="4.29999">
        <ele>744.455</ele>
        <time>2019-10-21T14:27:14Z</time>
      </trkpt>
      <trkpt lat="45.83748" lon="4.30006">
        <ele>739.994</ele>
        <time>2019-10-21T14:27:19Z</time>
      </trkpt>
      <trkpt lat="45.83749" lon="4.30017">
        <ele>740.374</ele>
        <time>2019-10-21T14:27:25Z</time>
      </trkpt>
      <trkpt lat="45.83751" lon="4.30026">
        <ele>740.261</ele>
        <time>2019-10-21T14:27:30Z</time>
      </trkpt>
      <trkpt lat="45.83753" lon="4.30035">
        <ele>739.735</ele>
        <time>2019-10-21T14:27:36Z</time>
      </trkpt>
      <trkpt lat="45.83756" lon="4.30044">
        <ele>739.043</ele>
        <time>2019-10-21T14:27:42Z</time>
      </trkpt>
      <trkpt lat="45.83758" lon="4.30054">
        <ele>739.761</ele>
        <time>2019-10-21T14:27:47Z</time>
      </trkpt>
      <trkpt lat="45.83759" lon="4.30066">
        <ele>740.701</ele>
        <time>2019-10-21T14:27:53Z</time>
      </trkpt>
      <trkpt lat="45.83761" lon="4.30075">
        <ele>740.48</ele>
        <time>2019-10-21T14:27:58Z</time>
      </trkpt>
      <trkpt lat="45.83762" lon="4.30084">
        <ele>741.027</ele>
        <time>2019-10-21T14:28:04Z</time>
      </trkpt>
      <trkpt lat="45.83763" lon="4.30095">
        <ele>742.659</ele>
        <time>2019-10-21T14:28:09Z</time>
      </trkpt>
      <trkpt lat="45.83766" lon="4.30104">
        <ele>744.02</ele>
        <time>2019-10-21T14:28:15Z</time>
      </trkpt>
      <trkpt lat="45.83767" lon="4.30111">
        <ele>745.249</ele>
        <time>2019-10-21T14:28:20Z</time>
      </trkpt>
      <trkpt lat="45.83768" lon="4.30122">
        <ele>745.713</ele>
        <time>2019-10-21T14:28:26Z</time>
      </trkpt>
      <trkpt lat="45.83769" lon="4.30133">
        <ele>745.75</ele>
        <time>2019-10-21T14:28:31Z</time>
      </trkpt>
      <trkpt lat="45.83769" lon="4.30142">
        <ele>744.214</ele>
        <time>2019-10-21T14:28:36Z</time>
      </trkpt>
      <trkpt lat="45.83769" lon="4.30154">
        <ele>742.648</ele>
        <time>2019-10-21T14:28:42Z</time>
      </trkpt>
      <trkpt lat="45.83769" lon="4.30165">
        <ele>744.308</ele>
        <time>2019-10-21T14:28:48Z</time>
      </trkpt>
      <trkpt lat="45.83767" lon="4.30176">
        <ele>744.583</ele>
        <time>2019-10-21T14:28:54Z</time>
      </trkpt>
      <trkpt lat="45.83766" lon="4.30185">
        <ele>742.8</ele>
        <time>2019-10-21T14:28:59Z</time>
      </trkpt>
      <trkpt lat="45.83764" lon="4.30196">
        <ele>744.342</ele>
        <time>2019-10-21T14:29:05Z</time>
      </trkpt>
      <trkpt lat="45.83764" lon="4.30206">
        <ele>746.436</ele>
        <time>2019-10-21T14:29:10Z</time>
      </trkpt>
      <trkpt lat="45.83765" lon="4.30217">
        <ele>748.199</ele>
        <time>2019-10-21T14:29:16Z</time>
      </trkpt>
      <trkpt lat="45.83768" lon="4.30224">
        <ele>747.139</ele>
        <time>2019-10-21T14:29:21Z</time>
      </trkpt>
      <trkpt lat="45.83774" lon="4.3023">
        <ele>746.947</ele>
        <time>2019-10-21T14:29:27Z</time>
      </trkpt>
      <trkpt lat="45.8378" lon="4.30237">
        <ele>746.195</ele>
        <time>2019-10-21T14:29:33Z</time>
      </trkpt>
      <trkpt lat="45.83782" lon="4.30244">
        <ele>746.757</ele>
        <time>2019-10-21T14:29:38Z</time>
      </trkpt>
      <trkpt lat="45.83781" lon="4.30255">
        <ele>746.008</ele>
        <time>2019-10-21T14:29:44Z</time>
      </trkpt>
      <trkpt lat="45.8378" lon="4.30266">
        <ele>744.472</ele>
        <time>2019-10-21T14:29:50Z</time>
      </trkpt>
      <trkpt lat="45.8378" lon="4.30277">
        <ele>742.86</ele>
        <time>2019-10-21T14:29:56Z</time>
      </trkpt>
      <trkpt lat="45.83781" lon="4.30286">
        <ele>742.246</ele>
        <time>2019-10-21T14:30:01Z</time>
      </trkpt>
      <trkpt lat="45.83781" lon="4.30296">
        <ele>743.221</ele>
        <time>2019-10-21T14:30:07Z</time>
      </trkpt>
      <trkpt lat="45.8378" lon="4.30308">
        <ele>742.652</ele>
        <time>2019-10-21T14:30:13Z</time>
      </trkpt>
      <trkpt lat="45.8378" lon="4.3032">
        <ele>742.584</ele>
        <time>2019-10-21T14:30:19Z</time>
      </trkpt>
      <trkpt lat="45.8378" lon="4.3033">
        <ele>740.322</ele>
        <time>2019-10-21T14:30:24Z</time>
      </trkpt>
      <trkpt lat="45.8378" lon="4.30342">
        <ele>739.993</ele>
        <time>2019-10-21T14:30:30Z</time>
      </trkpt>
      <trkpt lat="45.8378" lon="4.30354">
        <ele>739.834</ele>
        <time>2019-10-21T14:30:36Z</time>
      </trkpt>
      <trkpt lat="45.8378" lon="4.30365">
        <ele>738.192</ele>
        <time>2019-10-21T14:30:41Z</time>
      </trkpt>
      <trkpt lat="45.83781" lon="4.30376">
        <ele>738.09</ele>
        <time>2019-10-21T14:30:47Z</time>
      </trkpt>
      <trkpt lat="45.83781" lon="4.30386">
        <ele>738.263</ele>
        <time>2019-10-21T14:30:52Z</time>
      </trkpt>
      <trkpt lat="45.83782" lon="4.30397">
        <ele>737.831</ele>
        <time>2019-10-21T14:30:58Z</time>
      </trkpt>
      <trkpt lat="45.83782" lon="4.30408">
        <ele>738.873</ele>
        <time>2019-10-21T14:31:03Z</time>
      </trkpt>
      <trkpt lat="45.83782" lon="4.30419">
        <ele>738.8</ele>
        <time>2019-10-21T14:31:09Z</time>
      </trkpt>
      <trkpt lat="45.83782" lon="4.30428">
        <ele>738.567</ele>
        <time>2019-10-21T14:31:14Z</time>
      </trkpt>
      <trkpt lat="45.83782" lon="4.30438">
        <ele>737.63</ele>
        <time>2019-10-21T14:31:20Z</time>
      </trkpt>
      <trkpt lat="45.83781" lon="4.30448">
        <ele>737.318</ele>
        <time>2019-10-21T14:31:25Z</time>
      </trkpt>
      <trkpt lat="45.83781" lon="4.30459">
        <ele>737.128</ele>
        <time>2019-10-21T14:31:31Z</time>
      </trkpt>
      <trkpt lat="45.83782" lon="4.30469">
        <ele>735.704</ele>
        <time>2019-10-21T14:31:36Z</time>
      </trkpt>
      <trkpt lat="45.83782" lon="4.30477">
        <ele>735.737</ele>
        <time>2019-10-21T14:31:41Z</time>
      </trkpt>
      <trkpt lat="45.83783" lon="4.30488">
        <ele>734.547</ele>
        <time>2019-10-21T14:31:46Z</time>
      </trkpt>
      <trkpt lat="45.83783" lon="4.30501">
        <ele>734.353</ele>
        <time>2019-10-21T14:31:52Z</time>
      </trkpt>
      <trkpt lat="45.83783" lon="4.30511">
        <ele>732.844</ele>
        <time>2019-10-21T14:31:57Z</time>
      </trkpt>
      <trkpt lat="45.83783" lon="4.30523">
        <ele>731.463</ele>
        <time>2019-10-21T14:32:03Z</time>
      </trkpt>
      <trkpt lat="45.83783" lon="4.30535">
        <ele>730.662</ele>
        <time>2019-10-21T14:32:09Z</time>
      </trkpt>
      <trkpt lat="45.83783" lon="4.30545">
        <ele>731.411</ele>
        <time>2019-10-21T14:32:15Z</time>
      </trkpt>
      <trkpt lat="45.83782" lon="4.30555">
        <ele>741.376</ele>
        <time>2019-10-21T14:32:21Z</time>
      </trkpt>
      <trkpt lat="45.83781" lon="4.30566">
        <ele>739.09</ele>
        <time>2019-10-21T14:32:27Z</time>
      </trkpt>
      <trkpt lat="45.83781" lon="4.30576">
        <ele>739.328</ele>
        <time>2019-10-21T14:32:32Z</time>
      </trkpt>
      <trkpt lat="45.83781" lon="4.30585">
        <ele>738.849</ele>
        <time>2019-10-21T14:32:37Z</time>
      </trkpt>
      <trkpt lat="45.83781" lon="4.30596">
        <ele>745.6</ele>
        <time>2019-10-21T14:32:43Z</time>
      </trkpt>
      <trkpt lat="45.83782" lon="4.30606">
        <ele>745.639</ele>
        <time>2019-10-21T14:32:48Z</time>
      </trkpt>
      <trkpt lat="45.83783" lon="4.30614">
        <ele>745.783</ele>
        <time>2019-10-21T14:32:53Z</time>
      </trkpt>
      <trkpt lat="45.83784" lon="4.30625">
        <ele>744.805</ele>
        <time>2019-10-21T14:32:59Z</time>
      </trkpt>
      <trkpt lat="45.83785" lon="4.30634">
        <ele>746.607</ele>
        <time>2019-10-21T14:33:05Z</time>
      </trkpt>
      <trkpt lat="45.83786" lon="4.30643">
        <ele>749.086</ele>
        <time>2019-10-21T14:33:11Z</time>
      </trkpt>
      <trkpt lat="45.83783" lon="4.30653">
        <ele>742.594</ele>
        <time>2019-10-21T14:33:17Z</time>
      </trkpt>
      <trkpt lat="45.83784" lon="4.30661">
        <ele>744.378</ele>
        <time>2019-10-21T14:33:23Z</time>
      </trkpt>
      <trkpt lat="45.83787" lon="4.30669">
        <ele>748.92</ele>
        <time>2019-10-21T14:33:29Z</time>
      </trkpt>
      <trkpt lat="45.83787" lon="4.30678">
        <ele>724.638</ele>
        <time>2019-10-21T14:33:34Z</time>
      </trkpt>
      <trkpt lat="45.83787" lon="4.30688">
        <ele>744.961</ele>
        <time>2019-10-21T14:33:40Z</time>
      </trkpt>
      <trkpt lat="45.83786" lon="4.30697">
        <ele>744.413</ele>
        <time>2019-10-21T14:33:45Z</time>
      </trkpt>
      <trkpt lat="45.83786" lon="4.30709">
        <ele>745.588</ele>
        <time>2019-10-21T14:33:51Z</time>
      </trkpt>
      <trkpt lat="45.83783" lon="4.30719">
        <ele>723.8</ele>
        <time>2019-10-21T14:33:57Z</time>
      </trkpt>
      <trkpt lat="45.83778" lon="4.30721">
        <ele>723.828</ele>
        <time>2019-10-21T14:34:03Z</time>
      </trkpt>
      <trkpt lat="45.83774" lon="4.30724">
        <ele>715.164</ele>
        <time>2019-10-21T14:34:08Z</time>
      </trkpt>
      <trkpt lat="45.83768" lon="4.3073">
        <ele>752.737</ele>
        <time>2019-10-21T14:34:13Z</time>
      </trkpt>
      <trkpt lat="45.83761" lon="4.30735">
        <ele>759.987</ele>
        <time>2019-10-21T14:34:19Z</time>
      </trkpt>
      <trkpt lat="45.83757" lon="4.30741">
        <ele>757.006</ele>
        <time>2019-10-21T14:34:24Z</time>
      </trkpt>
      <trkpt lat="45.83761" lon="4.3075">
        <ele>722.461</ele>
        <time>2019-10-21T14:34:30Z</time>
      </trkpt>
      <trkpt lat="45.83765" lon="4.30759">
        <ele>722.518</ele>
        <time>2019-10-21T14:34:35Z</time>
      </trkpt>
      <trkpt lat="45.83765" lon="4.30772">
        <ele>757.779</ele>
        <time>2019-10-21T14:34:40Z</time>
      </trkpt>
      <trkpt lat="45.83765" lon="4.30781">
        <ele>752.256</ele>
        <time>2019-10-21T14:34:46Z</time>
      </trkpt>
      <trkpt lat="45.83764" lon="4.30788">
        <ele>750.53</ele>
        <time>2019-10-21T14:34:52Z</time>
      </trkpt>
      <trkpt lat="45.83764" lon="4.30792">
        <ele>752.685</ele>
        <time>2019-10-21T14:34:58Z</time>
      </trkpt>
      <trkpt lat="45.83762" lon="4.30792">
        <ele>755.166</ele>
        <time>2019-10-21T14:35:04Z</time>
      </trkpt>
      <trkpt lat="45.83763" lon="4.30793">
        <ele>758.072</ele>
        <time>2019-10-21T14:35:09Z</time>
      </trkpt>
      <trkpt lat="45.83762" lon="4.30792">
        <ele>757.173</ele>
        <time>2019-10-21T14:35:15Z</time>
      </trkpt>
      <trkpt lat="45.83763" lon="4.3079">
        <ele>757.526</ele>
        <time>2019-10-21T14:35:21Z</time>
      </trkpt>
      <trkpt lat="45.83763" lon="4.3079">
        <ele>756.964</ele>
        <time>2019-10-21T14:35:27Z</time>
      </trkpt>
      <trkpt lat="45.83763" lon="4.30789">
        <ele>755.103</ele>
        <time>2019-10-21T14:35:33Z</time>
      </trkpt>
      <trkpt lat="45.83763" lon="4.30789">
        <ele>753.001</ele>
        <time>2019-10-21T14:35:38Z</time>
      </trkpt>
      <trkpt lat="45.83763" lon="4.30789">
        <ele>754.814</ele>
        <time>2019-10-21T14:35:44Z</time>
      </trkpt>
      <trkpt lat="45.83764" lon="4.30789">
        <ele>755.395</ele>
        <time>2019-10-21T14:35:50Z</time>
      </trkpt>
      <trkpt lat="45.83764" lon="4.30789">
        <ele>755.649</ele>
        <time>2019-10-21T14:35:55Z</time>
      </trkpt>
      <trkpt lat="45.83766" lon="4.30789">
        <ele>756.893</ele>
        <time>2019-10-21T14:36:01Z</time>
      </trkpt>
      <trkpt lat="45.83766" lon="4.30789">
        <ele>757.285</ele>
        <time>2019-10-21T14:36:06Z</time>
      </trkpt>
      <trkpt lat="45.83769" lon="4.30788">
        <ele>757</ele>
        <time>2019-10-21T14:36:12Z</time>
      </trkpt>
      <trkpt lat="45.83767" lon="4.30788">
        <ele>755.832</ele>
        <time>2019-10-21T14:36:17Z</time>
      </trkpt>
      <trkpt lat="45.83766" lon="4.30788">
        <ele>756.94</ele>
        <time>2019-10-21T14:36:23Z</time>
      </trkpt>
      <trkpt lat="45.83766" lon="4.30788">
        <ele>755.842</ele>
        <time>2019-10-21T14:36:29Z</time>
      </trkpt>
      <trkpt lat="45.83767" lon="4.30788">
        <ele>756.636</ele>
        <time>2019-10-21T14:36:34Z</time>
      </trkpt>
      <trkpt lat="45.83767" lon="4.30788">
        <ele>754.542</ele>
        <time>2019-10-21T14:36:39Z</time>
      </trkpt>
      <trkpt lat="45.83767" lon="4.30788">
        <ele>754.223</ele>
        <time>2019-10-21T14:36:45Z</time>
      </trkpt>
      <trkpt lat="45.83767" lon="4.30788">
        <ele>756.021</ele>
        <time>2019-10-21T14:36:50Z</time>
      </trkpt>
      <trkpt lat="45.83765" lon="4.30788">
        <ele>750.329</ele>
        <time>2019-10-21T14:36:56Z</time>
      </trkpt>
      <trkpt lat="45.83765" lon="4.30788">
        <ele>747.419</ele>
        <time>2019-10-21T14:37:01Z</time>
      </trkpt>
      <trkpt lat="45.83765" lon="4.30788">
        <ele>735.052</ele>
        <time>2019-10-21T14:37:06Z</time>
      </trkpt>
      <trkpt lat="45.83763" lon="4.30788">
        <ele>737.106</ele>
        <time>2019-10-21T14:37:12Z</time>
      </trkpt>
      <trkpt lat="45.83761" lon="4.30793">
        <ele>735.938</ele>
        <time>2019-10-21T14:37:17Z</time>
      </trkpt>
      <trkpt lat="45.83759" lon="4.30801">
        <ele>735.042</ele>
        <time>2019-10-21T14:37:22Z</time>
      </trkpt>
      <trkpt lat="45.83757" lon="4.30813">
        <ele>734.734</ele>
        <time>2019-10-21T14:37:28Z</time>
      </trkpt>
      <trkpt lat="45.83755" lon="4.30826">
        <ele>736.161</ele>
        <time>2019-10-21T14:37:34Z</time>
      </trkpt>
    </trkseg>
  </trk>
</gpx>